<?xml version="1.0" encoding="UTF-8" standalone="no" ?>
<gpx xmlns="http://www.topografix.com/GPX/1/1" xmlns:xsi="http://www.w3.org/2001/XMLSchema-instance" xsi:schemaLocation="http://www.topografix.com/GPX/1/1 http://www.topografix.com/GPX/1/1/gpx.xsd" version="1.1" creator="VisuGPX - https://www.visugpx.com">
  <metadata>
    <name>VTT RSPG Breziers/Crete de la Scie</name>
    <desc><![CDATA[Le 10/09/2013 réédition de ce joli circuit Depuis Brezier traverser le hameau du Champsaur  , prendre à gauche puis à 500 m àdroite la piste qui conduit à Champdarène où on prend la route  à gauche traverser Chaumenq et au carrefour suivant prendre à gauche pour monter au col de garcinets d'où on descend jusqu'au premier embranchement , prendre à gauche la petite route qui traverse le hameau dse Garcinets et se transforme en piste ou on prend à gauche à chaque embranchement . Après iune montée soutenue puis à l'horizontale puis de nouveau en montée on arrive à un col de pistes , prendre à droite la piste en cul de sac en montagnes russes jusqu'au pylone relais géodésique d'ou la vue superbe surplombe la région de Serre Ponçon(Attention au précipice !!!) revenir  au carrefour et prendre à droite pour Breziers
Tout le parcors est sur pistes]]></desc>
  </metadata>
  <trk>
    <name><![CDATA[ACTIVE LOG 005]]></name>
    <trkseg>
      <trkpt lat="44.42797" lon="6.19829">
        <ele>845.6169434</ele>
        <time>2013-09-10T07:41:28Z</time>
      </trkpt>
      <trkpt lat="44.42799" lon="6.19835">
        <ele>847.0588379</ele>
        <time>2013-09-10T07:41:45Z</time>
      </trkpt>
      <trkpt lat="44.428" lon="6.19833">
        <ele>850.423584</ele>
        <time>2013-09-10T07:42:22Z</time>
      </trkpt>
      <trkpt lat="44.428" lon="6.19833">
        <ele>851.3847656</ele>
        <time>2013-09-10T07:43:03Z</time>
      </trkpt>
      <trkpt lat="44.428" lon="6.19833">
        <ele>850.423584</ele>
        <time>2013-09-10T07:44:14Z</time>
      </trkpt>
      <trkpt lat="44.428" lon="6.19833">
        <ele>850.423584</ele>
        <time>2013-09-10T07:44:50Z</time>
      </trkpt>
      <trkpt lat="44.428" lon="6.19832">
        <ele>849.9428711</ele>
        <time>2013-09-10T07:45:57Z</time>
      </trkpt>
      <trkpt lat="44.42801" lon="6.19832">
        <ele>849.9428711</ele>
        <time>2013-09-10T07:46:24Z</time>
      </trkpt>
      <trkpt lat="44.42803" lon="6.19835">
        <ele>849.9428711</ele>
        <time>2013-09-10T07:46:52Z</time>
      </trkpt>
      <trkpt lat="44.42808" lon="6.19845">
        <ele>849.9428711</ele>
        <time>2013-09-10T07:47:03Z</time>
      </trkpt>
      <trkpt lat="44.42821" lon="6.19852">
        <ele>850.9040527</ele>
        <time>2013-09-10T07:47:23Z</time>
      </trkpt>
      <trkpt lat="44.42831" lon="6.19856">
        <ele>851.3847656</ele>
        <time>2013-09-10T07:47:30Z</time>
      </trkpt>
      <trkpt lat="44.42842" lon="6.19857">
        <ele>851.8654785</ele>
        <time>2013-09-10T07:47:37Z</time>
      </trkpt>
      <trkpt lat="44.42835" lon="6.19865">
        <ele>852.8266602</ele>
        <time>2013-09-10T07:47:44Z</time>
      </trkpt>
      <trkpt lat="44.42793" lon="6.19864">
        <ele>854.2687988</ele>
        <time>2013-09-10T07:48:03Z</time>
      </trkpt>
      <trkpt lat="44.42755" lon="6.19863">
        <ele>854.7492676</ele>
        <time>2013-09-10T07:48:19Z</time>
      </trkpt>
      <trkpt lat="44.42713" lon="6.19848">
        <ele>858.1140137</ele>
        <time>2013-09-10T07:48:38Z</time>
      </trkpt>
      <trkpt lat="44.42677" lon="6.19839">
        <ele>861.4787598</ele>
        <time>2013-09-10T07:48:55Z</time>
      </trkpt>
      <trkpt lat="44.42649" lon="6.1985">
        <ele>863.8818359</ele>
        <time>2013-09-10T07:49:11Z</time>
      </trkpt>
      <trkpt lat="44.42642" lon="6.19865">
        <ele>864.3625488</ele>
        <time>2013-09-10T07:49:17Z</time>
      </trkpt>
      <trkpt lat="44.42638" lon="6.19867">
        <ele>864.8432617</ele>
        <time>2013-09-10T07:49:20Z</time>
      </trkpt>
      <trkpt lat="44.42638" lon="6.19871">
        <ele>864.3625488</ele>
        <time>2013-09-10T07:49:23Z</time>
      </trkpt>
      <trkpt lat="44.4264" lon="6.19868">
        <ele>864.8432617</ele>
        <time>2013-09-10T07:49:26Z</time>
      </trkpt>
      <trkpt lat="44.42643" lon="6.19869">
        <ele>864.3625488</ele>
        <time>2013-09-10T07:49:29Z</time>
      </trkpt>
      <trkpt lat="44.42644" lon="6.1987">
        <ele>864.8432617</ele>
        <time>2013-09-10T07:49:31Z</time>
      </trkpt>
      <trkpt lat="44.42621" lon="6.19888">
        <ele>864.3625488</ele>
        <time>2013-09-10T07:49:44Z</time>
      </trkpt>
      <trkpt lat="44.42611" lon="6.19898">
        <ele>863.8818359</ele>
        <time>2013-09-10T07:49:49Z</time>
      </trkpt>
      <trkpt lat="44.42604" lon="6.19906">
        <ele>863.8818359</ele>
        <time>2013-09-10T07:49:53Z</time>
      </trkpt>
      <trkpt lat="44.42583" lon="6.19916">
        <ele>862.9206543</ele>
        <time>2013-09-10T07:50:00Z</time>
      </trkpt>
      <trkpt lat="44.42589" lon="6.19952">
        <ele>865.8046875</ele>
        <time>2013-09-10T07:50:13Z</time>
      </trkpt>
      <trkpt lat="44.426" lon="6.19969">
        <ele>868.6884766</ele>
        <time>2013-09-10T07:50:26Z</time>
      </trkpt>
      <trkpt lat="44.42603" lon="6.19974">
        <ele>870.1303711</ele>
        <time>2013-09-10T07:50:31Z</time>
      </trkpt>
      <trkpt lat="44.4261" lon="6.19998">
        <ele>874.4562988</ele>
        <time>2013-09-10T07:50:44Z</time>
      </trkpt>
      <trkpt lat="44.42613" lon="6.20004">
        <ele>874.9370117</ele>
        <time>2013-09-10T07:50:46Z</time>
      </trkpt>
      <trkpt lat="44.42617" lon="6.2001">
        <ele>875.4174805</ele>
        <time>2013-09-10T07:50:50Z</time>
      </trkpt>
      <trkpt lat="44.42629" lon="6.20035">
        <ele>879.2629395</ele>
        <time>2013-09-10T07:51:05Z</time>
      </trkpt>
      <trkpt lat="44.42635" lon="6.20043">
        <ele>880.7050781</ele>
        <time>2013-09-10T07:51:18Z</time>
      </trkpt>
      <trkpt lat="44.42637" lon="6.20053">
        <ele>880.2243652</ele>
        <time>2013-09-10T07:51:28Z</time>
      </trkpt>
      <trkpt lat="44.42651" lon="6.20093">
        <ele>875.8981934</ele>
        <time>2013-09-10T07:51:37Z</time>
      </trkpt>
      <trkpt lat="44.42654" lon="6.20099">
        <ele>875.8981934</ele>
        <time>2013-09-10T07:51:38Z</time>
      </trkpt>
      <trkpt lat="44.42661" lon="6.2011">
        <ele>873.9755859</ele>
        <time>2013-09-10T07:51:40Z</time>
      </trkpt>
      <trkpt lat="44.42687" lon="6.20151">
        <ele>872.0529785</ele>
        <time>2013-09-10T07:51:48Z</time>
      </trkpt>
      <trkpt lat="44.427" lon="6.20176">
        <ele>871.5722656</ele>
        <time>2013-09-10T07:51:53Z</time>
      </trkpt>
      <trkpt lat="44.42725" lon="6.20217">
        <ele>872.0529785</ele>
        <time>2013-09-10T07:52:04Z</time>
      </trkpt>
      <trkpt lat="44.4273" lon="6.20223">
        <ele>871.0917969</ele>
        <time>2013-09-10T07:52:08Z</time>
      </trkpt>
      <trkpt lat="44.42754" lon="6.20251">
        <ele>872.5336914</ele>
        <time>2013-09-10T07:52:18Z</time>
      </trkpt>
      <trkpt lat="44.4277" lon="6.2027">
        <ele>875.8981934</ele>
        <time>2013-09-10T07:52:26Z</time>
      </trkpt>
      <trkpt lat="44.42774" lon="6.20274">
        <ele>875.8981934</ele>
        <time>2013-09-10T07:52:27Z</time>
      </trkpt>
      <trkpt lat="44.42777" lon="6.20278">
        <ele>874.9370117</ele>
        <time>2013-09-10T07:52:29Z</time>
      </trkpt>
      <trkpt lat="44.42795" lon="6.20299">
        <ele>877.8210449</ele>
        <time>2013-09-10T07:52:42Z</time>
      </trkpt>
      <trkpt lat="44.42801" lon="6.20307">
        <ele>879.2629395</ele>
        <time>2013-09-10T07:52:47Z</time>
      </trkpt>
      <trkpt lat="44.42818" lon="6.20331">
        <ele>882.6276855</ele>
        <time>2013-09-10T07:53:01Z</time>
      </trkpt>
      <trkpt lat="44.42819" lon="6.20333">
        <ele>883.5888672</ele>
        <time>2013-09-10T07:53:13Z</time>
      </trkpt>
      <trkpt lat="44.42819" lon="6.20333">
        <ele>883.5888672</ele>
        <time>2013-09-10T07:53:24Z</time>
      </trkpt>
      <trkpt lat="44.42805" lon="6.20361">
        <ele>883.5888672</ele>
        <time>2013-09-10T07:53:40Z</time>
      </trkpt>
      <trkpt lat="44.4278" lon="6.20397">
        <ele>883.1081543</ele>
        <time>2013-09-10T07:53:55Z</time>
      </trkpt>
      <trkpt lat="44.42753" lon="6.20435">
        <ele>884.0695801</ele>
        <time>2013-09-10T07:54:13Z</time>
      </trkpt>
      <trkpt lat="44.42739" lon="6.2045">
        <ele>885.9921875</ele>
        <time>2013-09-10T07:54:23Z</time>
      </trkpt>
      <trkpt lat="44.42721" lon="6.20481">
        <ele>886.9533691</ele>
        <time>2013-09-10T07:54:35Z</time>
      </trkpt>
      <trkpt lat="44.42725" lon="6.20507">
        <ele>885.5114746</ele>
        <time>2013-09-10T07:54:39Z</time>
      </trkpt>
      <trkpt lat="44.4274" lon="6.2059">
        <ele>882.1469727</ele>
        <time>2013-09-10T07:54:49Z</time>
      </trkpt>
      <trkpt lat="44.42749" lon="6.2063">
        <ele>882.6276855</ele>
        <time>2013-09-10T07:54:54Z</time>
      </trkpt>
      <trkpt lat="44.42748" lon="6.20677">
        <ele>883.1081543</ele>
        <time>2013-09-10T07:55:00Z</time>
      </trkpt>
      <trkpt lat="44.42745" lon="6.20696">
        <ele>883.1081543</ele>
        <time>2013-09-10T07:55:03Z</time>
      </trkpt>
      <trkpt lat="44.4275" lon="6.20734">
        <ele>884.0695801</ele>
        <time>2013-09-10T07:55:09Z</time>
      </trkpt>
      <trkpt lat="44.42768" lon="6.20799">
        <ele>886.4729004</ele>
        <time>2013-09-10T07:55:21Z</time>
      </trkpt>
      <trkpt lat="44.4277" lon="6.20841">
        <ele>890.3181152</ele>
        <time>2013-09-10T07:55:33Z</time>
      </trkpt>
      <trkpt lat="44.42759" lon="6.20881">
        <ele>892.7216797</ele>
        <time>2013-09-10T07:55:47Z</time>
      </trkpt>
      <trkpt lat="44.42744" lon="6.20908">
        <ele>895.1247559</ele>
        <time>2013-09-10T07:56:00Z</time>
      </trkpt>
      <trkpt lat="44.42727" lon="6.20933">
        <ele>896.0861816</ele>
        <time>2013-09-10T07:56:12Z</time>
      </trkpt>
      <trkpt lat="44.42698" lon="6.20967">
        <ele>898.0087891</ele>
        <time>2013-09-10T07:56:30Z</time>
      </trkpt>
      <trkpt lat="44.42671" lon="6.20994">
        <ele>900.4121094</ele>
        <time>2013-09-10T07:56:46Z</time>
      </trkpt>
      <trkpt lat="44.42643" lon="6.21014">
        <ele>902.3344727</ele>
        <time>2013-09-10T07:57:02Z</time>
      </trkpt>
      <trkpt lat="44.4263" lon="6.2102">
        <ele>905.2185059</ele>
        <time>2013-09-10T07:57:12Z</time>
      </trkpt>
      <trkpt lat="44.42615" lon="6.21024">
        <ele>906.1796875</ele>
        <time>2013-09-10T07:57:20Z</time>
      </trkpt>
      <trkpt lat="44.42598" lon="6.21033">
        <ele>908.1027832</ele>
        <time>2013-09-10T07:57:32Z</time>
      </trkpt>
      <trkpt lat="44.42596" lon="6.21071">
        <ele>910.0251465</ele>
        <time>2013-09-10T07:57:51Z</time>
      </trkpt>
      <trkpt lat="44.42596" lon="6.21075">
        <ele>910.0251465</ele>
        <time>2013-09-10T07:57:54Z</time>
      </trkpt>
      <trkpt lat="44.42596" lon="6.21075">
        <ele>909.5446777</ele>
        <time>2013-09-10T07:57:56Z</time>
      </trkpt>
      <trkpt lat="44.42596" lon="6.21075">
        <ele>910.5058594</ele>
        <time>2013-09-10T07:58:15Z</time>
      </trkpt>
      <trkpt lat="44.42596" lon="6.21075">
        <ele>910.5058594</ele>
        <time>2013-09-10T07:58:31Z</time>
      </trkpt>
      <trkpt lat="44.42595" lon="6.21105">
        <ele>911.947998</ele>
        <time>2013-09-10T07:58:42Z</time>
      </trkpt>
      <trkpt lat="44.4259" lon="6.21131">
        <ele>913.8703613</ele>
        <time>2013-09-10T07:58:57Z</time>
      </trkpt>
      <trkpt lat="44.42586" lon="6.21132">
        <ele>914.3510742</ele>
        <time>2013-09-10T07:59:01Z</time>
      </trkpt>
      <trkpt lat="44.4257" lon="6.21139">
        <ele>916.7543945</ele>
        <time>2013-09-10T07:59:14Z</time>
      </trkpt>
      <trkpt lat="44.4257" lon="6.21139">
        <ele>917.2351074</ele>
        <time>2013-09-10T07:59:16Z</time>
      </trkpt>
      <trkpt lat="44.42554" lon="6.21143">
        <ele>920.1188965</ele>
        <time>2013-09-10T07:59:32Z</time>
      </trkpt>
      <trkpt lat="44.42539" lon="6.2115">
        <ele>922.5222168</ele>
        <time>2013-09-10T07:59:46Z</time>
      </trkpt>
      <trkpt lat="44.42514" lon="6.21164">
        <ele>924.9257813</ele>
        <time>2013-09-10T08:00:04Z</time>
      </trkpt>
      <trkpt lat="44.42505" lon="6.21171">
        <ele>925.8869629</ele>
        <time>2013-09-10T08:00:13Z</time>
      </trkpt>
      <trkpt lat="44.42501" lon="6.21176">
        <ele>927.3291016</ele>
        <time>2013-09-10T08:00:18Z</time>
      </trkpt>
      <trkpt lat="44.42493" lon="6.21186">
        <ele>928.2902832</ele>
        <time>2013-09-10T08:00:27Z</time>
      </trkpt>
      <trkpt lat="44.42493" lon="6.21186">
        <ele>928.7709961</ele>
        <time>2013-09-10T08:00:29Z</time>
      </trkpt>
      <trkpt lat="44.42493" lon="6.21186">
        <ele>930.2128906</ele>
        <time>2013-09-10T08:00:35Z</time>
      </trkpt>
      <trkpt lat="44.42493" lon="6.21186">
        <ele>931.1743164</ele>
        <time>2013-09-10T08:00:41Z</time>
      </trkpt>
      <trkpt lat="44.42464" lon="6.212">
        <ele>933.5773926</ele>
        <time>2013-09-10T08:00:55Z</time>
      </trkpt>
      <trkpt lat="44.42436" lon="6.21218">
        <ele>936.4614258</ele>
        <time>2013-09-10T08:01:15Z</time>
      </trkpt>
      <trkpt lat="44.42434" lon="6.21219">
        <ele>936.4614258</ele>
        <time>2013-09-10T08:01:17Z</time>
      </trkpt>
      <trkpt lat="44.42428" lon="6.21225">
        <ele>936.4614258</ele>
        <time>2013-09-10T08:01:21Z</time>
      </trkpt>
      <trkpt lat="44.42425" lon="6.21227">
        <ele>936.9418945</ele>
        <time>2013-09-10T08:01:23Z</time>
      </trkpt>
      <trkpt lat="44.42415" lon="6.21225">
        <ele>936.4614258</ele>
        <time>2013-09-10T08:01:28Z</time>
      </trkpt>
      <trkpt lat="44.42396" lon="6.21211">
        <ele>939.8259277</ele>
        <time>2013-09-10T08:01:44Z</time>
      </trkpt>
      <trkpt lat="44.42373" lon="6.21211">
        <ele>940.7873535</ele>
        <time>2013-09-10T08:01:57Z</time>
      </trkpt>
      <trkpt lat="44.42339" lon="6.21213">
        <ele>943.1906738</ele>
        <time>2013-09-10T08:02:16Z</time>
      </trkpt>
      <trkpt lat="44.42307" lon="6.21236">
        <ele>942.2294922</ele>
        <time>2013-09-10T08:02:34Z</time>
      </trkpt>
      <trkpt lat="44.42294" lon="6.21245">
        <ele>941.7487793</ele>
        <time>2013-09-10T08:02:40Z</time>
      </trkpt>
      <trkpt lat="44.42284" lon="6.21241">
        <ele>941.2680664</ele>
        <time>2013-09-10T08:02:44Z</time>
      </trkpt>
      <trkpt lat="44.42257" lon="6.21198">
        <ele>940.3068848</ele>
        <time>2013-09-10T08:03:01Z</time>
      </trkpt>
      <trkpt lat="44.42253" lon="6.21196">
        <ele>939.3452148</ele>
        <time>2013-09-10T08:03:03Z</time>
      </trkpt>
      <trkpt lat="44.42203" lon="6.21187">
        <ele>936.9418945</ele>
        <time>2013-09-10T08:03:17Z</time>
      </trkpt>
      <trkpt lat="44.42172" lon="6.21181">
        <ele>937.4226074</ele>
        <time>2013-09-10T08:03:29Z</time>
      </trkpt>
      <trkpt lat="44.42158" lon="6.21207">
        <ele>936.4614258</ele>
        <time>2013-09-10T08:03:38Z</time>
      </trkpt>
      <trkpt lat="44.42141" lon="6.21208">
        <ele>934.5388184</ele>
        <time>2013-09-10T08:03:43Z</time>
      </trkpt>
      <trkpt lat="44.42111" lon="6.21165">
        <ele>934.0581055</ele>
        <time>2013-09-10T08:03:57Z</time>
      </trkpt>
      <trkpt lat="44.42099" lon="6.21165">
        <ele>932.135498</ele>
        <time>2013-09-10T08:04:01Z</time>
      </trkpt>
      <trkpt lat="44.42086" lon="6.21146">
        <ele>931.1743164</ele>
        <time>2013-09-10T08:04:06Z</time>
      </trkpt>
      <trkpt lat="44.42078" lon="6.21128">
        <ele>931.1743164</ele>
        <time>2013-09-10T08:04:10Z</time>
      </trkpt>
      <trkpt lat="44.42053" lon="6.21121">
        <ele>929.7321777</ele>
        <time>2013-09-10T08:04:18Z</time>
      </trkpt>
      <trkpt lat="44.42021" lon="6.2109">
        <ele>928.7709961</ele>
        <time>2013-09-10T08:04:29Z</time>
      </trkpt>
      <trkpt lat="44.41979" lon="6.21064">
        <ele>925.40625</ele>
        <time>2013-09-10T08:04:42Z</time>
      </trkpt>
      <trkpt lat="44.41974" lon="6.21056">
        <ele>924.9257813</ele>
        <time>2013-09-10T08:04:44Z</time>
      </trkpt>
      <trkpt lat="44.41972" lon="6.21051">
        <ele>923.9641113</ele>
        <time>2013-09-10T08:04:45Z</time>
      </trkpt>
      <trkpt lat="44.41943" lon="6.21019">
        <ele>920.5996094</ele>
        <time>2013-09-10T08:04:54Z</time>
      </trkpt>
      <trkpt lat="44.41935" lon="6.21005">
        <ele>919.6384277</ele>
        <time>2013-09-10T08:04:58Z</time>
      </trkpt>
      <trkpt lat="44.41926" lon="6.21004">
        <ele>918.677002</ele>
        <time>2013-09-10T08:05:02Z</time>
      </trkpt>
      <trkpt lat="44.41911" lon="6.21032">
        <ele>914.3510742</ele>
        <time>2013-09-10T08:05:09Z</time>
      </trkpt>
      <trkpt lat="44.41907" lon="6.2104">
        <ele>913.3898926</ele>
        <time>2013-09-10T08:05:11Z</time>
      </trkpt>
      <trkpt lat="44.41905" lon="6.21044">
        <ele>912.9091797</ele>
        <time>2013-09-10T08:05:12Z</time>
      </trkpt>
      <trkpt lat="44.419" lon="6.21049">
        <ele>912.4284668</ele>
        <time>2013-09-10T08:05:15Z</time>
      </trkpt>
      <trkpt lat="44.4189" lon="6.21017">
        <ele>911.4672852</ele>
        <time>2013-09-10T08:05:22Z</time>
      </trkpt>
      <trkpt lat="44.41874" lon="6.20983">
        <ele>913.3898926</ele>
        <time>2013-09-10T08:05:33Z</time>
      </trkpt>
      <trkpt lat="44.41858" lon="6.20966">
        <ele>916.2736816</ele>
        <time>2013-09-10T08:05:44Z</time>
      </trkpt>
      <trkpt lat="44.41847" lon="6.20961">
        <ele>917.2351074</ele>
        <time>2013-09-10T08:05:50Z</time>
      </trkpt>
      <trkpt lat="44.41824" lon="6.20956">
        <ele>920.1188965</ele>
        <time>2013-09-10T08:06:03Z</time>
      </trkpt>
      <trkpt lat="44.41788" lon="6.20959">
        <ele>921.560791</ele>
        <time>2013-09-10T08:06:21Z</time>
      </trkpt>
      <trkpt lat="44.41748" lon="6.20979">
        <ele>923.0029297</ele>
        <time>2013-09-10T08:06:40Z</time>
      </trkpt>
      <trkpt lat="44.41721" lon="6.21019">
        <ele>923.0029297</ele>
        <time>2013-09-10T08:06:57Z</time>
      </trkpt>
      <trkpt lat="44.4171" lon="6.21049">
        <ele>925.8869629</ele>
        <time>2013-09-10T08:07:11Z</time>
      </trkpt>
      <trkpt lat="44.41677" lon="6.21055">
        <ele>928.2902832</ele>
        <time>2013-09-10T08:07:27Z</time>
      </trkpt>
      <trkpt lat="44.4164" lon="6.21066">
        <ele>930.2128906</ele>
        <time>2013-09-10T08:07:45Z</time>
      </trkpt>
      <trkpt lat="44.41606" lon="6.21078">
        <ele>932.6162109</ele>
        <time>2013-09-10T08:08:02Z</time>
      </trkpt>
      <trkpt lat="44.41577" lon="6.21085">
        <ele>933.5773926</ele>
        <time>2013-09-10T08:08:17Z</time>
      </trkpt>
      <trkpt lat="44.4154" lon="6.21094">
        <ele>932.6162109</ele>
        <time>2013-09-10T08:08:34Z</time>
      </trkpt>
      <trkpt lat="44.41533" lon="6.21096">
        <ele>933.0966797</ele>
        <time>2013-09-10T08:08:37Z</time>
      </trkpt>
      <trkpt lat="44.41531" lon="6.21096">
        <ele>933.5773926</ele>
        <time>2013-09-10T08:08:47Z</time>
      </trkpt>
      <trkpt lat="44.41531" lon="6.21096">
        <ele>933.0966797</ele>
        <time>2013-09-10T08:09:55Z</time>
      </trkpt>
      <trkpt lat="44.41515" lon="6.21087">
        <ele>932.6162109</ele>
        <time>2013-09-10T08:13:12Z</time>
      </trkpt>
      <trkpt lat="44.41508" lon="6.21079">
        <ele>933.0966797</ele>
        <time>2013-09-10T08:13:16Z</time>
      </trkpt>
      <trkpt lat="44.41481" lon="6.21091">
        <ele>935.5</ele>
        <time>2013-09-10T08:13:32Z</time>
      </trkpt>
      <trkpt lat="44.41459" lon="6.21103">
        <ele>934.5388184</ele>
        <time>2013-09-10T08:13:46Z</time>
      </trkpt>
      <trkpt lat="44.41455" lon="6.21098">
        <ele>934.5388184</ele>
        <time>2013-09-10T08:13:50Z</time>
      </trkpt>
      <trkpt lat="44.41457" lon="6.21061">
        <ele>930.6936035</ele>
        <time>2013-09-10T08:14:02Z</time>
      </trkpt>
      <trkpt lat="44.41459" lon="6.21047">
        <ele>929.7321777</ele>
        <time>2013-09-10T08:14:04Z</time>
      </trkpt>
      <trkpt lat="44.41464" lon="6.21015">
        <ele>927.3291016</ele>
        <time>2013-09-10T08:14:08Z</time>
      </trkpt>
      <trkpt lat="44.41461" lon="6.2097">
        <ele>923.9641113</ele>
        <time>2013-09-10T08:14:16Z</time>
      </trkpt>
      <trkpt lat="44.41449" lon="6.20971">
        <ele>923.0029297</ele>
        <time>2013-09-10T08:14:20Z</time>
      </trkpt>
      <trkpt lat="44.41438" lon="6.20992">
        <ele>921.0803223</ele>
        <time>2013-09-10T08:14:25Z</time>
      </trkpt>
      <trkpt lat="44.41431" lon="6.20999">
        <ele>920.1188965</ele>
        <time>2013-09-10T08:14:27Z</time>
      </trkpt>
      <trkpt lat="44.41428" lon="6.21003">
        <ele>919.6384277</ele>
        <time>2013-09-10T08:14:28Z</time>
      </trkpt>
      <trkpt lat="44.41412" lon="6.21016">
        <ele>918.1962891</ele>
        <time>2013-09-10T08:14:32Z</time>
      </trkpt>
      <trkpt lat="44.41346" lon="6.21064">
        <ele>916.2736816</ele>
        <time>2013-09-10T08:14:46Z</time>
      </trkpt>
      <trkpt lat="44.41299" lon="6.21084">
        <ele>916.7543945</ele>
        <time>2013-09-10T08:15:00Z</time>
      </trkpt>
      <trkpt lat="44.41237" lon="6.21107">
        <ele>916.2736816</ele>
        <time>2013-09-10T08:15:18Z</time>
      </trkpt>
      <trkpt lat="44.41183" lon="6.21121">
        <ele>917.2351074</ele>
        <time>2013-09-10T08:15:38Z</time>
      </trkpt>
      <trkpt lat="44.41177" lon="6.21094">
        <ele>917.7155762</ele>
        <time>2013-09-10T08:15:48Z</time>
      </trkpt>
      <trkpt lat="44.4117" lon="6.21061">
        <ele>918.677002</ele>
        <time>2013-09-10T08:16:00Z</time>
      </trkpt>
      <trkpt lat="44.41166" lon="6.21054">
        <ele>917.2351074</ele>
        <time>2013-09-10T08:16:04Z</time>
      </trkpt>
      <trkpt lat="44.41164" lon="6.21052">
        <ele>919.1577148</ele>
        <time>2013-09-10T08:16:06Z</time>
      </trkpt>
      <trkpt lat="44.4116" lon="6.21005">
        <ele>922.0415039</ele>
        <time>2013-09-10T08:16:24Z</time>
      </trkpt>
      <trkpt lat="44.41156" lon="6.20976">
        <ele>924.9257813</ele>
        <time>2013-09-10T08:16:38Z</time>
      </trkpt>
      <trkpt lat="44.41134" lon="6.20983">
        <ele>925.8869629</ele>
        <time>2013-09-10T08:16:49Z</time>
      </trkpt>
      <trkpt lat="44.41131" lon="6.20982">
        <ele>926.3676758</ele>
        <time>2013-09-10T08:16:51Z</time>
      </trkpt>
      <trkpt lat="44.41106" lon="6.20979">
        <ele>929.2514648</ele>
        <time>2013-09-10T08:17:08Z</time>
      </trkpt>
      <trkpt lat="44.41075" lon="6.20994">
        <ele>932.6162109</ele>
        <time>2013-09-10T08:17:27Z</time>
      </trkpt>
      <trkpt lat="44.41052" lon="6.21009">
        <ele>935.0195313</ele>
        <time>2013-09-10T08:17:41Z</time>
      </trkpt>
      <trkpt lat="44.41024" lon="6.21027">
        <ele>937.4226074</ele>
        <time>2013-09-10T08:17:58Z</time>
      </trkpt>
      <trkpt lat="44.40991" lon="6.21049">
        <ele>940.7873535</ele>
        <time>2013-09-10T08:18:18Z</time>
      </trkpt>
      <trkpt lat="44.4097" lon="6.2105">
        <ele>942.2294922</ele>
        <time>2013-09-10T08:18:30Z</time>
      </trkpt>
      <trkpt lat="44.40968" lon="6.2106">
        <ele>943.6713867</ele>
        <time>2013-09-10T08:18:35Z</time>
      </trkpt>
      <trkpt lat="44.40972" lon="6.21071">
        <ele>944.6325684</ele>
        <time>2013-09-10T08:18:40Z</time>
      </trkpt>
      <trkpt lat="44.40993" lon="6.21069">
        <ele>946.074707</ele>
        <time>2013-09-10T08:18:50Z</time>
      </trkpt>
      <trkpt lat="44.41031" lon="6.21058">
        <ele>947.5166016</ele>
        <time>2013-09-10T08:19:07Z</time>
      </trkpt>
      <trkpt lat="44.41039" lon="6.21086">
        <ele>947.9973145</ele>
        <time>2013-09-10T08:19:17Z</time>
      </trkpt>
      <trkpt lat="44.41015" lon="6.21109">
        <ele>950.4006348</ele>
        <time>2013-09-10T08:19:31Z</time>
      </trkpt>
      <trkpt lat="44.41008" lon="6.21109">
        <ele>951.8425293</ele>
        <time>2013-09-10T08:19:35Z</time>
      </trkpt>
      <trkpt lat="44.40987" lon="6.21102">
        <ele>953.7651367</ele>
        <time>2013-09-10T08:19:46Z</time>
      </trkpt>
      <trkpt lat="44.40956" lon="6.21112">
        <ele>956.6491699</ele>
        <time>2013-09-10T08:20:02Z</time>
      </trkpt>
      <trkpt lat="44.40922" lon="6.21112">
        <ele>959.5332031</ele>
        <time>2013-09-10T08:20:20Z</time>
      </trkpt>
      <trkpt lat="44.40884" lon="6.2112">
        <ele>962.4169922</ele>
        <time>2013-09-10T08:20:41Z</time>
      </trkpt>
      <trkpt lat="44.40856" lon="6.21159">
        <ele>965.3010254</ele>
        <time>2013-09-10T08:21:03Z</time>
      </trkpt>
      <trkpt lat="44.40825" lon="6.21196">
        <ele>968.6655273</ele>
        <time>2013-09-10T08:21:25Z</time>
      </trkpt>
      <trkpt lat="44.40794" lon="6.21209">
        <ele>969.1462402</ele>
        <time>2013-09-10T08:21:40Z</time>
      </trkpt>
      <trkpt lat="44.4075" lon="6.21217">
        <ele>969.6269531</ele>
        <time>2013-09-10T08:21:59Z</time>
      </trkpt>
      <trkpt lat="44.40706" lon="6.21222">
        <ele>970.5881348</ele>
        <time>2013-09-10T08:22:17Z</time>
      </trkpt>
      <trkpt lat="44.4066" lon="6.21233">
        <ele>972.9916992</ele>
        <time>2013-09-10T08:22:38Z</time>
      </trkpt>
      <trkpt lat="44.40637" lon="6.21259">
        <ele>976.3562012</ele>
        <time>2013-09-10T08:22:53Z</time>
      </trkpt>
      <trkpt lat="44.40611" lon="6.21298">
        <ele>978.7595215</ele>
        <time>2013-09-10T08:23:12Z</time>
      </trkpt>
      <trkpt lat="44.40602" lon="6.21349">
        <ele>981.1628418</ele>
        <time>2013-09-10T08:23:30Z</time>
      </trkpt>
      <trkpt lat="44.40597" lon="6.21403">
        <ele>983.0852051</ele>
        <time>2013-09-10T08:23:49Z</time>
      </trkpt>
      <trkpt lat="44.40593" lon="6.21441">
        <ele>985.0080566</ele>
        <time>2013-09-10T08:24:02Z</time>
      </trkpt>
      <trkpt lat="44.40603" lon="6.21503">
        <ele>987.8918457</ele>
        <time>2013-09-10T08:24:24Z</time>
      </trkpt>
      <trkpt lat="44.4063" lon="6.21544">
        <ele>990.7758789</ele>
        <time>2013-09-10T08:24:43Z</time>
      </trkpt>
      <trkpt lat="44.40665" lon="6.21557">
        <ele>992.2180176</ele>
        <time>2013-09-10T08:25:00Z</time>
      </trkpt>
      <trkpt lat="44.40685" lon="6.21579">
        <ele>993.6599121</ele>
        <time>2013-09-10T08:25:12Z</time>
      </trkpt>
      <trkpt lat="44.40676" lon="6.21601">
        <ele>995.5825195</ele>
        <time>2013-09-10T08:25:22Z</time>
      </trkpt>
      <trkpt lat="44.40646" lon="6.21626">
        <ele>998.9470215</ele>
        <time>2013-09-10T08:25:40Z</time>
      </trkpt>
      <trkpt lat="44.40614" lon="6.21656">
        <ele>1000.8696289</ele>
        <time>2013-09-10T08:25:57Z</time>
      </trkpt>
      <trkpt lat="44.4058" lon="6.21686">
        <ele>1001.8310547</ele>
        <time>2013-09-10T08:26:13Z</time>
      </trkpt>
      <trkpt lat="44.40554" lon="6.21708">
        <ele>1003.2729492</ele>
        <time>2013-09-10T08:26:27Z</time>
      </trkpt>
      <trkpt lat="44.4052" lon="6.21739">
        <ele>1005.1958008</ele>
        <time>2013-09-10T08:26:45Z</time>
      </trkpt>
      <trkpt lat="44.40488" lon="6.21765">
        <ele>1008.5603027</ele>
        <time>2013-09-10T08:27:02Z</time>
      </trkpt>
      <trkpt lat="44.40487" lon="6.21766">
        <ele>1008.5603027</ele>
        <time>2013-09-10T08:27:03Z</time>
      </trkpt>
      <trkpt lat="44.40454" lon="6.21783">
        <ele>1010.963623</ele>
        <time>2013-09-10T08:27:20Z</time>
      </trkpt>
      <trkpt lat="44.40424" lon="6.21783">
        <ele>1013.8474121</ele>
        <time>2013-09-10T08:27:36Z</time>
      </trkpt>
      <trkpt lat="44.40375" lon="6.21801">
        <ele>1016.2507324</ele>
        <time>2013-09-10T08:28:01Z</time>
      </trkpt>
      <trkpt lat="44.40367" lon="6.21807">
        <ele>1019.1347656</ele>
        <time>2013-09-10T08:28:22Z</time>
      </trkpt>
      <trkpt lat="44.40286" lon="6.21797">
        <ele>1021.5380859</ele>
        <time>2013-09-10T08:28:39Z</time>
      </trkpt>
      <trkpt lat="44.40254" lon="6.21812">
        <ele>1023.9414063</ele>
        <time>2013-09-10T08:28:55Z</time>
      </trkpt>
      <trkpt lat="44.40207" lon="6.21842">
        <ele>1026.3447266</ele>
        <time>2013-09-10T08:29:18Z</time>
      </trkpt>
      <trkpt lat="44.40175" lon="6.21886">
        <ele>1027.7866211</ele>
        <time>2013-09-10T08:29:38Z</time>
      </trkpt>
      <trkpt lat="44.40172" lon="6.21955">
        <ele>1029.2285156</ele>
        <time>2013-09-10T08:29:56Z</time>
      </trkpt>
      <trkpt lat="44.40166" lon="6.22032">
        <ele>1030.6706543</ele>
        <time>2013-09-10T08:30:16Z</time>
      </trkpt>
      <trkpt lat="44.40142" lon="6.22038">
        <ele>1030.6706543</ele>
        <time>2013-09-10T08:30:27Z</time>
      </trkpt>
      <trkpt lat="44.40117" lon="6.21999">
        <ele>1032.1125488</ele>
        <time>2013-09-10T08:30:42Z</time>
      </trkpt>
      <trkpt lat="44.4008" lon="6.22005">
        <ele>1032.5932617</ele>
        <time>2013-09-10T08:30:57Z</time>
      </trkpt>
      <trkpt lat="44.40063" lon="6.22052">
        <ele>1033.0737305</ele>
        <time>2013-09-10T08:31:11Z</time>
      </trkpt>
      <trkpt lat="44.40031" lon="6.22099">
        <ele>1034.0351563</ele>
        <time>2013-09-10T08:31:28Z</time>
      </trkpt>
      <trkpt lat="44.39983" lon="6.22157">
        <ele>1035.4770508</ele>
        <time>2013-09-10T08:31:51Z</time>
      </trkpt>
      <trkpt lat="44.39975" lon="6.22161">
        <ele>1036.4387207</ele>
        <time>2013-09-10T08:31:54Z</time>
      </trkpt>
      <trkpt lat="44.39951" lon="6.22118">
        <ele>1036.9191895</ele>
        <time>2013-09-10T08:32:09Z</time>
      </trkpt>
      <trkpt lat="44.39926" lon="6.22081">
        <ele>1039.3225098</ele>
        <time>2013-09-10T08:32:25Z</time>
      </trkpt>
      <trkpt lat="44.39898" lon="6.2205">
        <ele>1041.2451172</ele>
        <time>2013-09-10T08:32:41Z</time>
      </trkpt>
      <trkpt lat="44.39889" lon="6.22039">
        <ele>1042.6872559</ele>
        <time>2013-09-10T08:32:47Z</time>
      </trkpt>
      <trkpt lat="44.39872" lon="6.22019">
        <ele>1045.090332</ele>
        <time>2013-09-10T08:32:59Z</time>
      </trkpt>
      <trkpt lat="44.39837" lon="6.22007">
        <ele>1048.454834</ele>
        <time>2013-09-10T08:33:20Z</time>
      </trkpt>
      <trkpt lat="44.39799" lon="6.21995">
        <ele>1051.3388672</ele>
        <time>2013-09-10T08:33:39Z</time>
      </trkpt>
      <trkpt lat="44.39772" lon="6.21972">
        <ele>1054.7036133</ele>
        <time>2013-09-10T08:33:55Z</time>
      </trkpt>
      <trkpt lat="44.39752" lon="6.21954">
        <ele>1057.1069336</ele>
        <time>2013-09-10T08:34:08Z</time>
      </trkpt>
      <trkpt lat="44.39729" lon="6.21929">
        <ele>1059.5102539</ele>
        <time>2013-09-10T08:34:22Z</time>
      </trkpt>
      <trkpt lat="44.39703" lon="6.21904">
        <ele>1060.9521484</ele>
        <time>2013-09-10T08:34:42Z</time>
      </trkpt>
      <trkpt lat="44.39693" lon="6.21896">
        <ele>1060.9521484</ele>
        <time>2013-09-10T08:34:51Z</time>
      </trkpt>
      <trkpt lat="44.39693" lon="6.21896">
        <ele>1061.9135742</ele>
        <time>2013-09-10T08:35:15Z</time>
      </trkpt>
      <trkpt lat="44.39693" lon="6.21896">
        <ele>1062.394043</ele>
        <time>2013-09-10T08:36:05Z</time>
      </trkpt>
      <trkpt lat="44.39693" lon="6.21896">
        <ele>1063.3554688</ele>
        <time>2013-09-10T08:37:27Z</time>
      </trkpt>
      <trkpt lat="44.39693" lon="6.21896">
        <ele>1063.8359375</ele>
        <time>2013-09-10T08:38:38Z</time>
      </trkpt>
      <trkpt lat="44.39685" lon="6.21888">
        <ele>1064.3166504</ele>
        <time>2013-09-10T08:39:38Z</time>
      </trkpt>
      <trkpt lat="44.39684" lon="6.21895">
        <ele>1064.3166504</ele>
        <time>2013-09-10T08:39:40Z</time>
      </trkpt>
      <trkpt lat="44.39696" lon="6.21928">
        <ele>1065.2780762</ele>
        <time>2013-09-10T08:39:55Z</time>
      </trkpt>
      <trkpt lat="44.39714" lon="6.21972">
        <ele>1066.7199707</ele>
        <time>2013-09-10T08:40:12Z</time>
      </trkpt>
      <trkpt lat="44.39733" lon="6.22019">
        <ele>1068.6428223</ele>
        <time>2013-09-10T08:40:31Z</time>
      </trkpt>
      <trkpt lat="44.39747" lon="6.22054">
        <ele>1069.604248</ele>
        <time>2013-09-10T08:40:44Z</time>
      </trkpt>
      <trkpt lat="44.39769" lon="6.22108">
        <ele>1071.0461426</ele>
        <time>2013-09-10T08:41:05Z</time>
      </trkpt>
      <trkpt lat="44.39783" lon="6.22141">
        <ele>1072.96875</ele>
        <time>2013-09-10T08:41:18Z</time>
      </trkpt>
      <trkpt lat="44.39801" lon="6.22192">
        <ele>1073.9299316</ele>
        <time>2013-09-10T08:41:37Z</time>
      </trkpt>
      <trkpt lat="44.39806" lon="6.2225">
        <ele>1074.8913574</ele>
        <time>2013-09-10T08:41:55Z</time>
      </trkpt>
      <trkpt lat="44.39807" lon="6.22308">
        <ele>1074.8913574</ele>
        <time>2013-09-10T08:42:11Z</time>
      </trkpt>
      <trkpt lat="44.39806" lon="6.22368">
        <ele>1075.8525391</ele>
        <time>2013-09-10T08:42:28Z</time>
      </trkpt>
      <trkpt lat="44.3979" lon="6.22397">
        <ele>1077.2946777</ele>
        <time>2013-09-10T08:42:40Z</time>
      </trkpt>
      <trkpt lat="44.39765" lon="6.22446">
        <ele>1078.2558594</ele>
        <time>2013-09-10T08:42:57Z</time>
      </trkpt>
      <trkpt lat="44.39761" lon="6.22495">
        <ele>1079.6977539</ele>
        <time>2013-09-10T08:43:11Z</time>
      </trkpt>
      <trkpt lat="44.39764" lon="6.22557">
        <ele>1080.6591797</ele>
        <time>2013-09-10T08:43:27Z</time>
      </trkpt>
      <trkpt lat="44.39791" lon="6.22557">
        <ele>1081.1398926</ele>
        <time>2013-09-10T08:43:37Z</time>
      </trkpt>
      <trkpt lat="44.39835" lon="6.2256">
        <ele>1083.0622559</ele>
        <time>2013-09-10T08:43:54Z</time>
      </trkpt>
      <trkpt lat="44.39859" lon="6.22511">
        <ele>1083.5429688</ele>
        <time>2013-09-10T08:44:10Z</time>
      </trkpt>
      <trkpt lat="44.39864" lon="6.22507">
        <ele>1083.5429688</ele>
        <time>2013-09-10T08:44:11Z</time>
      </trkpt>
      <trkpt lat="44.39877" lon="6.22503">
        <ele>1084.0239258</ele>
        <time>2013-09-10T08:44:15Z</time>
      </trkpt>
      <trkpt lat="44.39909" lon="6.22529">
        <ele>1084.9853516</ele>
        <time>2013-09-10T08:44:30Z</time>
      </trkpt>
      <trkpt lat="44.39961" lon="6.2256">
        <ele>1086.4272461</ele>
        <time>2013-09-10T08:44:49Z</time>
      </trkpt>
      <trkpt lat="44.40022" lon="6.22581">
        <ele>1087.3884277</ele>
        <time>2013-09-10T08:45:10Z</time>
      </trkpt>
      <trkpt lat="44.4006" lon="6.2259">
        <ele>1088.3498535</ele>
        <time>2013-09-10T08:45:23Z</time>
      </trkpt>
      <trkpt lat="44.40101" lon="6.22576">
        <ele>1089.3110352</ele>
        <time>2013-09-10T08:45:38Z</time>
      </trkpt>
      <trkpt lat="44.40161" lon="6.22551">
        <ele>1090.7529297</ele>
        <time>2013-09-10T08:46:00Z</time>
      </trkpt>
      <trkpt lat="44.40198" lon="6.22567">
        <ele>1091.7143555</ele>
        <time>2013-09-10T08:46:14Z</time>
      </trkpt>
      <trkpt lat="44.40195" lon="6.22611">
        <ele>1093.6369629</ele>
        <time>2013-09-10T08:46:27Z</time>
      </trkpt>
      <trkpt lat="44.40181" lon="6.22661">
        <ele>1096.0402832</ele>
        <time>2013-09-10T08:46:44Z</time>
      </trkpt>
      <trkpt lat="44.40172" lon="6.2271">
        <ele>1097.4821777</ele>
        <time>2013-09-10T08:46:59Z</time>
      </trkpt>
      <trkpt lat="44.40163" lon="6.22756">
        <ele>1099.4047852</ele>
        <time>2013-09-10T08:47:13Z</time>
      </trkpt>
      <trkpt lat="44.40166" lon="6.22809">
        <ele>1101.3276367</ele>
        <time>2013-09-10T08:47:29Z</time>
      </trkpt>
      <trkpt lat="44.40176" lon="6.2286">
        <ele>1103.2502441</ele>
        <time>2013-09-10T08:47:44Z</time>
      </trkpt>
      <trkpt lat="44.40179" lon="6.22908">
        <ele>1105.6535645</ele>
        <time>2013-09-10T08:48:00Z</time>
      </trkpt>
      <trkpt lat="44.40172" lon="6.22946">
        <ele>1107.095459</ele>
        <time>2013-09-10T08:48:15Z</time>
      </trkpt>
      <trkpt lat="44.40145" lon="6.22984">
        <ele>1109.979248</ele>
        <time>2013-09-10T08:48:33Z</time>
      </trkpt>
      <trkpt lat="44.40117" lon="6.22996">
        <ele>1112.3825684</ele>
        <time>2013-09-10T08:48:47Z</time>
      </trkpt>
      <trkpt lat="44.40081" lon="6.2302">
        <ele>1114.3051758</ele>
        <time>2013-09-10T08:49:05Z</time>
      </trkpt>
      <trkpt lat="44.40049" lon="6.23045">
        <ele>1116.7087402</ele>
        <time>2013-09-10T08:49:23Z</time>
      </trkpt>
      <trkpt lat="44.40014" lon="6.23073">
        <ele>1119.1120605</ele>
        <time>2013-09-10T08:49:41Z</time>
      </trkpt>
      <trkpt lat="44.3998" lon="6.23091">
        <ele>1121.5151367</ele>
        <time>2013-09-10T08:49:57Z</time>
      </trkpt>
      <trkpt lat="44.39945" lon="6.23123">
        <ele>1123.918457</ele>
        <time>2013-09-10T08:50:16Z</time>
      </trkpt>
      <trkpt lat="44.39904" lon="6.23163">
        <ele>1126.3217773</ele>
        <time>2013-09-10T08:50:38Z</time>
      </trkpt>
      <trkpt lat="44.39876" lon="6.23174">
        <ele>1128.7250977</ele>
        <time>2013-09-10T08:50:52Z</time>
      </trkpt>
      <trkpt lat="44.39834" lon="6.23193">
        <ele>1130.6477051</ele>
        <time>2013-09-10T08:51:12Z</time>
      </trkpt>
      <trkpt lat="44.39797" lon="6.23224">
        <ele>1132.5705566</ele>
        <time>2013-09-10T08:51:30Z</time>
      </trkpt>
      <trkpt lat="44.39769" lon="6.23246">
        <ele>1134.973877</ele>
        <time>2013-09-10T08:51:45Z</time>
      </trkpt>
      <trkpt lat="44.39734" lon="6.23275">
        <ele>1137.3769531</ele>
        <time>2013-09-10T08:52:03Z</time>
      </trkpt>
      <trkpt lat="44.39706" lon="6.23309">
        <ele>1139.2995605</ele>
        <time>2013-09-10T08:52:20Z</time>
      </trkpt>
      <trkpt lat="44.39673" lon="6.2332">
        <ele>1140.7414551</ele>
        <time>2013-09-10T08:52:36Z</time>
      </trkpt>
      <trkpt lat="44.39642" lon="6.23309">
        <ele>1142.6643066</ele>
        <time>2013-09-10T08:52:51Z</time>
      </trkpt>
      <trkpt lat="44.39614" lon="6.23298">
        <ele>1144.5866699</ele>
        <time>2013-09-10T08:53:05Z</time>
      </trkpt>
      <trkpt lat="44.39586" lon="6.23303">
        <ele>1146.0288086</ele>
        <time>2013-09-10T08:53:19Z</time>
      </trkpt>
      <trkpt lat="44.39575" lon="6.23306">
        <ele>1146.5095215</ele>
        <time>2013-09-10T08:53:24Z</time>
      </trkpt>
      <trkpt lat="44.39562" lon="6.23344">
        <ele>1148.9128418</ele>
        <time>2013-09-10T08:53:37Z</time>
      </trkpt>
      <trkpt lat="44.39586" lon="6.23356">
        <ele>1149.8742676</ele>
        <time>2013-09-10T08:53:48Z</time>
      </trkpt>
      <trkpt lat="44.39621" lon="6.23368">
        <ele>1151.796875</ele>
        <time>2013-09-10T08:54:05Z</time>
      </trkpt>
      <trkpt lat="44.39643" lon="6.23389">
        <ele>1153.2387695</ele>
        <time>2013-09-10T08:54:17Z</time>
      </trkpt>
      <trkpt lat="44.3967" lon="6.23409">
        <ele>1155.161377</ele>
        <time>2013-09-10T08:54:31Z</time>
      </trkpt>
      <trkpt lat="44.39705" lon="6.23425">
        <ele>1157.0839844</ele>
        <time>2013-09-10T08:54:47Z</time>
      </trkpt>
      <trkpt lat="44.39742" lon="6.23429">
        <ele>1159.0065918</ele>
        <time>2013-09-10T08:55:02Z</time>
      </trkpt>
      <trkpt lat="44.39766" lon="6.23418">
        <ele>1160.9291992</ele>
        <time>2013-09-10T08:55:15Z</time>
      </trkpt>
      <trkpt lat="44.39799" lon="6.23403">
        <ele>1162.3710938</ele>
        <time>2013-09-10T08:55:28Z</time>
      </trkpt>
      <trkpt lat="44.3982" lon="6.23404">
        <ele>1163.8129883</ele>
        <time>2013-09-10T08:55:39Z</time>
      </trkpt>
      <trkpt lat="44.39848" lon="6.234">
        <ele>1165.736084</ele>
        <time>2013-09-10T08:55:51Z</time>
      </trkpt>
      <trkpt lat="44.39887" lon="6.23384">
        <ele>1167.6584473</ele>
        <time>2013-09-10T08:56:09Z</time>
      </trkpt>
      <trkpt lat="44.39925" lon="6.23392">
        <ele>1170.0617676</ele>
        <time>2013-09-10T08:56:26Z</time>
      </trkpt>
      <trkpt lat="44.39948" lon="6.2343">
        <ele>1172.4650879</ele>
        <time>2013-09-10T08:56:41Z</time>
      </trkpt>
      <trkpt lat="44.39968" lon="6.23467">
        <ele>1174.8684082</ele>
        <time>2013-09-10T08:56:55Z</time>
      </trkpt>
      <trkpt lat="44.39992" lon="6.23502">
        <ele>1175.8295898</ele>
        <time>2013-09-10T08:57:10Z</time>
      </trkpt>
      <trkpt lat="44.39995" lon="6.23548">
        <ele>1178.713623</ele>
        <time>2013-09-10T08:57:26Z</time>
      </trkpt>
      <trkpt lat="44.39992" lon="6.23557">
        <ele>1179.1940918</ele>
        <time>2013-09-10T08:57:29Z</time>
      </trkpt>
      <trkpt lat="44.39982" lon="6.2359">
        <ele>1180.6364746</ele>
        <time>2013-09-10T08:57:40Z</time>
      </trkpt>
      <trkpt lat="44.39979" lon="6.23645">
        <ele>1183.0395508</ele>
        <time>2013-09-10T08:57:56Z</time>
      </trkpt>
      <trkpt lat="44.39983" lon="6.23682">
        <ele>1184.4816895</ele>
        <time>2013-09-10T08:58:07Z</time>
      </trkpt>
      <trkpt lat="44.39992" lon="6.23726">
        <ele>1186.4042969</ele>
        <time>2013-09-10T08:58:21Z</time>
      </trkpt>
      <trkpt lat="44.39993" lon="6.23731">
        <ele>1186.4042969</ele>
        <time>2013-09-10T08:58:23Z</time>
      </trkpt>
      <trkpt lat="44.39994" lon="6.23741">
        <ele>1187.3654785</ele>
        <time>2013-09-10T08:58:27Z</time>
      </trkpt>
      <trkpt lat="44.39994" lon="6.2376">
        <ele>1187.8461914</ele>
        <time>2013-09-10T08:58:43Z</time>
      </trkpt>
      <trkpt lat="44.39994" lon="6.2376">
        <ele>1187.3654785</ele>
        <time>2013-09-10T08:58:58Z</time>
      </trkpt>
      <trkpt lat="44.39994" lon="6.2376">
        <ele>1187.3654785</ele>
        <time>2013-09-10T08:59:09Z</time>
      </trkpt>
      <trkpt lat="44.39994" lon="6.23747">
        <ele>1186.4042969</ele>
        <time>2013-09-10T08:59:15Z</time>
      </trkpt>
      <trkpt lat="44.39993" lon="6.23731">
        <ele>1185.923584</ele>
        <time>2013-09-10T08:59:27Z</time>
      </trkpt>
      <trkpt lat="44.39991" lon="6.2372">
        <ele>1185.923584</ele>
        <time>2013-09-10T08:59:30Z</time>
      </trkpt>
      <trkpt lat="44.40008" lon="6.23718">
        <ele>1185.4428711</ele>
        <time>2013-09-10T08:59:43Z</time>
      </trkpt>
      <trkpt lat="44.40008" lon="6.23718">
        <ele>1185.923584</ele>
        <time>2013-09-10T09:00:23Z</time>
      </trkpt>
      <trkpt lat="44.39993" lon="6.23729">
        <ele>1186.4042969</ele>
        <time>2013-09-10T09:00:27Z</time>
      </trkpt>
      <trkpt lat="44.4" lon="6.23725">
        <ele>1186.4042969</ele>
        <time>2013-09-10T09:00:32Z</time>
      </trkpt>
      <trkpt lat="44.39996" lon="6.2373">
        <ele>1186.4042969</ele>
        <time>2013-09-10T09:00:37Z</time>
      </trkpt>
      <trkpt lat="44.39996" lon="6.2373">
        <ele>1186.4042969</ele>
        <time>2013-09-10T09:00:47Z</time>
      </trkpt>
      <trkpt lat="44.39996" lon="6.2373">
        <ele>1186.8847656</ele>
        <time>2013-09-10T09:00:53Z</time>
      </trkpt>
      <trkpt lat="44.39996" lon="6.2373">
        <ele>1187.3654785</ele>
        <time>2013-09-10T09:01:12Z</time>
      </trkpt>
      <trkpt lat="44.39996" lon="6.2373">
        <ele>1186.8847656</ele>
        <time>2013-09-10T09:02:37Z</time>
      </trkpt>
      <trkpt lat="44.39994" lon="6.23777">
        <ele>1186.4042969</ele>
        <time>2013-09-10T09:02:42Z</time>
      </trkpt>
      <trkpt lat="44.39993" lon="6.23782">
        <ele>1186.4042969</ele>
        <time>2013-09-10T09:02:47Z</time>
      </trkpt>
      <trkpt lat="44.39992" lon="6.23783">
        <ele>1185.923584</ele>
        <time>2013-09-10T09:02:49Z</time>
      </trkpt>
      <trkpt lat="44.39991" lon="6.23789">
        <ele>1185.4428711</ele>
        <time>2013-09-10T09:03:08Z</time>
      </trkpt>
      <trkpt lat="44.39991" lon="6.23789">
        <ele>1185.4428711</ele>
        <time>2013-09-10T09:08:49Z</time>
      </trkpt>
      <trkpt lat="44.39991" lon="6.23789">
        <ele>1186.8847656</ele>
        <time>2013-09-10T09:08:52Z</time>
      </trkpt>
      <trkpt lat="44.39991" lon="6.23789">
        <ele>1185.923584</ele>
        <time>2013-09-10T09:09:13Z</time>
      </trkpt>
      <trkpt lat="44.39991" lon="6.23789">
        <ele>1186.4042969</ele>
        <time>2013-09-10T09:09:44Z</time>
      </trkpt>
      <trkpt lat="44.39984" lon="6.23801">
        <ele>1185.923584</ele>
        <time>2013-09-10T09:09:48Z</time>
      </trkpt>
      <trkpt lat="44.39951" lon="6.23815">
        <ele>1183.0395508</ele>
        <time>2013-09-10T09:10:00Z</time>
      </trkpt>
      <trkpt lat="44.39936" lon="6.23813">
        <ele>1181.5976563</ele>
        <time>2013-09-10T09:10:03Z</time>
      </trkpt>
      <trkpt lat="44.3992" lon="6.23808">
        <ele>1181.1171875</ele>
        <time>2013-09-10T09:10:06Z</time>
      </trkpt>
      <trkpt lat="44.399" lon="6.23793">
        <ele>1180.1557617</ele>
        <time>2013-09-10T09:10:11Z</time>
      </trkpt>
      <trkpt lat="44.39906" lon="6.23812">
        <ele>1177.7521973</ele>
        <time>2013-09-10T09:10:16Z</time>
      </trkpt>
      <trkpt lat="44.39916" lon="6.23818">
        <ele>1177.2717285</ele>
        <time>2013-09-10T09:10:18Z</time>
      </trkpt>
      <trkpt lat="44.39927" lon="6.23824">
        <ele>1175.8295898</ele>
        <time>2013-09-10T09:10:20Z</time>
      </trkpt>
      <trkpt lat="44.3994" lon="6.23828">
        <ele>1174.3876953</ele>
        <time>2013-09-10T09:10:22Z</time>
      </trkpt>
      <trkpt lat="44.39979" lon="6.23833">
        <ele>1171.5036621</ele>
        <time>2013-09-10T09:10:27Z</time>
      </trkpt>
      <trkpt lat="44.39995" lon="6.23838">
        <ele>1170.0617676</ele>
        <time>2013-09-10T09:10:29Z</time>
      </trkpt>
      <trkpt lat="44.4003" lon="6.23861">
        <ele>1168.619873</ele>
        <time>2013-09-10T09:10:34Z</time>
      </trkpt>
      <trkpt lat="44.40057" lon="6.23884">
        <ele>1167.6584473</ele>
        <time>2013-09-10T09:10:38Z</time>
      </trkpt>
      <trkpt lat="44.40075" lon="6.23906">
        <ele>1165.2553711</ele>
        <time>2013-09-10T09:10:41Z</time>
      </trkpt>
      <trkpt lat="44.4008" lon="6.23914">
        <ele>1164.2939453</ele>
        <time>2013-09-10T09:10:42Z</time>
      </trkpt>
      <trkpt lat="44.401" lon="6.23926">
        <ele>1162.8518066</ele>
        <time>2013-09-10T09:10:45Z</time>
      </trkpt>
      <trkpt lat="44.40124" lon="6.23936">
        <ele>1161.4099121</ele>
        <time>2013-09-10T09:10:49Z</time>
      </trkpt>
      <trkpt lat="44.40121" lon="6.2395">
        <ele>1159.9677734</ele>
        <time>2013-09-10T09:10:55Z</time>
      </trkpt>
      <trkpt lat="44.4011" lon="6.23947">
        <ele>1158.5258789</ele>
        <time>2013-09-10T09:10:57Z</time>
      </trkpt>
      <trkpt lat="44.40104" lon="6.23945">
        <ele>1156.6032715</ele>
        <time>2013-09-10T09:10:58Z</time>
      </trkpt>
      <trkpt lat="44.40083" lon="6.23935">
        <ele>1155.161377</ele>
        <time>2013-09-10T09:11:01Z</time>
      </trkpt>
      <trkpt lat="44.40076" lon="6.2393">
        <ele>1153.7194824</ele>
        <time>2013-09-10T09:11:02Z</time>
      </trkpt>
      <trkpt lat="44.40063" lon="6.23915">
        <ele>1152.2773438</ele>
        <time>2013-09-10T09:11:04Z</time>
      </trkpt>
      <trkpt lat="44.40041" lon="6.23897">
        <ele>1150.3549805</ele>
        <time>2013-09-10T09:11:07Z</time>
      </trkpt>
      <trkpt lat="44.40015" lon="6.23884">
        <ele>1146.9899902</ele>
        <time>2013-09-10T09:11:10Z</time>
      </trkpt>
      <trkpt lat="44.39989" lon="6.23873">
        <ele>1145.5480957</ele>
        <time>2013-09-10T09:11:13Z</time>
      </trkpt>
      <trkpt lat="44.39981" lon="6.23873">
        <ele>1145.0673828</ele>
        <time>2013-09-10T09:11:14Z</time>
      </trkpt>
      <trkpt lat="44.39927" lon="6.23878">
        <ele>1144.1062012</ele>
        <time>2013-09-10T09:11:20Z</time>
      </trkpt>
      <trkpt lat="44.3991" lon="6.23878">
        <ele>1143.1447754</ele>
        <time>2013-09-10T09:11:22Z</time>
      </trkpt>
      <trkpt lat="44.39882" lon="6.23867">
        <ele>1140.7414551</ele>
        <time>2013-09-10T09:11:25Z</time>
      </trkpt>
      <trkpt lat="44.39845" lon="6.23869">
        <ele>1137.3769531</ele>
        <time>2013-09-10T09:11:29Z</time>
      </trkpt>
      <trkpt lat="44.39815" lon="6.23863">
        <ele>1136.4157715</ele>
        <time>2013-09-10T09:11:32Z</time>
      </trkpt>
      <trkpt lat="44.39741" lon="6.23877">
        <ele>1133.0510254</ele>
        <time>2013-09-10T09:11:40Z</time>
      </trkpt>
      <trkpt lat="44.39706" lon="6.23872">
        <ele>1131.6088867</ele>
        <time>2013-09-10T09:11:44Z</time>
      </trkpt>
      <trkpt lat="44.39685" lon="6.23861">
        <ele>1131.128418</ele>
        <time>2013-09-10T09:11:47Z</time>
      </trkpt>
      <trkpt lat="44.39629" lon="6.23863">
        <ele>1129.2055664</ele>
        <time>2013-09-10T09:11:56Z</time>
      </trkpt>
      <trkpt lat="44.39615" lon="6.23867">
        <ele>1127.7636719</ele>
        <time>2013-09-10T09:11:59Z</time>
      </trkpt>
      <trkpt lat="44.39615" lon="6.23898">
        <ele>1127.2832031</ele>
        <time>2013-09-10T09:12:05Z</time>
      </trkpt>
      <trkpt lat="44.39619" lon="6.239">
        <ele>1127.2832031</ele>
        <time>2013-09-10T09:12:06Z</time>
      </trkpt>
      <trkpt lat="44.39654" lon="6.23908">
        <ele>1125.3603516</ele>
        <time>2013-09-10T09:12:11Z</time>
      </trkpt>
      <trkpt lat="44.39667" lon="6.23926">
        <ele>1124.3991699</ele>
        <time>2013-09-10T09:12:15Z</time>
      </trkpt>
      <trkpt lat="44.39675" lon="6.23956">
        <ele>1122.4765625</ele>
        <time>2013-09-10T09:12:20Z</time>
      </trkpt>
      <trkpt lat="44.39697" lon="6.2401">
        <ele>1121.5151367</ele>
        <time>2013-09-10T09:12:28Z</time>
      </trkpt>
      <trkpt lat="44.39713" lon="6.2403">
        <ele>1119.5927734</ele>
        <time>2013-09-10T09:12:32Z</time>
      </trkpt>
      <trkpt lat="44.39725" lon="6.24036">
        <ele>1119.5927734</ele>
        <time>2013-09-10T09:12:34Z</time>
      </trkpt>
      <trkpt lat="44.39757" lon="6.24057">
        <ele>1119.1120605</ele>
        <time>2013-09-10T09:12:39Z</time>
      </trkpt>
      <trkpt lat="44.39795" lon="6.24101">
        <ele>1113.8244629</ele>
        <time>2013-09-10T09:12:47Z</time>
      </trkpt>
      <trkpt lat="44.39799" lon="6.24108">
        <ele>1113.8244629</ele>
        <time>2013-09-10T09:12:48Z</time>
      </trkpt>
      <trkpt lat="44.3981" lon="6.24121">
        <ele>1115.7473145</ele>
        <time>2013-09-10T09:12:50Z</time>
      </trkpt>
      <trkpt lat="44.3982" lon="6.24133">
        <ele>1113.8244629</ele>
        <time>2013-09-10T09:12:52Z</time>
      </trkpt>
      <trkpt lat="44.39827" lon="6.24137">
        <ele>1113.8244629</ele>
        <time>2013-09-10T09:12:53Z</time>
      </trkpt>
      <trkpt lat="44.39876" lon="6.24176">
        <ele>1111.9020996</ele>
        <time>2013-09-10T09:13:04Z</time>
      </trkpt>
      <trkpt lat="44.39919" lon="6.2423">
        <ele>1109.4987793</ele>
        <time>2013-09-10T09:13:14Z</time>
      </trkpt>
      <trkpt lat="44.39962" lon="6.24322">
        <ele>1105.6535645</ele>
        <time>2013-09-10T09:13:28Z</time>
      </trkpt>
      <trkpt lat="44.3999" lon="6.24419">
        <ele>1102.7695313</ele>
        <time>2013-09-10T09:13:42Z</time>
      </trkpt>
      <trkpt lat="44.39991" lon="6.2443">
        <ele>1102.2888184</ele>
        <time>2013-09-10T09:13:44Z</time>
      </trkpt>
      <trkpt lat="44.39991" lon="6.24444">
        <ele>1102.2888184</ele>
        <time>2013-09-10T09:13:46Z</time>
      </trkpt>
      <trkpt lat="44.39985" lon="6.24473">
        <ele>1101.3276367</ele>
        <time>2013-09-10T09:13:50Z</time>
      </trkpt>
      <trkpt lat="44.40023" lon="6.24484">
        <ele>1100.8469238</ele>
        <time>2013-09-10T09:13:55Z</time>
      </trkpt>
      <trkpt lat="44.40017" lon="6.24492">
        <ele>1099.4047852</ele>
        <time>2013-09-10T09:13:59Z</time>
      </trkpt>
      <trkpt lat="44.40025" lon="6.24489">
        <ele>1098.9240723</ele>
        <time>2013-09-10T09:14:03Z</time>
      </trkpt>
      <trkpt lat="44.40032" lon="6.24486">
        <ele>1098.4433594</ele>
        <time>2013-09-10T09:14:11Z</time>
      </trkpt>
      <trkpt lat="44.40057" lon="6.24529">
        <ele>1096.0402832</ele>
        <time>2013-09-10T09:14:19Z</time>
      </trkpt>
      <trkpt lat="44.40055" lon="6.24537">
        <ele>1096.0402832</ele>
        <time>2013-09-10T09:14:21Z</time>
      </trkpt>
      <trkpt lat="44.40054" lon="6.24544">
        <ele>1096.0402832</ele>
        <time>2013-09-10T09:14:23Z</time>
      </trkpt>
      <trkpt lat="44.40058" lon="6.24572">
        <ele>1095.0788574</ele>
        <time>2013-09-10T09:14:27Z</time>
      </trkpt>
      <trkpt lat="44.4011" lon="6.2465">
        <ele>1093.15625</ele>
        <time>2013-09-10T09:14:41Z</time>
      </trkpt>
      <trkpt lat="44.40113" lon="6.24655">
        <ele>1092.6757813</ele>
        <time>2013-09-10T09:14:42Z</time>
      </trkpt>
      <trkpt lat="44.40133" lon="6.24692">
        <ele>1092.1950684</ele>
        <time>2013-09-10T09:14:48Z</time>
      </trkpt>
      <trkpt lat="44.40149" lon="6.24742">
        <ele>1090.7529297</ele>
        <time>2013-09-10T09:14:56Z</time>
      </trkpt>
      <trkpt lat="44.40154" lon="6.24771">
        <ele>1089.3110352</ele>
        <time>2013-09-10T09:15:00Z</time>
      </trkpt>
      <trkpt lat="44.40167" lon="6.24802">
        <ele>1088.3498535</ele>
        <time>2013-09-10T09:15:04Z</time>
      </trkpt>
      <trkpt lat="44.40201" lon="6.24865">
        <ele>1085.9465332</ele>
        <time>2013-09-10T09:15:13Z</time>
      </trkpt>
      <trkpt lat="44.4021" lon="6.24886">
        <ele>1085.4658203</ele>
        <time>2013-09-10T09:15:18Z</time>
      </trkpt>
      <trkpt lat="44.4024" lon="6.24991">
        <ele>1083.0622559</ele>
        <time>2013-09-10T09:15:33Z</time>
      </trkpt>
      <trkpt lat="44.40279" lon="6.25008">
        <ele>1080.1784668</ele>
        <time>2013-09-10T09:15:38Z</time>
      </trkpt>
      <trkpt lat="44.40278" lon="6.25013">
        <ele>1080.1784668</ele>
        <time>2013-09-10T09:15:39Z</time>
      </trkpt>
      <trkpt lat="44.40279" lon="6.25034">
        <ele>1080.6591797</ele>
        <time>2013-09-10T09:15:41Z</time>
      </trkpt>
      <trkpt lat="44.4029" lon="6.25074">
        <ele>1078.2558594</ele>
        <time>2013-09-10T09:15:48Z</time>
      </trkpt>
      <trkpt lat="44.4033" lon="6.25168">
        <ele>1075.8525391</ele>
        <time>2013-09-10T09:16:02Z</time>
      </trkpt>
      <trkpt lat="44.40361" lon="6.25191">
        <ele>1075.3718262</ele>
        <time>2013-09-10T09:16:07Z</time>
      </trkpt>
      <trkpt lat="44.40359" lon="6.2519">
        <ele>1075.3718262</ele>
        <time>2013-09-10T09:16:10Z</time>
      </trkpt>
      <trkpt lat="44.40348" lon="6.25186">
        <ele>1075.8525391</ele>
        <time>2013-09-10T09:16:15Z</time>
      </trkpt>
      <trkpt lat="44.403" lon="6.25119">
        <ele>1075.8525391</ele>
        <time>2013-09-10T09:16:28Z</time>
      </trkpt>
      <trkpt lat="44.40288" lon="6.25085">
        <ele>1076.8139648</ele>
        <time>2013-09-10T09:16:41Z</time>
      </trkpt>
      <trkpt lat="44.40279" lon="6.25036">
        <ele>1074.8913574</ele>
        <time>2013-09-10T09:16:48Z</time>
      </trkpt>
      <trkpt lat="44.40277" lon="6.25028">
        <ele>1075.3718262</ele>
        <time>2013-09-10T09:16:53Z</time>
      </trkpt>
      <trkpt lat="44.40245" lon="6.24982">
        <ele>1072.96875</ele>
        <time>2013-09-10T09:17:04Z</time>
      </trkpt>
      <trkpt lat="44.40239" lon="6.24955">
        <ele>1069.604248</ele>
        <time>2013-09-10T09:17:13Z</time>
      </trkpt>
      <trkpt lat="44.40238" lon="6.24953">
        <ele>1068.6428223</ele>
        <time>2013-09-10T09:17:14Z</time>
      </trkpt>
      <trkpt lat="44.40238" lon="6.24937">
        <ele>1067.2006836</ele>
        <time>2013-09-10T09:17:17Z</time>
      </trkpt>
      <trkpt lat="44.40241" lon="6.24912">
        <ele>1065.2780762</ele>
        <time>2013-09-10T09:17:19Z</time>
      </trkpt>
      <trkpt lat="44.40242" lon="6.24907">
        <ele>1063.3554688</ele>
        <time>2013-09-10T09:17:21Z</time>
      </trkpt>
      <trkpt lat="44.40284" lon="6.24783">
        <ele>1060.4714355</ele>
        <time>2013-09-10T09:17:30Z</time>
      </trkpt>
      <trkpt lat="44.40289" lon="6.24766">
        <ele>1059.029541</ele>
        <time>2013-09-10T09:17:32Z</time>
      </trkpt>
      <trkpt lat="44.40312" lon="6.24735">
        <ele>1058.5488281</ele>
        <time>2013-09-10T09:17:37Z</time>
      </trkpt>
      <trkpt lat="44.40318" lon="6.24729">
        <ele>1058.0683594</ele>
        <time>2013-09-10T09:17:39Z</time>
      </trkpt>
      <trkpt lat="44.40344" lon="6.24658">
        <ele>1061.9135742</ele>
        <time>2013-09-10T09:17:50Z</time>
      </trkpt>
      <trkpt lat="44.40347" lon="6.24648">
        <ele>1063.8359375</ele>
        <time>2013-09-10T09:17:53Z</time>
      </trkpt>
      <trkpt lat="44.40385" lon="6.24616">
        <ele>1063.3554688</ele>
        <time>2013-09-10T09:18:05Z</time>
      </trkpt>
      <trkpt lat="44.40436" lon="6.24611">
        <ele>1064.3166504</ele>
        <time>2013-09-10T09:18:17Z</time>
      </trkpt>
      <trkpt lat="44.40467" lon="6.24622">
        <ele>1065.2780762</ele>
        <time>2013-09-10T09:18:29Z</time>
      </trkpt>
      <trkpt lat="44.40475" lon="6.2463">
        <ele>1065.7587891</ele>
        <time>2013-09-10T09:18:33Z</time>
      </trkpt>
      <trkpt lat="44.40489" lon="6.24651">
        <ele>1066.2392578</ele>
        <time>2013-09-10T09:18:40Z</time>
      </trkpt>
      <trkpt lat="44.40541" lon="6.24694">
        <ele>1066.7199707</ele>
        <time>2013-09-10T09:18:59Z</time>
      </trkpt>
      <trkpt lat="44.40565" lon="6.24716">
        <ele>1066.7199707</ele>
        <time>2013-09-10T09:19:09Z</time>
      </trkpt>
      <trkpt lat="44.40586" lon="6.24732">
        <ele>1068.1621094</ele>
        <time>2013-09-10T09:19:20Z</time>
      </trkpt>
      <trkpt lat="44.40591" lon="6.24733">
        <ele>1068.1621094</ele>
        <time>2013-09-10T09:19:22Z</time>
      </trkpt>
      <trkpt lat="44.406" lon="6.24732">
        <ele>1068.1621094</ele>
        <time>2013-09-10T09:19:26Z</time>
      </trkpt>
      <trkpt lat="44.40615" lon="6.24749">
        <ele>1069.1235352</ele>
        <time>2013-09-10T09:19:36Z</time>
      </trkpt>
      <trkpt lat="44.40625" lon="6.24762">
        <ele>1070.0847168</ele>
        <time>2013-09-10T09:19:44Z</time>
      </trkpt>
      <trkpt lat="44.40632" lon="6.2477">
        <ele>1069.604248</ele>
        <time>2013-09-10T09:19:50Z</time>
      </trkpt>
      <trkpt lat="44.40637" lon="6.24776">
        <ele>1068.6428223</ele>
        <time>2013-09-10T09:19:54Z</time>
      </trkpt>
      <trkpt lat="44.40649" lon="6.24787">
        <ele>1067.2006836</ele>
        <time>2013-09-10T09:19:58Z</time>
      </trkpt>
      <trkpt lat="44.40656" lon="6.24793">
        <ele>1066.2392578</ele>
        <time>2013-09-10T09:20:03Z</time>
      </trkpt>
      <trkpt lat="44.40657" lon="6.24801">
        <ele>1066.2392578</ele>
        <time>2013-09-10T09:20:05Z</time>
      </trkpt>
      <trkpt lat="44.40661" lon="6.24814">
        <ele>1067.6811523</ele>
        <time>2013-09-10T09:20:09Z</time>
      </trkpt>
      <trkpt lat="44.40663" lon="6.24846">
        <ele>1066.7199707</ele>
        <time>2013-09-10T09:20:19Z</time>
      </trkpt>
      <trkpt lat="44.40666" lon="6.24854">
        <ele>1064.7973633</ele>
        <time>2013-09-10T09:20:23Z</time>
      </trkpt>
      <trkpt lat="44.40677" lon="6.24859">
        <ele>1065.7587891</ele>
        <time>2013-09-10T09:20:27Z</time>
      </trkpt>
      <trkpt lat="44.40689" lon="6.24879">
        <ele>1067.2006836</ele>
        <time>2013-09-10T09:20:40Z</time>
      </trkpt>
      <trkpt lat="44.40711" lon="6.24869">
        <ele>1067.6811523</ele>
        <time>2013-09-10T09:20:55Z</time>
      </trkpt>
      <trkpt lat="44.40727" lon="6.2484">
        <ele>1068.1621094</ele>
        <time>2013-09-10T09:21:11Z</time>
      </trkpt>
      <trkpt lat="44.40739" lon="6.24834">
        <ele>1068.1621094</ele>
        <time>2013-09-10T09:21:13Z</time>
      </trkpt>
      <trkpt lat="44.40756" lon="6.24838">
        <ele>1066.7199707</ele>
        <time>2013-09-10T09:21:30Z</time>
      </trkpt>
      <trkpt lat="44.40757" lon="6.24839">
        <ele>1066.7199707</ele>
        <time>2013-09-10T09:21:42Z</time>
      </trkpt>
      <trkpt lat="44.40759" lon="6.24847">
        <ele>1066.2392578</ele>
        <time>2013-09-10T09:21:48Z</time>
      </trkpt>
      <trkpt lat="44.40774" lon="6.24869">
        <ele>1066.2392578</ele>
        <time>2013-09-10T09:22:01Z</time>
      </trkpt>
      <trkpt lat="44.40771" lon="6.24876">
        <ele>1068.1621094</ele>
        <time>2013-09-10T09:22:03Z</time>
      </trkpt>
      <trkpt lat="44.40764" lon="6.24894">
        <ele>1067.6811523</ele>
        <time>2013-09-10T09:22:11Z</time>
      </trkpt>
      <trkpt lat="44.40769" lon="6.24907">
        <ele>1068.1621094</ele>
        <time>2013-09-10T09:22:17Z</time>
      </trkpt>
      <trkpt lat="44.40773" lon="6.24912">
        <ele>1069.1235352</ele>
        <time>2013-09-10T09:22:20Z</time>
      </trkpt>
      <trkpt lat="44.40787" lon="6.24949">
        <ele>1071.5266113</ele>
        <time>2013-09-10T09:22:39Z</time>
      </trkpt>
      <trkpt lat="44.40789" lon="6.24952">
        <ele>1070.5654297</ele>
        <time>2013-09-10T09:22:42Z</time>
      </trkpt>
      <trkpt lat="44.40789" lon="6.24956">
        <ele>1072.0073242</ele>
        <time>2013-09-10T09:22:44Z</time>
      </trkpt>
      <trkpt lat="44.40805" lon="6.24984">
        <ele>1072.96875</ele>
        <time>2013-09-10T09:23:01Z</time>
      </trkpt>
      <trkpt lat="44.40809" lon="6.24989">
        <ele>1074.4106445</ele>
        <time>2013-09-10T09:23:04Z</time>
      </trkpt>
      <trkpt lat="44.40814" lon="6.25003">
        <ele>1074.8913574</ele>
        <time>2013-09-10T09:23:12Z</time>
      </trkpt>
      <trkpt lat="44.40823" lon="6.25015">
        <ele>1076.333252</ele>
        <time>2013-09-10T09:23:21Z</time>
      </trkpt>
      <trkpt lat="44.40826" lon="6.25026">
        <ele>1077.2946777</ele>
        <time>2013-09-10T09:23:27Z</time>
      </trkpt>
      <trkpt lat="44.40828" lon="6.25029">
        <ele>1077.7751465</ele>
        <time>2013-09-10T09:23:29Z</time>
      </trkpt>
      <trkpt lat="44.40838" lon="6.25048">
        <ele>1079.217041</ele>
        <time>2013-09-10T09:23:41Z</time>
      </trkpt>
      <trkpt lat="44.40839" lon="6.25055">
        <ele>1080.6591797</ele>
        <time>2013-09-10T09:23:45Z</time>
      </trkpt>
      <trkpt lat="44.40851" lon="6.25074">
        <ele>1081.6203613</ele>
        <time>2013-09-10T09:23:58Z</time>
      </trkpt>
      <trkpt lat="44.40855" lon="6.25077">
        <ele>1082.5817871</ele>
        <time>2013-09-10T09:24:01Z</time>
      </trkpt>
      <trkpt lat="44.40865" lon="6.2509">
        <ele>1084.5046387</ele>
        <time>2013-09-10T09:24:11Z</time>
      </trkpt>
      <trkpt lat="44.40882" lon="6.25113">
        <ele>1086.4272461</ele>
        <time>2013-09-10T09:24:28Z</time>
      </trkpt>
      <trkpt lat="44.40885" lon="6.25115">
        <ele>1085.9465332</ele>
        <time>2013-09-10T09:24:30Z</time>
      </trkpt>
      <trkpt lat="44.40904" lon="6.25132">
        <ele>1087.3884277</ele>
        <time>2013-09-10T09:24:46Z</time>
      </trkpt>
      <trkpt lat="44.40904" lon="6.25131">
        <ele>1087.3884277</ele>
        <time>2013-09-10T09:24:47Z</time>
      </trkpt>
      <trkpt lat="44.40899" lon="6.25119">
        <ele>1088.8305664</ele>
        <time>2013-09-10T09:24:54Z</time>
      </trkpt>
      <trkpt lat="44.40893" lon="6.25114">
        <ele>1089.791748</ele>
        <time>2013-09-10T09:24:59Z</time>
      </trkpt>
      <trkpt lat="44.40886" lon="6.25095">
        <ele>1090.2724609</ele>
        <time>2013-09-10T09:25:09Z</time>
      </trkpt>
      <trkpt lat="44.40881" lon="6.25082">
        <ele>1091.7143555</ele>
        <time>2013-09-10T09:25:16Z</time>
      </trkpt>
      <trkpt lat="44.40872" lon="6.25051">
        <ele>1092.1950684</ele>
        <time>2013-09-10T09:25:31Z</time>
      </trkpt>
      <trkpt lat="44.40873" lon="6.25032">
        <ele>1094.1176758</ele>
        <time>2013-09-10T09:25:40Z</time>
      </trkpt>
      <trkpt lat="44.40873" lon="6.25017">
        <ele>1094.5981445</ele>
        <time>2013-09-10T09:25:48Z</time>
      </trkpt>
      <trkpt lat="44.40874" lon="6.25006">
        <ele>1095.5595703</ele>
        <time>2013-09-10T09:25:53Z</time>
      </trkpt>
      <trkpt lat="44.40874" lon="6.25001">
        <ele>1094.1176758</ele>
        <time>2013-09-10T09:25:56Z</time>
      </trkpt>
      <trkpt lat="44.40875" lon="6.24995">
        <ele>1095.5595703</ele>
        <time>2013-09-10T09:25:58Z</time>
      </trkpt>
      <trkpt lat="44.40878" lon="6.24959">
        <ele>1096.0402832</ele>
        <time>2013-09-10T09:26:12Z</time>
      </trkpt>
      <trkpt lat="44.4088" lon="6.24926">
        <ele>1096.0402832</ele>
        <time>2013-09-10T09:26:24Z</time>
      </trkpt>
      <trkpt lat="44.40893" lon="6.2493">
        <ele>1097.0014648</ele>
        <time>2013-09-10T09:26:33Z</time>
      </trkpt>
      <trkpt lat="44.40894" lon="6.24936">
        <ele>1098.4433594</ele>
        <time>2013-09-10T09:26:36Z</time>
      </trkpt>
      <trkpt lat="44.40902" lon="6.24977">
        <ele>1101.3276367</ele>
        <time>2013-09-10T09:26:56Z</time>
      </trkpt>
      <trkpt lat="44.40911" lon="6.25002">
        <ele>1103.2502441</ele>
        <time>2013-09-10T09:27:07Z</time>
      </trkpt>
      <trkpt lat="44.40913" lon="6.2501">
        <ele>1103.730957</ele>
        <time>2013-09-10T09:27:11Z</time>
      </trkpt>
      <trkpt lat="44.40918" lon="6.2502">
        <ele>1104.6921387</ele>
        <time>2013-09-10T09:27:16Z</time>
      </trkpt>
      <trkpt lat="44.40926" lon="6.2503">
        <ele>1106.1340332</ele>
        <time>2013-09-10T09:27:23Z</time>
      </trkpt>
      <trkpt lat="44.40932" lon="6.25034">
        <ele>1107.5761719</ele>
        <time>2013-09-10T09:27:27Z</time>
      </trkpt>
      <trkpt lat="44.40959" lon="6.25032">
        <ele>1109.4987793</ele>
        <time>2013-09-10T09:27:45Z</time>
      </trkpt>
      <trkpt lat="44.40974" lon="6.25025">
        <ele>1112.3825684</ele>
        <time>2013-09-10T09:27:56Z</time>
      </trkpt>
      <trkpt lat="44.40994" lon="6.25013">
        <ele>1113.3439941</ele>
        <time>2013-09-10T09:28:12Z</time>
      </trkpt>
      <trkpt lat="44.40999" lon="6.25009">
        <ele>1115.2666016</ele>
        <time>2013-09-10T09:28:15Z</time>
      </trkpt>
      <trkpt lat="44.4101" lon="6.25003">
        <ele>1114.7858887</ele>
        <time>2013-09-10T09:28:22Z</time>
      </trkpt>
      <trkpt lat="44.41019" lon="6.24996">
        <ele>1116.7087402</ele>
        <time>2013-09-10T09:28:28Z</time>
      </trkpt>
      <trkpt lat="44.41026" lon="6.24991">
        <ele>1118.6313477</ele>
        <time>2013-09-10T09:28:32Z</time>
      </trkpt>
      <trkpt lat="44.41051" lon="6.2499">
        <ele>1118.6313477</ele>
        <time>2013-09-10T09:28:47Z</time>
      </trkpt>
      <trkpt lat="44.41065" lon="6.24994">
        <ele>1118.6313477</ele>
        <time>2013-09-10T09:28:57Z</time>
      </trkpt>
      <trkpt lat="44.41093" lon="6.24988">
        <ele>1119.5927734</ele>
        <time>2013-09-10T09:29:13Z</time>
      </trkpt>
      <trkpt lat="44.41117" lon="6.24976">
        <ele>1119.5927734</ele>
        <time>2013-09-10T09:29:26Z</time>
      </trkpt>
      <trkpt lat="44.41121" lon="6.24981">
        <ele>1119.1120605</ele>
        <time>2013-09-10T09:29:29Z</time>
      </trkpt>
      <trkpt lat="44.41127" lon="6.24983">
        <ele>1120.5539551</ele>
        <time>2013-09-10T09:29:33Z</time>
      </trkpt>
      <trkpt lat="44.41148" lon="6.24997">
        <ele>1122.4765625</ele>
        <time>2013-09-10T09:29:48Z</time>
      </trkpt>
      <trkpt lat="44.41153" lon="6.25007">
        <ele>1124.3991699</ele>
        <time>2013-09-10T09:29:57Z</time>
      </trkpt>
      <trkpt lat="44.41179" lon="6.2501">
        <ele>1125.3603516</ele>
        <time>2013-09-10T09:30:12Z</time>
      </trkpt>
      <trkpt lat="44.41185" lon="6.25012">
        <ele>1126.8024902</ele>
        <time>2013-09-10T09:30:16Z</time>
      </trkpt>
      <trkpt lat="44.41202" lon="6.25009">
        <ele>1125.8410645</ele>
        <time>2013-09-10T09:30:28Z</time>
      </trkpt>
      <trkpt lat="44.41203" lon="6.25007">
        <ele>1126.3217773</ele>
        <time>2013-09-10T09:30:30Z</time>
      </trkpt>
      <trkpt lat="44.41203" lon="6.25003">
        <ele>1127.7636719</ele>
        <time>2013-09-10T09:30:34Z</time>
      </trkpt>
      <trkpt lat="44.41194" lon="6.24992">
        <ele>1127.2832031</ele>
        <time>2013-09-10T09:30:47Z</time>
      </trkpt>
      <trkpt lat="44.41189" lon="6.24991">
        <ele>1126.8024902</ele>
        <time>2013-09-10T09:31:02Z</time>
      </trkpt>
      <trkpt lat="44.41191" lon="6.24987">
        <ele>1126.8024902</ele>
        <time>2013-09-10T09:31:13Z</time>
      </trkpt>
      <trkpt lat="44.41195" lon="6.24986">
        <ele>1126.8024902</ele>
        <time>2013-09-10T09:31:42Z</time>
      </trkpt>
      <trkpt lat="44.41196" lon="6.24987">
        <ele>1124.8798828</ele>
        <time>2013-09-10T09:31:59Z</time>
      </trkpt>
      <trkpt lat="44.41197" lon="6.24985">
        <ele>1121.9958496</ele>
        <time>2013-09-10T09:33:39Z</time>
      </trkpt>
      <trkpt lat="44.41193" lon="6.24988">
        <ele>1118.1506348</ele>
        <time>2013-09-10T09:35:09Z</time>
      </trkpt>
      <trkpt lat="44.41193" lon="6.24987">
        <ele>1115.2666016</ele>
        <time>2013-09-10T09:37:14Z</time>
      </trkpt>
      <trkpt lat="44.41195" lon="6.24988">
        <ele>1115.2666016</ele>
        <time>2013-09-10T09:37:32Z</time>
      </trkpt>
      <trkpt lat="44.41197" lon="6.24988">
        <ele>1113.3439941</ele>
        <time>2013-09-10T09:38:45Z</time>
      </trkpt>
      <trkpt lat="44.41214" lon="6.25006">
        <ele>1112.3825684</ele>
        <time>2013-09-10T09:42:06Z</time>
      </trkpt>
      <trkpt lat="44.41214" lon="6.25007">
        <ele>1112.3825684</ele>
        <time>2013-09-10T09:42:51Z</time>
      </trkpt>
      <trkpt lat="44.41215" lon="6.25002">
        <ele>1112.3825684</ele>
        <time>2013-09-10T09:43:50Z</time>
      </trkpt>
      <trkpt lat="44.41223" lon="6.25001">
        <ele>1110.9406738</ele>
        <time>2013-09-10T09:45:02Z</time>
      </trkpt>
      <trkpt lat="44.41216" lon="6.24986">
        <ele>1110.9406738</ele>
        <time>2013-09-10T09:46:19Z</time>
      </trkpt>
      <trkpt lat="44.41212" lon="6.24971">
        <ele>1111.9020996</ele>
        <time>2013-09-10T09:46:30Z</time>
      </trkpt>
      <trkpt lat="44.41215" lon="6.24962">
        <ele>1112.8632813</ele>
        <time>2013-09-10T09:46:40Z</time>
      </trkpt>
      <trkpt lat="44.41214" lon="6.24962">
        <ele>1113.3439941</ele>
        <time>2013-09-10T09:46:48Z</time>
      </trkpt>
      <trkpt lat="44.4123" lon="6.24959">
        <ele>1115.2666016</ele>
        <time>2013-09-10T09:47:05Z</time>
      </trkpt>
      <trkpt lat="44.41231" lon="6.24959">
        <ele>1115.2666016</ele>
        <time>2013-09-10T09:47:06Z</time>
      </trkpt>
      <trkpt lat="44.41248" lon="6.24949">
        <ele>1118.1506348</ele>
        <time>2013-09-10T09:47:23Z</time>
      </trkpt>
      <trkpt lat="44.41269" lon="6.24937">
        <ele>1120.0732422</ele>
        <time>2013-09-10T09:47:41Z</time>
      </trkpt>
      <trkpt lat="44.41269" lon="6.24936">
        <ele>1120.0732422</ele>
        <time>2013-09-10T09:47:42Z</time>
      </trkpt>
      <trkpt lat="44.41269" lon="6.24931">
        <ele>1121.5151367</ele>
        <time>2013-09-10T09:47:45Z</time>
      </trkpt>
      <trkpt lat="44.41257" lon="6.24918">
        <ele>1122.9572754</ele>
        <time>2013-09-10T09:47:59Z</time>
      </trkpt>
      <trkpt lat="44.41254" lon="6.24914">
        <ele>1123.4379883</ele>
        <time>2013-09-10T09:48:03Z</time>
      </trkpt>
      <trkpt lat="44.41252" lon="6.2491">
        <ele>1124.3991699</ele>
        <time>2013-09-10T09:48:06Z</time>
      </trkpt>
      <trkpt lat="44.41241" lon="6.24889">
        <ele>1125.8410645</ele>
        <time>2013-09-10T09:48:20Z</time>
      </trkpt>
      <trkpt lat="44.41237" lon="6.24884">
        <ele>1126.8024902</ele>
        <time>2013-09-10T09:48:24Z</time>
      </trkpt>
      <trkpt lat="44.41222" lon="6.24856">
        <ele>1129.2055664</ele>
        <time>2013-09-10T09:48:46Z</time>
      </trkpt>
      <trkpt lat="44.41217" lon="6.24847">
        <ele>1130.1669922</ele>
        <time>2013-09-10T09:48:53Z</time>
      </trkpt>
      <trkpt lat="44.41212" lon="6.24843">
        <ele>1130.6477051</ele>
        <time>2013-09-10T09:48:57Z</time>
      </trkpt>
      <trkpt lat="44.41207" lon="6.24839">
        <ele>1130.1669922</ele>
        <time>2013-09-10T09:49:00Z</time>
      </trkpt>
      <trkpt lat="44.41204" lon="6.24836">
        <ele>1131.6088867</ele>
        <time>2013-09-10T09:49:03Z</time>
      </trkpt>
      <trkpt lat="44.41202" lon="6.24834">
        <ele>1132.0898438</ele>
        <time>2013-09-10T09:49:05Z</time>
      </trkpt>
      <trkpt lat="44.41197" lon="6.24827">
        <ele>1132.5705566</ele>
        <time>2013-09-10T09:49:12Z</time>
      </trkpt>
      <trkpt lat="44.41193" lon="6.24814">
        <ele>1134.0124512</ele>
        <time>2013-09-10T09:49:20Z</time>
      </trkpt>
      <trkpt lat="44.41194" lon="6.2481">
        <ele>1134.0124512</ele>
        <time>2013-09-10T09:49:23Z</time>
      </trkpt>
      <trkpt lat="44.41201" lon="6.2481">
        <ele>1135.4543457</ele>
        <time>2013-09-10T09:49:29Z</time>
      </trkpt>
      <trkpt lat="44.41207" lon="6.24816">
        <ele>1136.4157715</ele>
        <time>2013-09-10T09:49:35Z</time>
      </trkpt>
      <trkpt lat="44.41221" lon="6.2481">
        <ele>1138.3383789</ele>
        <time>2013-09-10T09:49:49Z</time>
      </trkpt>
      <trkpt lat="44.41228" lon="6.24812">
        <ele>1139.2995605</ele>
        <time>2013-09-10T09:49:55Z</time>
      </trkpt>
      <trkpt lat="44.41231" lon="6.24816">
        <ele>1139.2995605</ele>
        <time>2013-09-10T09:49:57Z</time>
      </trkpt>
      <trkpt lat="44.41254" lon="6.24819">
        <ele>1142.1835938</ele>
        <time>2013-09-10T09:50:14Z</time>
      </trkpt>
      <trkpt lat="44.41268" lon="6.24814">
        <ele>1144.1062012</ele>
        <time>2013-09-10T09:50:24Z</time>
      </trkpt>
      <trkpt lat="44.41279" lon="6.24808">
        <ele>1144.5866699</ele>
        <time>2013-09-10T09:50:32Z</time>
      </trkpt>
      <trkpt lat="44.41295" lon="6.24797">
        <ele>1146.5095215</ele>
        <time>2013-09-10T09:50:45Z</time>
      </trkpt>
      <trkpt lat="44.41305" lon="6.24776">
        <ele>1147.4707031</ele>
        <time>2013-09-10T09:50:56Z</time>
      </trkpt>
      <trkpt lat="44.4131" lon="6.2475">
        <ele>1147.951416</ele>
        <time>2013-09-10T09:51:11Z</time>
      </trkpt>
      <trkpt lat="44.41315" lon="6.24743">
        <ele>1148.9128418</ele>
        <time>2013-09-10T09:51:18Z</time>
      </trkpt>
      <trkpt lat="44.41321" lon="6.24743">
        <ele>1149.8742676</ele>
        <time>2013-09-10T09:51:22Z</time>
      </trkpt>
      <trkpt lat="44.41337" lon="6.24751">
        <ele>1151.796875</ele>
        <time>2013-09-10T09:51:35Z</time>
      </trkpt>
      <trkpt lat="44.41344" lon="6.2475">
        <ele>1152.7580566</ele>
        <time>2013-09-10T09:51:39Z</time>
      </trkpt>
      <trkpt lat="44.41361" lon="6.24733">
        <ele>1154.2001953</ele>
        <time>2013-09-10T09:51:54Z</time>
      </trkpt>
      <trkpt lat="44.41364" lon="6.2473">
        <ele>1154.6806641</ele>
        <time>2013-09-10T09:51:56Z</time>
      </trkpt>
      <trkpt lat="44.41374" lon="6.24713">
        <ele>1156.1225586</ele>
        <time>2013-09-10T09:52:10Z</time>
      </trkpt>
      <trkpt lat="44.41374" lon="6.24711">
        <ele>1156.1225586</ele>
        <time>2013-09-10T09:52:12Z</time>
      </trkpt>
      <trkpt lat="44.41387" lon="6.24693">
        <ele>1157.0839844</ele>
        <time>2013-09-10T09:52:24Z</time>
      </trkpt>
      <trkpt lat="44.414" lon="6.24678">
        <ele>1158.0454102</ele>
        <time>2013-09-10T09:52:37Z</time>
      </trkpt>
      <trkpt lat="44.41422" lon="6.24653">
        <ele>1160.4484863</ele>
        <time>2013-09-10T09:52:54Z</time>
      </trkpt>
      <trkpt lat="44.41434" lon="6.24645">
        <ele>1161.890625</ele>
        <time>2013-09-10T09:53:05Z</time>
      </trkpt>
      <trkpt lat="44.41447" lon="6.24636">
        <ele>1164.2939453</ele>
        <time>2013-09-10T09:53:22Z</time>
      </trkpt>
      <trkpt lat="44.41461" lon="6.24622">
        <ele>1167.1779785</ele>
        <time>2013-09-10T09:53:38Z</time>
      </trkpt>
      <trkpt lat="44.41462" lon="6.2462">
        <ele>1167.6584473</ele>
        <time>2013-09-10T09:53:40Z</time>
      </trkpt>
      <trkpt lat="44.4148" lon="6.24592">
        <ele>1169.5812988</ele>
        <time>2013-09-10T09:53:56Z</time>
      </trkpt>
      <trkpt lat="44.41485" lon="6.24581">
        <ele>1170.0617676</ele>
        <time>2013-09-10T09:54:02Z</time>
      </trkpt>
      <trkpt lat="44.41487" lon="6.2456">
        <ele>1171.0231934</ele>
        <time>2013-09-10T09:54:16Z</time>
      </trkpt>
      <trkpt lat="44.4149" lon="6.24556">
        <ele>1171.5036621</ele>
        <time>2013-09-10T09:54:19Z</time>
      </trkpt>
      <trkpt lat="44.41495" lon="6.24529">
        <ele>1172.9458008</ele>
        <time>2013-09-10T09:54:36Z</time>
      </trkpt>
      <trkpt lat="44.41514" lon="6.24496">
        <ele>1174.3876953</ele>
        <time>2013-09-10T09:54:53Z</time>
      </trkpt>
      <trkpt lat="44.41517" lon="6.24485">
        <ele>1174.8684082</ele>
        <time>2013-09-10T09:54:59Z</time>
      </trkpt>
      <trkpt lat="44.41523" lon="6.24464">
        <ele>1175.348877</ele>
        <time>2013-09-10T09:55:12Z</time>
      </trkpt>
      <trkpt lat="44.41523" lon="6.24463">
        <ele>1175.348877</ele>
        <time>2013-09-10T09:55:13Z</time>
      </trkpt>
      <trkpt lat="44.41523" lon="6.2446">
        <ele>1176.3103027</ele>
        <time>2013-09-10T09:55:16Z</time>
      </trkpt>
      <trkpt lat="44.41526" lon="6.2445">
        <ele>1176.3103027</ele>
        <time>2013-09-10T09:55:21Z</time>
      </trkpt>
      <trkpt lat="44.41525" lon="6.24445">
        <ele>1177.7521973</ele>
        <time>2013-09-10T09:55:25Z</time>
      </trkpt>
      <trkpt lat="44.41528" lon="6.24434">
        <ele>1177.2717285</ele>
        <time>2013-09-10T09:55:31Z</time>
      </trkpt>
      <trkpt lat="44.41523" lon="6.24425">
        <ele>1178.2329102</ele>
        <time>2013-09-10T09:55:38Z</time>
      </trkpt>
      <trkpt lat="44.41537" lon="6.244">
        <ele>1180.1557617</ele>
        <time>2013-09-10T09:55:51Z</time>
      </trkpt>
      <trkpt lat="44.41538" lon="6.24397">
        <ele>1180.1557617</ele>
        <time>2013-09-10T09:55:53Z</time>
      </trkpt>
      <trkpt lat="44.41543" lon="6.24386">
        <ele>1180.6364746</ele>
        <time>2013-09-10T09:56:01Z</time>
      </trkpt>
      <trkpt lat="44.41554" lon="6.24382">
        <ele>1182.0783691</ele>
        <time>2013-09-10T09:56:09Z</time>
      </trkpt>
      <trkpt lat="44.4156" lon="6.24386">
        <ele>1182.559082</ele>
        <time>2013-09-10T09:56:15Z</time>
      </trkpt>
      <trkpt lat="44.41576" lon="6.24378">
        <ele>1183.5202637</ele>
        <time>2013-09-10T09:56:26Z</time>
      </trkpt>
      <trkpt lat="44.41575" lon="6.24366">
        <ele>1184.4816895</ele>
        <time>2013-09-10T09:56:31Z</time>
      </trkpt>
      <trkpt lat="44.41569" lon="6.24351">
        <ele>1185.923584</ele>
        <time>2013-09-10T09:56:43Z</time>
      </trkpt>
      <trkpt lat="44.41571" lon="6.2435">
        <ele>1186.4042969</ele>
        <time>2013-09-10T09:56:44Z</time>
      </trkpt>
      <trkpt lat="44.41555" lon="6.24335">
        <ele>1187.3654785</ele>
        <time>2013-09-10T09:56:54Z</time>
      </trkpt>
      <trkpt lat="44.41543" lon="6.24313">
        <ele>1188.3269043</ele>
        <time>2013-09-10T09:57:06Z</time>
      </trkpt>
      <trkpt lat="44.41548" lon="6.24294">
        <ele>1188.8076172</ele>
        <time>2013-09-10T09:57:17Z</time>
      </trkpt>
      <trkpt lat="44.41566" lon="6.24257">
        <ele>1188.8076172</ele>
        <time>2013-09-10T09:57:31Z</time>
      </trkpt>
      <trkpt lat="44.41585" lon="6.24248">
        <ele>1188.3269043</ele>
        <time>2013-09-10T09:57:42Z</time>
      </trkpt>
      <trkpt lat="44.41605" lon="6.24242">
        <ele>1188.3269043</ele>
        <time>2013-09-10T09:57:52Z</time>
      </trkpt>
      <trkpt lat="44.4161" lon="6.24241">
        <ele>1188.3269043</ele>
        <time>2013-09-10T09:57:54Z</time>
      </trkpt>
      <trkpt lat="44.41624" lon="6.24228">
        <ele>1187.3654785</ele>
        <time>2013-09-10T09:58:02Z</time>
      </trkpt>
      <trkpt lat="44.41631" lon="6.2423">
        <ele>1187.3654785</ele>
        <time>2013-09-10T09:58:05Z</time>
      </trkpt>
      <trkpt lat="44.4166" lon="6.24253">
        <ele>1187.8461914</ele>
        <time>2013-09-10T09:58:18Z</time>
      </trkpt>
      <trkpt lat="44.41663" lon="6.24254">
        <ele>1187.8461914</ele>
        <time>2013-09-10T09:58:19Z</time>
      </trkpt>
      <trkpt lat="44.41675" lon="6.24251">
        <ele>1187.3654785</ele>
        <time>2013-09-10T09:58:25Z</time>
      </trkpt>
      <trkpt lat="44.41686" lon="6.24211">
        <ele>1185.923584</ele>
        <time>2013-09-10T09:58:40Z</time>
      </trkpt>
      <trkpt lat="44.41689" lon="6.24182">
        <ele>1185.923584</ele>
        <time>2013-09-10T09:58:50Z</time>
      </trkpt>
      <trkpt lat="44.41691" lon="6.24176">
        <ele>1185.4428711</ele>
        <time>2013-09-10T09:58:52Z</time>
      </trkpt>
      <trkpt lat="44.41693" lon="6.2417">
        <ele>1185.4428711</ele>
        <time>2013-09-10T09:58:54Z</time>
      </trkpt>
      <trkpt lat="44.4171" lon="6.2416">
        <ele>1183.5202637</ele>
        <time>2013-09-10T09:59:01Z</time>
      </trkpt>
      <trkpt lat="44.41714" lon="6.24166">
        <ele>1182.0783691</ele>
        <time>2013-09-10T09:59:04Z</time>
      </trkpt>
      <trkpt lat="44.41711" lon="6.24175">
        <ele>1179.6748047</ele>
        <time>2013-09-10T09:59:11Z</time>
      </trkpt>
      <trkpt lat="44.41707" lon="6.24186">
        <ele>1177.7521973</ele>
        <time>2013-09-10T09:59:22Z</time>
      </trkpt>
      <trkpt lat="44.4172" lon="6.24221">
        <ele>1173.9069824</ele>
        <time>2013-09-10T09:59:32Z</time>
      </trkpt>
      <trkpt lat="44.41732" lon="6.24237">
        <ele>1173.4265137</ele>
        <time>2013-09-10T09:59:35Z</time>
      </trkpt>
      <trkpt lat="44.41739" lon="6.24246">
        <ele>1171.984375</ele>
        <time>2013-09-10T09:59:37Z</time>
      </trkpt>
      <trkpt lat="44.41742" lon="6.24253">
        <ele>1171.5036621</ele>
        <time>2013-09-10T09:59:38Z</time>
      </trkpt>
      <trkpt lat="44.41774" lon="6.24249">
        <ele>1170.5424805</ele>
        <time>2013-09-10T09:59:44Z</time>
      </trkpt>
      <trkpt lat="44.4178" lon="6.24237">
        <ele>1169.1005859</ele>
        <time>2013-09-10T09:59:48Z</time>
      </trkpt>
      <trkpt lat="44.41804" lon="6.24235">
        <ele>1168.619873</ele>
        <time>2013-09-10T09:59:54Z</time>
      </trkpt>
      <trkpt lat="44.41812" lon="6.24244">
        <ele>1168.1391602</ele>
        <time>2013-09-10T09:59:56Z</time>
      </trkpt>
      <trkpt lat="44.41822" lon="6.24255">
        <ele>1168.1391602</ele>
        <time>2013-09-10T10:00:00Z</time>
      </trkpt>
      <trkpt lat="44.41839" lon="6.2427">
        <ele>1170.0617676</ele>
        <time>2013-09-10T10:00:07Z</time>
      </trkpt>
      <trkpt lat="44.41845" lon="6.24279">
        <ele>1171.0231934</ele>
        <time>2013-09-10T10:00:11Z</time>
      </trkpt>
      <trkpt lat="44.41884" lon="6.24335">
        <ele>1172.9458008</ele>
        <time>2013-09-10T10:00:26Z</time>
      </trkpt>
      <trkpt lat="44.41904" lon="6.24351">
        <ele>1173.9069824</ele>
        <time>2013-09-10T10:00:35Z</time>
      </trkpt>
      <trkpt lat="44.41927" lon="6.24357">
        <ele>1173.4265137</ele>
        <time>2013-09-10T10:00:42Z</time>
      </trkpt>
      <trkpt lat="44.41966" lon="6.24354">
        <ele>1173.4265137</ele>
        <time>2013-09-10T10:00:53Z</time>
      </trkpt>
      <trkpt lat="44.41972" lon="6.24348">
        <ele>1172.9458008</ele>
        <time>2013-09-10T10:00:54Z</time>
      </trkpt>
      <trkpt lat="44.41975" lon="6.24342">
        <ele>1171.984375</ele>
        <time>2013-09-10T10:00:56Z</time>
      </trkpt>
      <trkpt lat="44.41983" lon="6.24322">
        <ele>1170.0617676</ele>
        <time>2013-09-10T10:01:00Z</time>
      </trkpt>
      <trkpt lat="44.41993" lon="6.24295">
        <ele>1168.1391602</ele>
        <time>2013-09-10T10:01:03Z</time>
      </trkpt>
      <trkpt lat="44.42002" lon="6.24222">
        <ele>1167.1779785</ele>
        <time>2013-09-10T10:01:10Z</time>
      </trkpt>
      <trkpt lat="44.42003" lon="6.24206">
        <ele>1166.6972656</ele>
        <time>2013-09-10T10:01:12Z</time>
      </trkpt>
      <trkpt lat="44.42016" lon="6.24165">
        <ele>1166.2165527</ele>
        <time>2013-09-10T10:01:19Z</time>
      </trkpt>
      <trkpt lat="44.42018" lon="6.24151">
        <ele>1165.736084</ele>
        <time>2013-09-10T10:01:25Z</time>
      </trkpt>
      <trkpt lat="44.42023" lon="6.24115">
        <ele>1163.8129883</ele>
        <time>2013-09-10T10:01:33Z</time>
      </trkpt>
      <trkpt lat="44.4203" lon="6.24101">
        <ele>1163.3325195</ele>
        <time>2013-09-10T10:01:36Z</time>
      </trkpt>
      <trkpt lat="44.42049" lon="6.24087">
        <ele>1163.3325195</ele>
        <time>2013-09-10T10:01:48Z</time>
      </trkpt>
      <trkpt lat="44.42049" lon="6.24087">
        <ele>1163.8129883</ele>
        <time>2013-09-10T10:01:55Z</time>
      </trkpt>
      <trkpt lat="44.42044" lon="6.2409">
        <ele>1163.8129883</ele>
        <time>2013-09-10T10:01:58Z</time>
      </trkpt>
      <trkpt lat="44.42026" lon="6.24107">
        <ele>1162.8518066</ele>
        <time>2013-09-10T10:02:11Z</time>
      </trkpt>
      <trkpt lat="44.42027" lon="6.24105">
        <ele>1162.8518066</ele>
        <time>2013-09-10T10:02:12Z</time>
      </trkpt>
      <trkpt lat="44.42085" lon="6.2415">
        <ele>1162.3710938</ele>
        <time>2013-09-10T10:02:17Z</time>
      </trkpt>
      <trkpt lat="44.42112" lon="6.24146">
        <ele>1162.3710938</ele>
        <time>2013-09-10T10:02:28Z</time>
      </trkpt>
      <trkpt lat="44.42128" lon="6.24131">
        <ele>1162.8518066</ele>
        <time>2013-09-10T10:02:38Z</time>
      </trkpt>
      <trkpt lat="44.42148" lon="6.24157">
        <ele>1163.3325195</ele>
        <time>2013-09-10T10:02:50Z</time>
      </trkpt>
      <trkpt lat="44.4214" lon="6.24194">
        <ele>1161.890625</ele>
        <time>2013-09-10T10:03:02Z</time>
      </trkpt>
      <trkpt lat="44.42148" lon="6.24204">
        <ele>1161.890625</ele>
        <time>2013-09-10T10:03:07Z</time>
      </trkpt>
      <trkpt lat="44.42151" lon="6.24208">
        <ele>1161.890625</ele>
        <time>2013-09-10T10:03:09Z</time>
      </trkpt>
      <trkpt lat="44.42156" lon="6.24213">
        <ele>1162.3710938</ele>
        <time>2013-09-10T10:03:12Z</time>
      </trkpt>
      <trkpt lat="44.42179" lon="6.24223">
        <ele>1162.8518066</ele>
        <time>2013-09-10T10:03:25Z</time>
      </trkpt>
      <trkpt lat="44.42207" lon="6.2422">
        <ele>1162.8518066</ele>
        <time>2013-09-10T10:03:35Z</time>
      </trkpt>
      <trkpt lat="44.42215" lon="6.24219">
        <ele>1162.8518066</ele>
        <time>2013-09-10T10:03:39Z</time>
      </trkpt>
      <trkpt lat="44.42243" lon="6.24196">
        <ele>1159.4873047</ele>
        <time>2013-09-10T10:03:51Z</time>
      </trkpt>
      <trkpt lat="44.42262" lon="6.24162">
        <ele>1157.0839844</ele>
        <time>2013-09-10T10:04:02Z</time>
      </trkpt>
      <trkpt lat="44.42267" lon="6.24146">
        <ele>1155.6420898</ele>
        <time>2013-09-10T10:04:06Z</time>
      </trkpt>
      <trkpt lat="44.4227" lon="6.24135">
        <ele>1154.6806641</ele>
        <time>2013-09-10T10:04:09Z</time>
      </trkpt>
      <trkpt lat="44.423" lon="6.24109">
        <ele>1152.2773438</ele>
        <time>2013-09-10T10:04:19Z</time>
      </trkpt>
      <trkpt lat="44.423" lon="6.24109">
        <ele>1151.796875</ele>
        <time>2013-09-10T10:04:20Z</time>
      </trkpt>
      <trkpt lat="44.42297" lon="6.24135">
        <ele>1153.2387695</ele>
        <time>2013-09-10T10:04:31Z</time>
      </trkpt>
      <trkpt lat="44.42298" lon="6.24144">
        <ele>1153.7194824</ele>
        <time>2013-09-10T10:04:35Z</time>
      </trkpt>
      <trkpt lat="44.42301" lon="6.24148">
        <ele>1154.2001953</ele>
        <time>2013-09-10T10:04:37Z</time>
      </trkpt>
      <trkpt lat="44.42304" lon="6.2417">
        <ele>1154.6806641</ele>
        <time>2013-09-10T10:04:44Z</time>
      </trkpt>
      <trkpt lat="44.42345" lon="6.24237">
        <ele>1155.161377</ele>
        <time>2013-09-10T10:04:59Z</time>
      </trkpt>
      <trkpt lat="44.42355" lon="6.24261">
        <ele>1157.0839844</ele>
        <time>2013-09-10T10:05:10Z</time>
      </trkpt>
      <trkpt lat="44.42352" lon="6.24287">
        <ele>1159.0065918</ele>
        <time>2013-09-10T10:05:21Z</time>
      </trkpt>
      <trkpt lat="44.42357" lon="6.24299">
        <ele>1159.9677734</ele>
        <time>2013-09-10T10:05:28Z</time>
      </trkpt>
      <trkpt lat="44.42375" lon="6.24323">
        <ele>1161.890625</ele>
        <time>2013-09-10T10:05:46Z</time>
      </trkpt>
      <trkpt lat="44.42386" lon="6.24345">
        <ele>1164.2939453</ele>
        <time>2013-09-10T10:06:00Z</time>
      </trkpt>
      <trkpt lat="44.42391" lon="6.24352">
        <ele>1164.2939453</ele>
        <time>2013-09-10T10:06:05Z</time>
      </trkpt>
      <trkpt lat="44.42399" lon="6.24359">
        <ele>1165.736084</ele>
        <time>2013-09-10T10:06:13Z</time>
      </trkpt>
      <trkpt lat="44.42405" lon="6.24362">
        <ele>1166.6972656</ele>
        <time>2013-09-10T10:06:19Z</time>
      </trkpt>
      <trkpt lat="44.42411" lon="6.24368">
        <ele>1167.6584473</ele>
        <time>2013-09-10T10:06:25Z</time>
      </trkpt>
      <trkpt lat="44.42411" lon="6.24371">
        <ele>1167.6584473</ele>
        <time>2013-09-10T10:06:27Z</time>
      </trkpt>
      <trkpt lat="44.42418" lon="6.24375">
        <ele>1168.619873</ele>
        <time>2013-09-10T10:06:32Z</time>
      </trkpt>
      <trkpt lat="44.42433" lon="6.2439">
        <ele>1171.5036621</ele>
        <time>2013-09-10T10:06:48Z</time>
      </trkpt>
      <trkpt lat="44.42437" lon="6.244">
        <ele>1172.9458008</ele>
        <time>2013-09-10T10:06:57Z</time>
      </trkpt>
      <trkpt lat="44.42448" lon="6.2441">
        <ele>1174.3876953</ele>
        <time>2013-09-10T10:07:11Z</time>
      </trkpt>
      <trkpt lat="44.42451" lon="6.24414">
        <ele>1175.348877</ele>
        <time>2013-09-10T10:07:15Z</time>
      </trkpt>
      <trkpt lat="44.42455" lon="6.24415">
        <ele>1175.8295898</ele>
        <time>2013-09-10T10:07:19Z</time>
      </trkpt>
      <trkpt lat="44.42462" lon="6.24414">
        <ele>1176.7910156</ele>
        <time>2013-09-10T10:07:26Z</time>
      </trkpt>
      <trkpt lat="44.42466" lon="6.24405">
        <ele>1177.7521973</ele>
        <time>2013-09-10T10:07:34Z</time>
      </trkpt>
      <trkpt lat="44.42463" lon="6.24386">
        <ele>1180.1557617</ele>
        <time>2013-09-10T10:07:46Z</time>
      </trkpt>
      <trkpt lat="44.42461" lon="6.24379">
        <ele>1180.6364746</ele>
        <time>2013-09-10T10:07:53Z</time>
      </trkpt>
      <trkpt lat="44.4246" lon="6.24369">
        <ele>1181.5976563</ele>
        <time>2013-09-10T10:07:58Z</time>
      </trkpt>
      <trkpt lat="44.42456" lon="6.24338">
        <ele>1183.0395508</ele>
        <time>2013-09-10T10:08:15Z</time>
      </trkpt>
      <trkpt lat="44.42456" lon="6.24319">
        <ele>1184.0009766</ele>
        <time>2013-09-10T10:08:28Z</time>
      </trkpt>
      <trkpt lat="44.42455" lon="6.24295">
        <ele>1185.4428711</ele>
        <time>2013-09-10T10:08:41Z</time>
      </trkpt>
      <trkpt lat="44.42452" lon="6.24261">
        <ele>1186.4042969</ele>
        <time>2013-09-10T10:09:03Z</time>
      </trkpt>
      <trkpt lat="44.42457" lon="6.24227">
        <ele>1188.8076172</ele>
        <time>2013-09-10T10:09:26Z</time>
      </trkpt>
      <trkpt lat="44.42451" lon="6.24197">
        <ele>1190.7299805</ele>
        <time>2013-09-10T10:09:39Z</time>
      </trkpt>
      <trkpt lat="44.42444" lon="6.24169">
        <ele>1192.652832</ele>
        <time>2013-09-10T10:09:57Z</time>
      </trkpt>
      <trkpt lat="44.4242" lon="6.24127">
        <ele>1196.0175781</ele>
        <time>2013-09-10T10:10:23Z</time>
      </trkpt>
      <trkpt lat="44.42419" lon="6.24124">
        <ele>1196.498291</ele>
        <time>2013-09-10T10:10:25Z</time>
      </trkpt>
      <trkpt lat="44.42405" lon="6.24102">
        <ele>1197.4594727</ele>
        <time>2013-09-10T10:10:43Z</time>
      </trkpt>
      <trkpt lat="44.42409" lon="6.24094">
        <ele>1198.4206543</ele>
        <time>2013-09-10T10:10:49Z</time>
      </trkpt>
      <trkpt lat="44.42423" lon="6.24092">
        <ele>1198.9013672</ele>
        <time>2013-09-10T10:10:59Z</time>
      </trkpt>
      <trkpt lat="44.42435" lon="6.24101">
        <ele>1199.3820801</ele>
        <time>2013-09-10T10:11:11Z</time>
      </trkpt>
      <trkpt lat="44.42446" lon="6.24109">
        <ele>1200.3435059</ele>
        <time>2013-09-10T10:11:22Z</time>
      </trkpt>
      <trkpt lat="44.4245" lon="6.24111">
        <ele>1200.8239746</ele>
        <time>2013-09-10T10:11:26Z</time>
      </trkpt>
      <trkpt lat="44.42452" lon="6.2412">
        <ele>1201.3046875</ele>
        <time>2013-09-10T10:11:29Z</time>
      </trkpt>
      <trkpt lat="44.42467" lon="6.24111">
        <ele>1202.746582</ele>
        <time>2013-09-10T10:11:40Z</time>
      </trkpt>
      <trkpt lat="44.42465" lon="6.24098">
        <ele>1204.1887207</ele>
        <time>2013-09-10T10:11:50Z</time>
      </trkpt>
      <trkpt lat="44.42468" lon="6.24078">
        <ele>1205.6306152</ele>
        <time>2013-09-10T10:12:08Z</time>
      </trkpt>
      <trkpt lat="44.42469" lon="6.24065">
        <ele>1206.111084</ele>
        <time>2013-09-10T10:12:15Z</time>
      </trkpt>
      <trkpt lat="44.42469" lon="6.24062">
        <ele>1206.5917969</ele>
        <time>2013-09-10T10:12:18Z</time>
      </trkpt>
      <trkpt lat="44.42472" lon="6.24041">
        <ele>1208.5144043</ele>
        <time>2013-09-10T10:12:34Z</time>
      </trkpt>
      <trkpt lat="44.42469" lon="6.24038">
        <ele>1208.5144043</ele>
        <time>2013-09-10T10:12:39Z</time>
      </trkpt>
      <trkpt lat="44.42448" lon="6.24045">
        <ele>1210.4370117</ele>
        <time>2013-09-10T10:12:56Z</time>
      </trkpt>
      <trkpt lat="44.42439" lon="6.24037">
        <ele>1211.8791504</ele>
        <time>2013-09-10T10:13:10Z</time>
      </trkpt>
      <trkpt lat="44.42424" lon="6.24019">
        <ele>1212.8405762</ele>
        <time>2013-09-10T10:13:30Z</time>
      </trkpt>
      <trkpt lat="44.42423" lon="6.24018">
        <ele>1213.3212891</ele>
        <time>2013-09-10T10:13:31Z</time>
      </trkpt>
      <trkpt lat="44.42418" lon="6.24013">
        <ele>1214.2824707</ele>
        <time>2013-09-10T10:13:36Z</time>
      </trkpt>
      <trkpt lat="44.42416" lon="6.24011">
        <ele>1213.8017578</ele>
        <time>2013-09-10T10:13:38Z</time>
      </trkpt>
      <trkpt lat="44.42417" lon="6.23992">
        <ele>1215.2438965</ele>
        <time>2013-09-10T10:13:53Z</time>
      </trkpt>
      <trkpt lat="44.42433" lon="6.23993">
        <ele>1215.7246094</ele>
        <time>2013-09-10T10:14:07Z</time>
      </trkpt>
      <trkpt lat="44.42451" lon="6.23985">
        <ele>1218.1276855</ele>
        <time>2013-09-10T10:14:22Z</time>
      </trkpt>
      <trkpt lat="44.42458" lon="6.23977">
        <ele>1218.6083984</ele>
        <time>2013-09-10T10:14:28Z</time>
      </trkpt>
      <trkpt lat="44.42476" lon="6.2395">
        <ele>1220.050293</ele>
        <time>2013-09-10T10:14:51Z</time>
      </trkpt>
      <trkpt lat="44.42489" lon="6.23927">
        <ele>1221.0117188</ele>
        <time>2013-09-10T10:15:13Z</time>
      </trkpt>
      <trkpt lat="44.42513" lon="6.2391">
        <ele>1220.5310059</ele>
        <time>2013-09-10T10:15:30Z</time>
      </trkpt>
      <trkpt lat="44.42523" lon="6.23903">
        <ele>1220.050293</ele>
        <time>2013-09-10T10:15:33Z</time>
      </trkpt>
      <trkpt lat="44.42562" lon="6.23859">
        <ele>1221.4921875</ele>
        <time>2013-09-10T10:15:42Z</time>
      </trkpt>
      <trkpt lat="44.42569" lon="6.23848">
        <ele>1221.4921875</ele>
        <time>2013-09-10T10:15:46Z</time>
      </trkpt>
      <trkpt lat="44.42582" lon="6.23818">
        <ele>1221.4921875</ele>
        <time>2013-09-10T10:15:57Z</time>
      </trkpt>
      <trkpt lat="44.42582" lon="6.23814">
        <ele>1221.4921875</ele>
        <time>2013-09-10T10:16:02Z</time>
      </trkpt>
      <trkpt lat="44.4258" lon="6.2379">
        <ele>1222.9343262</ele>
        <time>2013-09-10T10:16:13Z</time>
      </trkpt>
      <trkpt lat="44.42581" lon="6.23789">
        <ele>1222.9343262</ele>
        <time>2013-09-10T10:16:15Z</time>
      </trkpt>
      <trkpt lat="44.42593" lon="6.23759">
        <ele>1223.8955078</ele>
        <time>2013-09-10T10:16:27Z</time>
      </trkpt>
      <trkpt lat="44.42612" lon="6.2375">
        <ele>1224.8569336</ele>
        <time>2013-09-10T10:16:41Z</time>
      </trkpt>
      <trkpt lat="44.4263" lon="6.23736">
        <ele>1226.779541</ele>
        <time>2013-09-10T10:17:05Z</time>
      </trkpt>
      <trkpt lat="44.42638" lon="6.23714">
        <ele>1228.2216797</ele>
        <time>2013-09-10T10:17:23Z</time>
      </trkpt>
      <trkpt lat="44.42637" lon="6.23698">
        <ele>1228.2216797</ele>
        <time>2013-09-10T10:17:33Z</time>
      </trkpt>
      <trkpt lat="44.4264" lon="6.2369">
        <ele>1228.7023926</ele>
        <time>2013-09-10T10:17:37Z</time>
      </trkpt>
      <trkpt lat="44.42642" lon="6.23686">
        <ele>1228.7023926</ele>
        <time>2013-09-10T10:17:40Z</time>
      </trkpt>
      <trkpt lat="44.42645" lon="6.23684">
        <ele>1228.7023926</ele>
        <time>2013-09-10T10:17:42Z</time>
      </trkpt>
      <trkpt lat="44.42645" lon="6.23681">
        <ele>1228.7023926</ele>
        <time>2013-09-10T10:17:44Z</time>
      </trkpt>
      <trkpt lat="44.42649" lon="6.23674">
        <ele>1228.7023926</ele>
        <time>2013-09-10T10:17:48Z</time>
      </trkpt>
      <trkpt lat="44.42655" lon="6.23662">
        <ele>1229.1828613</ele>
        <time>2013-09-10T10:17:53Z</time>
      </trkpt>
      <trkpt lat="44.42663" lon="6.23648">
        <ele>1229.1828613</ele>
        <time>2013-09-10T10:18:04Z</time>
      </trkpt>
      <trkpt lat="44.42664" lon="6.23644">
        <ele>1229.6635742</ele>
        <time>2013-09-10T10:18:06Z</time>
      </trkpt>
      <trkpt lat="44.4267" lon="6.23634">
        <ele>1229.1828613</ele>
        <time>2013-09-10T10:18:10Z</time>
      </trkpt>
      <trkpt lat="44.42672" lon="6.23629">
        <ele>1229.1828613</ele>
        <time>2013-09-10T10:18:12Z</time>
      </trkpt>
      <trkpt lat="44.42678" lon="6.23622">
        <ele>1230.625</ele>
        <time>2013-09-10T10:18:14Z</time>
      </trkpt>
      <trkpt lat="44.42687" lon="6.23602">
        <ele>1231.1057129</ele>
        <time>2013-09-10T10:18:24Z</time>
      </trkpt>
      <trkpt lat="44.42692" lon="6.23589">
        <ele>1232.5476074</ele>
        <time>2013-09-10T10:18:36Z</time>
      </trkpt>
      <trkpt lat="44.42701" lon="6.23564">
        <ele>1232.5476074</ele>
        <time>2013-09-10T10:18:53Z</time>
      </trkpt>
      <trkpt lat="44.42705" lon="6.23559">
        <ele>1233.0280762</ele>
        <time>2013-09-10T10:18:56Z</time>
      </trkpt>
      <trkpt lat="44.42719" lon="6.23537">
        <ele>1233.5087891</ele>
        <time>2013-09-10T10:19:11Z</time>
      </trkpt>
      <trkpt lat="44.42719" lon="6.23536">
        <ele>1233.5087891</ele>
        <time>2013-09-10T10:19:12Z</time>
      </trkpt>
      <trkpt lat="44.42721" lon="6.23532">
        <ele>1234.9509277</ele>
        <time>2013-09-10T10:19:15Z</time>
      </trkpt>
      <trkpt lat="44.42735" lon="6.23507">
        <ele>1234.9509277</ele>
        <time>2013-09-10T10:19:39Z</time>
      </trkpt>
      <trkpt lat="44.4274" lon="6.23503">
        <ele>1235.9121094</ele>
        <time>2013-09-10T10:19:49Z</time>
      </trkpt>
      <trkpt lat="44.4274" lon="6.23503">
        <ele>1234.4702148</ele>
        <time>2013-09-10T10:19:51Z</time>
      </trkpt>
      <trkpt lat="44.42743" lon="6.23501">
        <ele>1231.5861816</ele>
        <time>2013-09-10T10:20:37Z</time>
      </trkpt>
      <trkpt lat="44.4274" lon="6.23499">
        <ele>1230.625</ele>
        <time>2013-09-10T10:21:21Z</time>
      </trkpt>
      <trkpt lat="44.4274" lon="6.23499">
        <ele>1229.6635742</ele>
        <time>2013-09-10T10:21:23Z</time>
      </trkpt>
      <trkpt lat="44.42747" lon="6.23489">
        <ele>1227.7407227</ele>
        <time>2013-09-10T10:22:08Z</time>
      </trkpt>
      <trkpt lat="44.42747" lon="6.23488">
        <ele>1226.2988281</ele>
        <time>2013-09-10T10:22:10Z</time>
      </trkpt>
      <trkpt lat="44.42753" lon="6.23473">
        <ele>1223.8955078</ele>
        <time>2013-09-10T10:22:42Z</time>
      </trkpt>
      <trkpt lat="44.42748" lon="6.23462">
        <ele>1222.4536133</ele>
        <time>2013-09-10T10:23:27Z</time>
      </trkpt>
      <trkpt lat="44.42743" lon="6.2346">
        <ele>1221.4921875</ele>
        <time>2013-09-10T10:25:10Z</time>
      </trkpt>
      <trkpt lat="44.42719" lon="6.23446">
        <ele>1220.5310059</ele>
        <time>2013-09-10T10:27:54Z</time>
      </trkpt>
      <trkpt lat="44.42717" lon="6.23448">
        <ele>1221.9729004</ele>
        <time>2013-09-10T10:28:24Z</time>
      </trkpt>
      <trkpt lat="44.42718" lon="6.23455">
        <ele>1220.050293</ele>
        <time>2013-09-10T10:28:28Z</time>
      </trkpt>
      <trkpt lat="44.42718" lon="6.23459">
        <ele>1221.4921875</ele>
        <time>2013-09-10T10:28:30Z</time>
      </trkpt>
      <trkpt lat="44.42714" lon="6.23481">
        <ele>1219.5698242</ele>
        <time>2013-09-10T10:28:38Z</time>
      </trkpt>
      <trkpt lat="44.42715" lon="6.23487">
        <ele>1219.5698242</ele>
        <time>2013-09-10T10:28:39Z</time>
      </trkpt>
      <trkpt lat="44.42726" lon="6.23495">
        <ele>1219.5698242</ele>
        <time>2013-09-10T10:28:51Z</time>
      </trkpt>
      <trkpt lat="44.42728" lon="6.23497">
        <ele>1221.0117188</ele>
        <time>2013-09-10T10:28:53Z</time>
      </trkpt>
      <trkpt lat="44.42745" lon="6.2351">
        <ele>1220.5310059</ele>
        <time>2013-09-10T10:29:05Z</time>
      </trkpt>
      <trkpt lat="44.42754" lon="6.23513">
        <ele>1221.0117188</ele>
        <time>2013-09-10T10:29:13Z</time>
      </trkpt>
      <trkpt lat="44.42765" lon="6.23512">
        <ele>1221.4921875</ele>
        <time>2013-09-10T10:29:25Z</time>
      </trkpt>
      <trkpt lat="44.42767" lon="6.23514">
        <ele>1222.9343262</ele>
        <time>2013-09-10T10:29:28Z</time>
      </trkpt>
      <trkpt lat="44.42792" lon="6.23526">
        <ele>1223.8955078</ele>
        <time>2013-09-10T10:29:44Z</time>
      </trkpt>
      <trkpt lat="44.42795" lon="6.23527">
        <ele>1225.3374023</ele>
        <time>2013-09-10T10:29:46Z</time>
      </trkpt>
      <trkpt lat="44.42811" lon="6.23534">
        <ele>1225.8181152</ele>
        <time>2013-09-10T10:29:54Z</time>
      </trkpt>
      <trkpt lat="44.42825" lon="6.23534">
        <ele>1225.8181152</ele>
        <time>2013-09-10T10:30:05Z</time>
      </trkpt>
      <trkpt lat="44.42844" lon="6.2353">
        <ele>1229.6635742</ele>
        <time>2013-09-10T10:30:20Z</time>
      </trkpt>
      <trkpt lat="44.42846" lon="6.23531">
        <ele>1229.6635742</ele>
        <time>2013-09-10T10:30:21Z</time>
      </trkpt>
      <trkpt lat="44.42867" lon="6.23537">
        <ele>1231.1057129</ele>
        <time>2013-09-10T10:30:34Z</time>
      </trkpt>
      <trkpt lat="44.42898" lon="6.23541">
        <ele>1232.0668945</ele>
        <time>2013-09-10T10:30:54Z</time>
      </trkpt>
      <trkpt lat="44.42921" lon="6.23547">
        <ele>1230.625</ele>
        <time>2013-09-10T10:31:03Z</time>
      </trkpt>
      <trkpt lat="44.42948" lon="6.23554">
        <ele>1229.6635742</ele>
        <time>2013-09-10T10:31:12Z</time>
      </trkpt>
      <trkpt lat="44.42967" lon="6.23566">
        <ele>1226.2988281</ele>
        <time>2013-09-10T10:31:19Z</time>
      </trkpt>
      <trkpt lat="44.42972" lon="6.23568">
        <ele>1225.8181152</ele>
        <time>2013-09-10T10:31:21Z</time>
      </trkpt>
      <trkpt lat="44.42984" lon="6.2357">
        <ele>1223.8955078</ele>
        <time>2013-09-10T10:31:25Z</time>
      </trkpt>
      <trkpt lat="44.43024" lon="6.23575">
        <ele>1224.3762207</ele>
        <time>2013-09-10T10:31:36Z</time>
      </trkpt>
      <trkpt lat="44.4303" lon="6.23576">
        <ele>1225.8181152</ele>
        <time>2013-09-10T10:31:40Z</time>
      </trkpt>
      <trkpt lat="44.43044" lon="6.2357">
        <ele>1226.779541</ele>
        <time>2013-09-10T10:31:51Z</time>
      </trkpt>
      <trkpt lat="44.43055" lon="6.23565">
        <ele>1228.2216797</ele>
        <time>2013-09-10T10:31:58Z</time>
      </trkpt>
      <trkpt lat="44.43071" lon="6.23557">
        <ele>1230.1442871</ele>
        <time>2013-09-10T10:32:09Z</time>
      </trkpt>
      <trkpt lat="44.43074" lon="6.23554">
        <ele>1231.1057129</ele>
        <time>2013-09-10T10:32:12Z</time>
      </trkpt>
      <trkpt lat="44.43077" lon="6.23551">
        <ele>1230.625</ele>
        <time>2013-09-10T10:32:15Z</time>
      </trkpt>
      <trkpt lat="44.43095" lon="6.23548">
        <ele>1232.5476074</ele>
        <time>2013-09-10T10:32:29Z</time>
      </trkpt>
      <trkpt lat="44.43101" lon="6.23542">
        <ele>1234.4702148</ele>
        <time>2013-09-10T10:32:34Z</time>
      </trkpt>
      <trkpt lat="44.43119" lon="6.23531">
        <ele>1235.4313965</ele>
        <time>2013-09-10T10:32:51Z</time>
      </trkpt>
      <trkpt lat="44.43132" lon="6.23523">
        <ele>1238.3154297</ele>
        <time>2013-09-10T10:33:07Z</time>
      </trkpt>
      <trkpt lat="44.43139" lon="6.23526">
        <ele>1239.7573242</ele>
        <time>2013-09-10T10:33:13Z</time>
      </trkpt>
      <trkpt lat="44.4315" lon="6.23522">
        <ele>1241.1992188</ele>
        <time>2013-09-10T10:33:28Z</time>
      </trkpt>
      <trkpt lat="44.43164" lon="6.23521">
        <ele>1244.0834961</ele>
        <time>2013-09-10T10:33:46Z</time>
      </trkpt>
      <trkpt lat="44.43169" lon="6.23521">
        <ele>1245.5253906</ele>
        <time>2013-09-10T10:33:54Z</time>
      </trkpt>
      <trkpt lat="44.43182" lon="6.23515">
        <ele>1248.8898926</ele>
        <time>2013-09-10T10:34:10Z</time>
      </trkpt>
      <trkpt lat="44.4319" lon="6.2351">
        <ele>1250.8125</ele>
        <time>2013-09-10T10:34:22Z</time>
      </trkpt>
      <trkpt lat="44.43205" lon="6.23503">
        <ele>1252.7351074</ele>
        <time>2013-09-10T10:34:36Z</time>
      </trkpt>
      <trkpt lat="44.43215" lon="6.235">
        <ele>1255.1384277</ele>
        <time>2013-09-10T10:34:51Z</time>
      </trkpt>
      <trkpt lat="44.43229" lon="6.23495">
        <ele>1257.541748</ele>
        <time>2013-09-10T10:35:07Z</time>
      </trkpt>
      <trkpt lat="44.43238" lon="6.23489">
        <ele>1259.4643555</ele>
        <time>2013-09-10T10:35:25Z</time>
      </trkpt>
      <trkpt lat="44.43259" lon="6.23487">
        <ele>1262.3483887</ele>
        <time>2013-09-10T10:35:58Z</time>
      </trkpt>
      <trkpt lat="44.43275" lon="6.23481">
        <ele>1265.2324219</ele>
        <time>2013-09-10T10:36:17Z</time>
      </trkpt>
      <trkpt lat="44.43289" lon="6.23463">
        <ele>1268.1162109</ele>
        <time>2013-09-10T10:36:39Z</time>
      </trkpt>
      <trkpt lat="44.43292" lon="6.23459">
        <ele>1269.0776367</ele>
        <time>2013-09-10T10:36:45Z</time>
      </trkpt>
      <trkpt lat="44.43311" lon="6.23446">
        <ele>1272.4421387</ele>
        <time>2013-09-10T10:37:09Z</time>
      </trkpt>
      <trkpt lat="44.43328" lon="6.23459">
        <ele>1274.845459</ele>
        <time>2013-09-10T10:37:32Z</time>
      </trkpt>
      <trkpt lat="44.43331" lon="6.23467">
        <ele>1276.2875977</ele>
        <time>2013-09-10T10:37:39Z</time>
      </trkpt>
      <trkpt lat="44.43339" lon="6.23489">
        <ele>1279.6520996</ele>
        <time>2013-09-10T10:38:03Z</time>
      </trkpt>
      <trkpt lat="44.43356" lon="6.23509">
        <ele>1282.0554199</ele>
        <time>2013-09-10T10:38:26Z</time>
      </trkpt>
      <trkpt lat="44.43367" lon="6.23528">
        <ele>1283.4973145</ele>
        <time>2013-09-10T10:38:44Z</time>
      </trkpt>
      <trkpt lat="44.4339" lon="6.23539">
        <ele>1283.4973145</ele>
        <time>2013-09-10T10:39:04Z</time>
      </trkpt>
      <trkpt lat="44.43411" lon="6.23548">
        <ele>1283.4973145</ele>
        <time>2013-09-10T10:39:14Z</time>
      </trkpt>
      <trkpt lat="44.43426" lon="6.23549">
        <ele>1283.9780273</ele>
        <time>2013-09-10T10:39:23Z</time>
      </trkpt>
      <trkpt lat="44.43437" lon="6.23547">
        <ele>1284.4587402</ele>
        <time>2013-09-10T10:39:33Z</time>
      </trkpt>
      <trkpt lat="44.43452" lon="6.23544">
        <ele>1286.3813477</ele>
        <time>2013-09-10T10:39:48Z</time>
      </trkpt>
      <trkpt lat="44.43472" lon="6.23527">
        <ele>1289.2651367</ele>
        <time>2013-09-10T10:40:11Z</time>
      </trkpt>
      <trkpt lat="44.43486" lon="6.23521">
        <ele>1291.668457</ele>
        <time>2013-09-10T10:40:24Z</time>
      </trkpt>
      <trkpt lat="44.43496" lon="6.23516">
        <ele>1294.0720215</ele>
        <time>2013-09-10T10:40:40Z</time>
      </trkpt>
      <trkpt lat="44.43512" lon="6.23508">
        <ele>1296.9558105</ele>
        <time>2013-09-10T10:40:58Z</time>
      </trkpt>
      <trkpt lat="44.43523" lon="6.23497">
        <ele>1300.3205566</ele>
        <time>2013-09-10T10:41:17Z</time>
      </trkpt>
      <trkpt lat="44.43537" lon="6.23485">
        <ele>1302.7236328</ele>
        <time>2013-09-10T10:41:36Z</time>
      </trkpt>
      <trkpt lat="44.43551" lon="6.2348">
        <ele>1305.607666</ele>
        <time>2013-09-10T10:41:56Z</time>
      </trkpt>
      <trkpt lat="44.43563" lon="6.23472">
        <ele>1308.4916992</ele>
        <time>2013-09-10T10:42:14Z</time>
      </trkpt>
      <trkpt lat="44.43574" lon="6.23461">
        <ele>1310.4143066</ele>
        <time>2013-09-10T10:42:29Z</time>
      </trkpt>
      <trkpt lat="44.43579" lon="6.23455">
        <ele>1311.3757324</ele>
        <time>2013-09-10T10:42:40Z</time>
      </trkpt>
      <trkpt lat="44.43587" lon="6.23456">
        <ele>1311.3757324</ele>
        <time>2013-09-10T10:42:44Z</time>
      </trkpt>
      <trkpt lat="44.43593" lon="6.23457">
        <ele>1311.8564453</ele>
        <time>2013-09-10T10:42:56Z</time>
      </trkpt>
      <trkpt lat="44.436" lon="6.23455">
        <ele>1311.8564453</ele>
        <time>2013-09-10T10:43:00Z</time>
      </trkpt>
      <trkpt lat="44.43609" lon="6.23445">
        <ele>1313.7788086</ele>
        <time>2013-09-10T10:43:18Z</time>
      </trkpt>
      <trkpt lat="44.4361" lon="6.23445">
        <ele>1314.2595215</ele>
        <time>2013-09-10T10:43:20Z</time>
      </trkpt>
      <trkpt lat="44.43618" lon="6.23445">
        <ele>1315.2209473</ele>
        <time>2013-09-10T10:43:44Z</time>
      </trkpt>
      <trkpt lat="44.43645" lon="6.23425">
        <ele>1314.7402344</ele>
        <time>2013-09-10T10:43:56Z</time>
      </trkpt>
      <trkpt lat="44.43651" lon="6.23418">
        <ele>1314.7402344</ele>
        <time>2013-09-10T10:43:58Z</time>
      </trkpt>
      <trkpt lat="44.4367" lon="6.23411">
        <ele>1314.2595215</ele>
        <time>2013-09-10T10:44:02Z</time>
      </trkpt>
      <trkpt lat="44.43716" lon="6.23372">
        <ele>1312.3369141</ele>
        <time>2013-09-10T10:44:12Z</time>
      </trkpt>
      <trkpt lat="44.43737" lon="6.23356">
        <ele>1313.2983398</ele>
        <time>2013-09-10T10:44:17Z</time>
      </trkpt>
      <trkpt lat="44.43762" lon="6.23341">
        <ele>1314.7402344</ele>
        <time>2013-09-10T10:44:27Z</time>
      </trkpt>
      <trkpt lat="44.43768" lon="6.23339">
        <ele>1315.7016602</ele>
        <time>2013-09-10T10:44:35Z</time>
      </trkpt>
      <trkpt lat="44.43784" lon="6.23334">
        <ele>1317.1435547</ele>
        <time>2013-09-10T10:44:45Z</time>
      </trkpt>
      <trkpt lat="44.43784" lon="6.23334">
        <ele>1318.1047363</ele>
        <time>2013-09-10T10:44:57Z</time>
      </trkpt>
      <trkpt lat="44.43784" lon="6.23334">
        <ele>1321.9499512</ele>
        <time>2013-09-10T10:45:17Z</time>
      </trkpt>
      <trkpt lat="44.43784" lon="6.23334">
        <ele>1324.3535156</ele>
        <time>2013-09-10T10:45:34Z</time>
      </trkpt>
      <trkpt lat="44.43834" lon="6.23317">
        <ele>1326.276123</ele>
        <time>2013-09-10T10:45:49Z</time>
      </trkpt>
      <trkpt lat="44.43834" lon="6.23317">
        <ele>1326.276123</ele>
        <time>2013-09-10T10:45:50Z</time>
      </trkpt>
      <trkpt lat="44.43834" lon="6.23317">
        <ele>1328.1987305</ele>
        <time>2013-09-10T10:46:05Z</time>
      </trkpt>
      <trkpt lat="44.43864" lon="6.23296">
        <ele>1330.1213379</ele>
        <time>2013-09-10T10:46:18Z</time>
      </trkpt>
      <trkpt lat="44.43868" lon="6.23295">
        <ele>1331.0827637</ele>
        <time>2013-09-10T10:46:31Z</time>
      </trkpt>
      <trkpt lat="44.43878" lon="6.23296">
        <ele>1332.0439453</ele>
        <time>2013-09-10T10:46:48Z</time>
      </trkpt>
      <trkpt lat="44.43878" lon="6.23296">
        <ele>1332.0439453</ele>
        <time>2013-09-10T10:47:24Z</time>
      </trkpt>
      <trkpt lat="44.43893" lon="6.23289">
        <ele>1331.5632324</ele>
        <time>2013-09-10T10:47:30Z</time>
      </trkpt>
      <trkpt lat="44.43893" lon="6.23289">
        <ele>1330.6020508</ele>
        <time>2013-09-10T10:47:34Z</time>
      </trkpt>
      <trkpt lat="44.43918" lon="6.23276">
        <ele>1326.7568359</ele>
        <time>2013-09-10T10:47:45Z</time>
      </trkpt>
      <trkpt lat="44.43936" lon="6.23267">
        <ele>1324.3535156</ele>
        <time>2013-09-10T10:47:51Z</time>
      </trkpt>
      <trkpt lat="44.43939" lon="6.23266">
        <ele>1323.3920898</ele>
        <time>2013-09-10T10:47:52Z</time>
      </trkpt>
      <trkpt lat="44.4396" lon="6.23253">
        <ele>1320.9887695</ele>
        <time>2013-09-10T10:47:58Z</time>
      </trkpt>
      <trkpt lat="44.43968" lon="6.23242">
        <ele>1320.0273438</ele>
        <time>2013-09-10T10:48:00Z</time>
      </trkpt>
      <trkpt lat="44.43993" lon="6.23198">
        <ele>1317.6240234</ele>
        <time>2013-09-10T10:48:11Z</time>
      </trkpt>
      <trkpt lat="44.44002" lon="6.23186">
        <ele>1315.7016602</ele>
        <time>2013-09-10T10:48:15Z</time>
      </trkpt>
      <trkpt lat="44.44021" lon="6.23165">
        <ele>1312.817627</ele>
        <time>2013-09-10T10:48:23Z</time>
      </trkpt>
      <trkpt lat="44.44037" lon="6.23143">
        <ele>1308.9724121</ele>
        <time>2013-09-10T10:48:31Z</time>
      </trkpt>
      <trkpt lat="44.4404" lon="6.2314">
        <ele>1308.9724121</ele>
        <time>2013-09-10T10:48:32Z</time>
      </trkpt>
      <trkpt lat="44.44048" lon="6.2313">
        <ele>1307.0495605</ele>
        <time>2013-09-10T10:48:34Z</time>
      </trkpt>
      <trkpt lat="44.4406" lon="6.23113">
        <ele>1305.1269531</ele>
        <time>2013-09-10T10:48:37Z</time>
      </trkpt>
      <trkpt lat="44.44078" lon="6.23072">
        <ele>1306.5688477</ele>
        <time>2013-09-10T10:48:46Z</time>
      </trkpt>
      <trkpt lat="44.44099" lon="6.23051">
        <ele>1303.6850586</ele>
        <time>2013-09-10T10:48:53Z</time>
      </trkpt>
      <trkpt lat="44.44106" lon="6.23041">
        <ele>1302.7236328</ele>
        <time>2013-09-10T10:48:55Z</time>
      </trkpt>
      <trkpt lat="44.44114" lon="6.23025">
        <ele>1302.7236328</ele>
        <time>2013-09-10T10:48:58Z</time>
      </trkpt>
      <trkpt lat="44.44121" lon="6.2301">
        <ele>1302.2429199</ele>
        <time>2013-09-10T10:49:01Z</time>
      </trkpt>
      <trkpt lat="44.44129" lon="6.23">
        <ele>1301.7624512</ele>
        <time>2013-09-10T10:49:03Z</time>
      </trkpt>
      <trkpt lat="44.44145" lon="6.22984">
        <ele>1302.7236328</ele>
        <time>2013-09-10T10:49:09Z</time>
      </trkpt>
      <trkpt lat="44.4417" lon="6.22963">
        <ele>1305.1269531</ele>
        <time>2013-09-10T10:49:23Z</time>
      </trkpt>
      <trkpt lat="44.4419" lon="6.22941">
        <ele>1307.0495605</ele>
        <time>2013-09-10T10:49:39Z</time>
      </trkpt>
      <trkpt lat="44.44208" lon="6.22928">
        <ele>1308.9724121</ele>
        <time>2013-09-10T10:49:51Z</time>
      </trkpt>
      <trkpt lat="44.44215" lon="6.22923">
        <ele>1309.9335938</ele>
        <time>2013-09-10T10:49:58Z</time>
      </trkpt>
      <trkpt lat="44.44234" lon="6.22906">
        <ele>1311.8564453</ele>
        <time>2013-09-10T10:50:12Z</time>
      </trkpt>
      <trkpt lat="44.44237" lon="6.22901">
        <ele>1311.3757324</ele>
        <time>2013-09-10T10:50:15Z</time>
      </trkpt>
      <trkpt lat="44.44258" lon="6.22872">
        <ele>1311.8564453</ele>
        <time>2013-09-10T10:50:31Z</time>
      </trkpt>
      <trkpt lat="44.44275" lon="6.22834">
        <ele>1309.9335938</ele>
        <time>2013-09-10T10:50:41Z</time>
      </trkpt>
      <trkpt lat="44.44284" lon="6.22821">
        <ele>1308.9724121</ele>
        <time>2013-09-10T10:50:45Z</time>
      </trkpt>
      <trkpt lat="44.44293" lon="6.22804">
        <ele>1307.5302734</ele>
        <time>2013-09-10T10:50:50Z</time>
      </trkpt>
      <trkpt lat="44.443" lon="6.22789">
        <ele>1306.5688477</ele>
        <time>2013-09-10T10:50:54Z</time>
      </trkpt>
      <trkpt lat="44.4432" lon="6.22779">
        <ele>1308.0112305</ele>
        <time>2013-09-10T10:51:05Z</time>
      </trkpt>
      <trkpt lat="44.44323" lon="6.22779">
        <ele>1308.9724121</ele>
        <time>2013-09-10T10:51:07Z</time>
      </trkpt>
      <trkpt lat="44.44328" lon="6.22772">
        <ele>1309.453125</ele>
        <time>2013-09-10T10:51:11Z</time>
      </trkpt>
      <trkpt lat="44.44336" lon="6.22767">
        <ele>1311.8564453</ele>
        <time>2013-09-10T10:51:17Z</time>
      </trkpt>
      <trkpt lat="44.4434" lon="6.22762">
        <ele>1310.8950195</ele>
        <time>2013-09-10T10:51:21Z</time>
      </trkpt>
      <trkpt lat="44.44341" lon="6.22761">
        <ele>1311.8564453</ele>
        <time>2013-09-10T10:51:22Z</time>
      </trkpt>
      <trkpt lat="44.44359" lon="6.22743">
        <ele>1313.2983398</ele>
        <time>2013-09-10T10:51:37Z</time>
      </trkpt>
      <trkpt lat="44.44359" lon="6.22743">
        <ele>1313.2983398</ele>
        <time>2013-09-10T10:51:38Z</time>
      </trkpt>
      <trkpt lat="44.44362" lon="6.22737">
        <ele>1312.817627</ele>
        <time>2013-09-10T10:51:42Z</time>
      </trkpt>
      <trkpt lat="44.44362" lon="6.22737">
        <ele>1315.2209473</ele>
        <time>2013-09-10T10:51:49Z</time>
      </trkpt>
      <trkpt lat="44.44371" lon="6.22725">
        <ele>1315.2209473</ele>
        <time>2013-09-10T10:51:55Z</time>
      </trkpt>
      <trkpt lat="44.44383" lon="6.22711">
        <ele>1314.7402344</ele>
        <time>2013-09-10T10:52:01Z</time>
      </trkpt>
      <trkpt lat="44.44383" lon="6.22711">
        <ele>1314.7402344</ele>
        <time>2013-09-10T10:52:10Z</time>
      </trkpt>
      <trkpt lat="44.44383" lon="6.22711">
        <ele>1316.6628418</ele>
        <time>2013-09-10T10:52:12Z</time>
      </trkpt>
      <trkpt lat="44.44383" lon="6.22711">
        <ele>1317.6240234</ele>
        <time>2013-09-10T10:52:42Z</time>
      </trkpt>
      <trkpt lat="44.44383" lon="6.22711">
        <ele>1317.1435547</ele>
        <time>2013-09-10T10:52:58Z</time>
      </trkpt>
      <trkpt lat="44.44383" lon="6.22711">
        <ele>1318.1047363</ele>
        <time>2013-09-10T10:53:21Z</time>
      </trkpt>
      <trkpt lat="44.44383" lon="6.22711">
        <ele>1317.1435547</ele>
        <time>2013-09-10T10:53:40Z</time>
      </trkpt>
      <trkpt lat="44.44383" lon="6.22711">
        <ele>1319.0661621</ele>
        <time>2013-09-10T10:54:00Z</time>
      </trkpt>
      <trkpt lat="44.44383" lon="6.22711">
        <ele>1318.5854492</ele>
        <time>2013-09-10T10:54:32Z</time>
      </trkpt>
      <trkpt lat="44.44383" lon="6.22711">
        <ele>1318.1047363</ele>
        <time>2013-09-10T10:54:40Z</time>
      </trkpt>
      <trkpt lat="44.44383" lon="6.22711">
        <ele>1320.0273438</ele>
        <time>2013-09-10T10:54:42Z</time>
      </trkpt>
      <trkpt lat="44.44383" lon="6.22711">
        <ele>1319.546875</ele>
        <time>2013-09-10T10:55:01Z</time>
      </trkpt>
      <trkpt lat="44.44383" lon="6.22711">
        <ele>1319.0661621</ele>
        <time>2013-09-10T10:55:34Z</time>
      </trkpt>
      <trkpt lat="44.44383" lon="6.22711">
        <ele>1320.5080566</ele>
        <time>2013-09-10T10:55:39Z</time>
      </trkpt>
      <trkpt lat="44.44383" lon="6.22711">
        <ele>1320.5080566</ele>
        <time>2013-09-10T10:55:43Z</time>
      </trkpt>
      <trkpt lat="44.44383" lon="6.22711">
        <ele>1319.546875</ele>
        <time>2013-09-10T10:55:55Z</time>
      </trkpt>
      <trkpt lat="44.44383" lon="6.22711">
        <ele>1320.5080566</ele>
        <time>2013-09-10T10:56:14Z</time>
      </trkpt>
      <trkpt lat="44.44383" lon="6.22711">
        <ele>1321.4692383</ele>
        <time>2013-09-10T10:57:30Z</time>
      </trkpt>
      <trkpt lat="44.44383" lon="6.22711">
        <ele>1322.911377</ele>
        <time>2013-09-10T10:57:37Z</time>
      </trkpt>
      <trkpt lat="44.44383" lon="6.22711">
        <ele>1322.911377</ele>
        <time>2013-09-10T10:57:55Z</time>
      </trkpt>
      <trkpt lat="44.44383" lon="6.22711">
        <ele>1322.4306641</ele>
        <time>2013-09-10T10:58:29Z</time>
      </trkpt>
      <trkpt lat="44.44383" lon="6.22711">
        <ele>1324.3535156</ele>
        <time>2013-09-10T10:58:55Z</time>
      </trkpt>
      <trkpt lat="44.44383" lon="6.22711">
        <ele>1323.3920898</ele>
        <time>2013-09-10T10:59:43Z</time>
      </trkpt>
      <trkpt lat="44.44383" lon="6.22711">
        <ele>1323.8725586</ele>
        <time>2013-09-10T11:00:08Z</time>
      </trkpt>
      <trkpt lat="44.44383" lon="6.22711">
        <ele>1325.3146973</ele>
        <time>2013-09-10T11:00:27Z</time>
      </trkpt>
      <trkpt lat="44.44383" lon="6.22711">
        <ele>1325.7954102</ele>
        <time>2013-09-10T11:00:51Z</time>
      </trkpt>
      <trkpt lat="44.44383" lon="6.22711">
        <ele>1324.8342285</ele>
        <time>2013-09-10T11:00:53Z</time>
      </trkpt>
      <trkpt lat="44.44383" lon="6.22711">
        <ele>1324.3535156</ele>
        <time>2013-09-10T11:01:50Z</time>
      </trkpt>
      <trkpt lat="44.44383" lon="6.22711">
        <ele>1326.7568359</ele>
        <time>2013-09-10T11:01:52Z</time>
      </trkpt>
      <trkpt lat="44.44383" lon="6.22711">
        <ele>1325.3146973</ele>
        <time>2013-09-10T11:01:56Z</time>
      </trkpt>
      <trkpt lat="44.44383" lon="6.22711">
        <ele>1327.7180176</ele>
        <time>2013-09-10T11:02:30Z</time>
      </trkpt>
      <trkpt lat="44.44383" lon="6.22711">
        <ele>1327.7180176</ele>
        <time>2013-09-10T11:03:08Z</time>
      </trkpt>
      <trkpt lat="44.44383" lon="6.22711">
        <ele>1327.2375488</ele>
        <time>2013-09-10T11:03:39Z</time>
      </trkpt>
      <trkpt lat="44.44383" lon="6.22711">
        <ele>1327.2375488</ele>
        <time>2013-09-10T11:04:03Z</time>
      </trkpt>
      <trkpt lat="44.44383" lon="6.22711">
        <ele>1327.2375488</ele>
        <time>2013-09-10T11:04:17Z</time>
      </trkpt>
      <trkpt lat="44.44383" lon="6.22711">
        <ele>1328.6794434</ele>
        <time>2013-09-10T11:04:19Z</time>
      </trkpt>
      <trkpt lat="44.44383" lon="6.22711">
        <ele>1327.2375488</ele>
        <time>2013-09-10T11:04:22Z</time>
      </trkpt>
      <trkpt lat="44.44383" lon="6.22711">
        <ele>1328.6794434</ele>
        <time>2013-09-10T11:04:24Z</time>
      </trkpt>
      <trkpt lat="44.44383" lon="6.22711">
        <ele>1328.1987305</ele>
        <time>2013-09-10T11:05:35Z</time>
      </trkpt>
      <trkpt lat="44.44383" lon="6.22711">
        <ele>1328.6794434</ele>
        <time>2013-09-10T11:06:43Z</time>
      </trkpt>
      <trkpt lat="44.44383" lon="6.22711">
        <ele>1331.5632324</ele>
        <time>2013-09-10T11:08:33Z</time>
      </trkpt>
      <trkpt lat="44.44383" lon="6.22711">
        <ele>1331.5632324</ele>
        <time>2013-09-10T11:08:39Z</time>
      </trkpt>
      <trkpt lat="44.44383" lon="6.22711">
        <ele>1330.1213379</ele>
        <time>2013-09-10T11:09:08Z</time>
      </trkpt>
      <trkpt lat="44.44383" lon="6.22711">
        <ele>1331.0827637</ele>
        <time>2013-09-10T11:10:10Z</time>
      </trkpt>
      <trkpt lat="44.44383" lon="6.22711">
        <ele>1331.0827637</ele>
        <time>2013-09-10T11:10:26Z</time>
      </trkpt>
      <trkpt lat="44.44383" lon="6.22711">
        <ele>1333.005127</ele>
        <time>2013-09-10T11:10:29Z</time>
      </trkpt>
      <trkpt lat="44.44383" lon="6.22711">
        <ele>1333.005127</ele>
        <time>2013-09-10T11:10:54Z</time>
      </trkpt>
      <trkpt lat="44.44383" lon="6.22711">
        <ele>1331.0827637</ele>
        <time>2013-09-10T11:10:58Z</time>
      </trkpt>
      <trkpt lat="44.44383" lon="6.22711">
        <ele>1333.005127</ele>
        <time>2013-09-10T11:11:34Z</time>
      </trkpt>
      <trkpt lat="44.44383" lon="6.22711">
        <ele>1335.4084473</ele>
        <time>2013-09-10T11:14:46Z</time>
      </trkpt>
      <trkpt lat="44.44383" lon="6.22711">
        <ele>1335.8891602</ele>
        <time>2013-09-10T11:15:22Z</time>
      </trkpt>
      <trkpt lat="44.44383" lon="6.22711">
        <ele>1334.9279785</ele>
        <time>2013-09-10T11:15:43Z</time>
      </trkpt>
      <trkpt lat="44.44383" lon="6.22711">
        <ele>1336.369873</ele>
        <time>2013-09-10T11:15:51Z</time>
      </trkpt>
      <trkpt lat="44.44383" lon="6.22711">
        <ele>1335.4084473</ele>
        <time>2013-09-10T11:15:53Z</time>
      </trkpt>
      <trkpt lat="44.44383" lon="6.22711">
        <ele>1336.369873</ele>
        <time>2013-09-10T11:16:15Z</time>
      </trkpt>
      <trkpt lat="44.44383" lon="6.22711">
        <ele>1335.4084473</ele>
        <time>2013-09-10T11:16:42Z</time>
      </trkpt>
      <trkpt lat="44.44383" lon="6.22711">
        <ele>1336.8503418</ele>
        <time>2013-09-10T11:16:50Z</time>
      </trkpt>
      <trkpt lat="44.44383" lon="6.22711">
        <ele>1335.4084473</ele>
        <time>2013-09-10T11:17:09Z</time>
      </trkpt>
      <trkpt lat="44.44383" lon="6.22711">
        <ele>1336.8503418</ele>
        <time>2013-09-10T11:17:14Z</time>
      </trkpt>
      <trkpt lat="44.44383" lon="6.22711">
        <ele>1335.4084473</ele>
        <time>2013-09-10T11:17:22Z</time>
      </trkpt>
      <trkpt lat="44.44383" lon="6.22711">
        <ele>1338.7731934</ele>
        <time>2013-09-10T11:19:21Z</time>
      </trkpt>
      <trkpt lat="44.44383" lon="6.22711">
        <ele>1338.7731934</ele>
        <time>2013-09-10T11:19:22Z</time>
      </trkpt>
      <trkpt lat="44.44383" lon="6.22711">
        <ele>1337.3310547</ele>
        <time>2013-09-10T11:19:24Z</time>
      </trkpt>
      <trkpt lat="44.44383" lon="6.22711">
        <ele>1337.8117676</ele>
        <time>2013-09-10T11:21:16Z</time>
      </trkpt>
      <trkpt lat="44.44383" lon="6.22711">
        <ele>1338.7731934</ele>
        <time>2013-09-10T11:21:20Z</time>
      </trkpt>
      <trkpt lat="44.44383" lon="6.22711">
        <ele>1339.2536621</ele>
        <time>2013-09-10T11:21:56Z</time>
      </trkpt>
      <trkpt lat="44.44383" lon="6.22711">
        <ele>1338.7731934</ele>
        <time>2013-09-10T11:22:26Z</time>
      </trkpt>
      <trkpt lat="44.44383" lon="6.22711">
        <ele>1339.734375</ele>
        <time>2013-09-10T11:24:05Z</time>
      </trkpt>
      <trkpt lat="44.44383" lon="6.22711">
        <ele>1339.734375</ele>
        <time>2013-09-10T11:26:13Z</time>
      </trkpt>
      <trkpt lat="44.44383" lon="6.22711">
        <ele>1339.734375</ele>
        <time>2013-09-10T11:28:28Z</time>
      </trkpt>
      <trkpt lat="44.44383" lon="6.22711">
        <ele>1341.6572266</ele>
        <time>2013-09-10T11:28:41Z</time>
      </trkpt>
      <trkpt lat="44.44383" lon="6.22711">
        <ele>1340.215332</ele>
        <time>2013-09-10T11:28:43Z</time>
      </trkpt>
      <trkpt lat="44.44383" lon="6.22711">
        <ele>1341.1765137</ele>
        <time>2013-09-10T11:29:09Z</time>
      </trkpt>
      <trkpt lat="44.44383" lon="6.22711">
        <ele>1339.734375</ele>
        <time>2013-09-10T11:29:30Z</time>
      </trkpt>
      <trkpt lat="44.44383" lon="6.22711">
        <ele>1342.1379395</ele>
        <time>2013-09-10T11:30:46Z</time>
      </trkpt>
      <trkpt lat="44.44383" lon="6.22711">
        <ele>1339.734375</ele>
        <time>2013-09-10T11:31:09Z</time>
      </trkpt>
      <trkpt lat="44.44383" lon="6.22711">
        <ele>1339.734375</ele>
        <time>2013-09-10T11:31:17Z</time>
      </trkpt>
      <trkpt lat="44.44383" lon="6.22711">
        <ele>1342.1379395</ele>
        <time>2013-09-10T11:32:33Z</time>
      </trkpt>
      <trkpt lat="44.44383" lon="6.22711">
        <ele>1342.1379395</ele>
        <time>2013-09-10T11:32:40Z</time>
      </trkpt>
      <trkpt lat="44.44383" lon="6.22711">
        <ele>1340.6958008</ele>
        <time>2013-09-10T11:32:42Z</time>
      </trkpt>
      <trkpt lat="44.44383" lon="6.22711">
        <ele>1341.1765137</ele>
        <time>2013-09-10T11:33:34Z</time>
      </trkpt>
      <trkpt lat="44.44383" lon="6.22711">
        <ele>1342.6186523</ele>
        <time>2013-09-10T11:33:43Z</time>
      </trkpt>
      <trkpt lat="44.44383" lon="6.22711">
        <ele>1341.1765137</ele>
        <time>2013-09-10T11:34:04Z</time>
      </trkpt>
      <trkpt lat="44.44383" lon="6.22711">
        <ele>1341.1765137</ele>
        <time>2013-09-10T11:34:12Z</time>
      </trkpt>
      <trkpt lat="44.44383" lon="6.22711">
        <ele>1340.6958008</ele>
        <time>2013-09-10T11:34:21Z</time>
      </trkpt>
      <trkpt lat="44.44383" lon="6.22711">
        <ele>1341.6572266</ele>
        <time>2013-09-10T11:34:23Z</time>
      </trkpt>
      <trkpt lat="44.44383" lon="6.22711">
        <ele>1342.6186523</ele>
        <time>2013-09-10T11:35:22Z</time>
      </trkpt>
      <trkpt lat="44.44383" lon="6.22711">
        <ele>1340.6958008</ele>
        <time>2013-09-10T11:35:24Z</time>
      </trkpt>
      <trkpt lat="44.44383" lon="6.22711">
        <ele>1342.1379395</ele>
        <time>2013-09-10T11:35:26Z</time>
      </trkpt>
      <trkpt lat="44.44383" lon="6.22711">
        <ele>1342.6186523</ele>
        <time>2013-09-10T11:36:29Z</time>
      </trkpt>
      <trkpt lat="44.44383" lon="6.22711">
        <ele>1341.1765137</ele>
        <time>2013-09-10T11:36:32Z</time>
      </trkpt>
      <trkpt lat="44.44383" lon="6.22711">
        <ele>1343.0991211</ele>
        <time>2013-09-10T11:36:36Z</time>
      </trkpt>
      <trkpt lat="44.44383" lon="6.22711">
        <ele>1342.6186523</ele>
        <time>2013-09-10T11:36:51Z</time>
      </trkpt>
      <trkpt lat="44.44383" lon="6.22711">
        <ele>1342.6186523</ele>
        <time>2013-09-10T11:37:08Z</time>
      </trkpt>
      <trkpt lat="44.44383" lon="6.22711">
        <ele>1343.0991211</ele>
        <time>2013-09-10T11:37:16Z</time>
      </trkpt>
      <trkpt lat="44.44383" lon="6.22711">
        <ele>1342.6186523</ele>
        <time>2013-09-10T11:38:09Z</time>
      </trkpt>
      <trkpt lat="44.44383" lon="6.22711">
        <ele>1343.0991211</ele>
        <time>2013-09-10T11:38:34Z</time>
      </trkpt>
      <trkpt lat="44.44383" lon="6.22711">
        <ele>1341.6572266</ele>
        <time>2013-09-10T11:38:51Z</time>
      </trkpt>
      <trkpt lat="44.44383" lon="6.22711">
        <ele>1341.6572266</ele>
        <time>2013-09-10T11:39:01Z</time>
      </trkpt>
      <trkpt lat="44.44383" lon="6.22711">
        <ele>1342.6186523</ele>
        <time>2013-09-10T11:39:03Z</time>
      </trkpt>
      <trkpt lat="44.44383" lon="6.22711">
        <ele>1341.6572266</ele>
        <time>2013-09-10T11:39:39Z</time>
      </trkpt>
      <trkpt lat="44.44383" lon="6.22711">
        <ele>1343.579834</ele>
        <time>2013-09-10T11:40:19Z</time>
      </trkpt>
      <trkpt lat="44.44383" lon="6.22711">
        <ele>1342.6186523</ele>
        <time>2013-09-10T11:41:16Z</time>
      </trkpt>
      <trkpt lat="44.44383" lon="6.22711">
        <ele>1345.0217285</ele>
        <time>2013-09-10T11:42:18Z</time>
      </trkpt>
      <trkpt lat="44.44383" lon="6.22711">
        <ele>1343.0991211</ele>
        <time>2013-09-10T11:42:28Z</time>
      </trkpt>
      <trkpt lat="44.44383" lon="6.22711">
        <ele>1344.5410156</ele>
        <time>2013-09-10T11:42:39Z</time>
      </trkpt>
      <trkpt lat="44.44383" lon="6.22711">
        <ele>1345.0217285</ele>
        <time>2013-09-10T11:43:10Z</time>
      </trkpt>
      <trkpt lat="44.44383" lon="6.22711">
        <ele>1342.6186523</ele>
        <time>2013-09-10T11:43:38Z</time>
      </trkpt>
      <trkpt lat="44.44383" lon="6.22711">
        <ele>1344.0605469</ele>
        <time>2013-09-10T11:43:40Z</time>
      </trkpt>
      <trkpt lat="44.44383" lon="6.22711">
        <ele>1345.5024414</ele>
        <time>2013-09-10T11:44:14Z</time>
      </trkpt>
      <trkpt lat="44.44383" lon="6.22711">
        <ele>1344.5410156</ele>
        <time>2013-09-10T11:44:37Z</time>
      </trkpt>
      <trkpt lat="44.44383" lon="6.22711">
        <ele>1345.0217285</ele>
        <time>2013-09-10T11:45:00Z</time>
      </trkpt>
      <trkpt lat="44.44383" lon="6.22711">
        <ele>1343.579834</ele>
        <time>2013-09-10T11:45:40Z</time>
      </trkpt>
      <trkpt lat="44.44383" lon="6.22711">
        <ele>1345.5024414</ele>
        <time>2013-09-10T11:46:08Z</time>
      </trkpt>
      <trkpt lat="44.44383" lon="6.22711">
        <ele>1345.9831543</ele>
        <time>2013-09-10T11:47:40Z</time>
      </trkpt>
      <trkpt lat="44.44383" lon="6.22711">
        <ele>1346.9443359</ele>
        <time>2013-09-10T11:51:01Z</time>
      </trkpt>
      <trkpt lat="44.44383" lon="6.22711">
        <ele>1345.5024414</ele>
        <time>2013-09-10T11:51:41Z</time>
      </trkpt>
      <trkpt lat="44.44383" lon="6.22711">
        <ele>1345.9831543</ele>
        <time>2013-09-10T11:52:10Z</time>
      </trkpt>
      <trkpt lat="44.44383" lon="6.22711">
        <ele>1345.9831543</ele>
        <time>2013-09-10T11:52:34Z</time>
      </trkpt>
      <trkpt lat="44.44383" lon="6.22711">
        <ele>1348.8669434</ele>
        <time>2013-09-10T11:55:22Z</time>
      </trkpt>
      <trkpt lat="44.44383" lon="6.22711">
        <ele>1349.3476563</ele>
        <time>2013-09-10T11:56:47Z</time>
      </trkpt>
      <trkpt lat="44.44383" lon="6.22711">
        <ele>1349.3476563</ele>
        <time>2013-09-10T11:57:50Z</time>
      </trkpt>
      <trkpt lat="44.44383" lon="6.22711">
        <ele>1347.4250488</ele>
        <time>2013-09-10T11:57:52Z</time>
      </trkpt>
      <trkpt lat="44.44383" lon="6.22711">
        <ele>1347.9057617</ele>
        <time>2013-09-10T11:58:15Z</time>
      </trkpt>
      <trkpt lat="44.44383" lon="6.22711">
        <ele>1349.8283691</ele>
        <time>2013-09-10T11:59:42Z</time>
      </trkpt>
      <trkpt lat="44.44383" lon="6.22711">
        <ele>1348.8669434</ele>
        <time>2013-09-10T11:59:44Z</time>
      </trkpt>
      <trkpt lat="44.44383" lon="6.22711">
        <ele>1350.7895508</ele>
        <time>2013-09-10T12:01:16Z</time>
      </trkpt>
      <trkpt lat="44.44383" lon="6.22711">
        <ele>1351.7509766</ele>
        <time>2013-09-10T12:01:33Z</time>
      </trkpt>
      <trkpt lat="44.44383" lon="6.22711">
        <ele>1349.8283691</ele>
        <time>2013-09-10T12:01:38Z</time>
      </trkpt>
      <trkpt lat="44.44383" lon="6.22711">
        <ele>1351.7509766</ele>
        <time>2013-09-10T12:01:55Z</time>
      </trkpt>
      <trkpt lat="44.44383" lon="6.22711">
        <ele>1349.8283691</ele>
        <time>2013-09-10T12:01:57Z</time>
      </trkpt>
      <trkpt lat="44.44383" lon="6.22711">
        <ele>1351.7509766</ele>
        <time>2013-09-10T12:02:17Z</time>
      </trkpt>
      <trkpt lat="44.44383" lon="6.22711">
        <ele>1350.309082</ele>
        <time>2013-09-10T12:02:20Z</time>
      </trkpt>
      <trkpt lat="44.44383" lon="6.22711">
        <ele>1351.7509766</ele>
        <time>2013-09-10T12:02:22Z</time>
      </trkpt>
      <trkpt lat="44.44383" lon="6.22711">
        <ele>1350.7895508</ele>
        <time>2013-09-10T12:03:21Z</time>
      </trkpt>
      <trkpt lat="44.44383" lon="6.22711">
        <ele>1350.7895508</ele>
        <time>2013-09-10T12:03:54Z</time>
      </trkpt>
      <trkpt lat="44.44383" lon="6.22711">
        <ele>1350.309082</ele>
        <time>2013-09-10T12:04:05Z</time>
      </trkpt>
      <trkpt lat="44.44383" lon="6.22711">
        <ele>1351.7509766</ele>
        <time>2013-09-10T12:04:07Z</time>
      </trkpt>
      <trkpt lat="44.44383" lon="6.22711">
        <ele>1351.7509766</ele>
        <time>2013-09-10T12:04:40Z</time>
      </trkpt>
      <trkpt lat="44.44383" lon="6.22711">
        <ele>1350.7895508</ele>
        <time>2013-09-10T12:04:52Z</time>
      </trkpt>
      <trkpt lat="44.44383" lon="6.22711">
        <ele>1351.7509766</ele>
        <time>2013-09-10T12:05:59Z</time>
      </trkpt>
      <trkpt lat="44.44383" lon="6.22711">
        <ele>1352.7121582</ele>
        <time>2013-09-10T12:07:45Z</time>
      </trkpt>
      <trkpt lat="44.44383" lon="6.22711">
        <ele>1353.1928711</ele>
        <time>2013-09-10T12:09:47Z</time>
      </trkpt>
      <trkpt lat="44.44383" lon="6.22711">
        <ele>1354.1542969</ele>
        <time>2013-09-10T12:13:29Z</time>
      </trkpt>
      <trkpt lat="44.44383" lon="6.22711">
        <ele>1355.1154785</ele>
        <time>2013-09-10T12:13:55Z</time>
      </trkpt>
      <trkpt lat="44.44383" lon="6.22711">
        <ele>1353.673584</ele>
        <time>2013-09-10T12:13:58Z</time>
      </trkpt>
      <trkpt lat="44.44383" lon="6.22711">
        <ele>1353.673584</ele>
        <time>2013-09-10T12:14:20Z</time>
      </trkpt>
      <trkpt lat="44.44383" lon="6.22711">
        <ele>1353.673584</ele>
        <time>2013-09-10T12:14:37Z</time>
      </trkpt>
      <trkpt lat="44.44374" lon="6.22721">
        <ele>1353.673584</ele>
        <time>2013-09-10T12:14:51Z</time>
      </trkpt>
      <trkpt lat="44.44374" lon="6.22721">
        <ele>1353.673584</ele>
        <time>2013-09-10T12:14:52Z</time>
      </trkpt>
      <trkpt lat="44.4437" lon="6.22726">
        <ele>1353.1928711</ele>
        <time>2013-09-10T12:14:58Z</time>
      </trkpt>
      <trkpt lat="44.4437" lon="6.22726">
        <ele>1354.6347656</ele>
        <time>2013-09-10T12:15:01Z</time>
      </trkpt>
      <trkpt lat="44.4437" lon="6.22726">
        <ele>1352.7121582</ele>
        <time>2013-09-10T12:15:03Z</time>
      </trkpt>
      <trkpt lat="44.44356" lon="6.22747">
        <ele>1352.7121582</ele>
        <time>2013-09-10T12:15:19Z</time>
      </trkpt>
      <trkpt lat="44.44356" lon="6.22747">
        <ele>1351.7509766</ele>
        <time>2013-09-10T12:15:40Z</time>
      </trkpt>
      <trkpt lat="44.44356" lon="6.22747">
        <ele>1349.3476563</ele>
        <time>2013-09-10T12:16:03Z</time>
      </trkpt>
      <trkpt lat="44.44305" lon="6.22785">
        <ele>1346.4638672</ele>
        <time>2013-09-10T12:16:22Z</time>
      </trkpt>
      <trkpt lat="44.443" lon="6.22789">
        <ele>1346.9443359</ele>
        <time>2013-09-10T12:16:36Z</time>
      </trkpt>
      <trkpt lat="44.443" lon="6.22789">
        <ele>1349.3476563</ele>
        <time>2013-09-10T12:16:55Z</time>
      </trkpt>
      <trkpt lat="44.44281" lon="6.22824">
        <ele>1350.7895508</ele>
        <time>2013-09-10T12:17:10Z</time>
      </trkpt>
      <trkpt lat="44.44274" lon="6.22837">
        <ele>1352.2314453</ele>
        <time>2013-09-10T12:17:25Z</time>
      </trkpt>
      <trkpt lat="44.44274" lon="6.22837">
        <ele>1352.7121582</ele>
        <time>2013-09-10T12:17:45Z</time>
      </trkpt>
      <trkpt lat="44.44274" lon="6.22837">
        <ele>1353.1928711</ele>
        <time>2013-09-10T12:18:02Z</time>
      </trkpt>
      <trkpt lat="44.44239" lon="6.22896">
        <ele>1352.7121582</ele>
        <time>2013-09-10T12:18:15Z</time>
      </trkpt>
      <trkpt lat="44.44203" lon="6.22931">
        <ele>1349.3476563</ele>
        <time>2013-09-10T12:18:30Z</time>
      </trkpt>
      <trkpt lat="44.44196" lon="6.22936">
        <ele>1348.8669434</ele>
        <time>2013-09-10T12:18:32Z</time>
      </trkpt>
      <trkpt lat="44.44189" lon="6.22942">
        <ele>1348.3862305</ele>
        <time>2013-09-10T12:18:34Z</time>
      </trkpt>
      <trkpt lat="44.44158" lon="6.22972">
        <ele>1345.5024414</ele>
        <time>2013-09-10T12:18:41Z</time>
      </trkpt>
      <trkpt lat="44.44134" lon="6.22995">
        <ele>1343.579834</ele>
        <time>2013-09-10T12:18:46Z</time>
      </trkpt>
      <trkpt lat="44.44116" lon="6.2302">
        <ele>1344.5410156</ele>
        <time>2013-09-10T12:18:53Z</time>
      </trkpt>
      <trkpt lat="44.44096" lon="6.23055">
        <ele>1345.5024414</ele>
        <time>2013-09-10T12:19:04Z</time>
      </trkpt>
      <trkpt lat="44.4409" lon="6.23062">
        <ele>1346.9443359</ele>
        <time>2013-09-10T12:19:07Z</time>
      </trkpt>
      <trkpt lat="44.44087" lon="6.23065">
        <ele>1347.9057617</ele>
        <time>2013-09-10T12:19:08Z</time>
      </trkpt>
      <trkpt lat="44.44064" lon="6.23103">
        <ele>1349.3476563</ele>
        <time>2013-09-10T12:19:25Z</time>
      </trkpt>
      <trkpt lat="44.4404" lon="6.2314">
        <ele>1350.7895508</ele>
        <time>2013-09-10T12:19:39Z</time>
      </trkpt>
      <trkpt lat="44.44034" lon="6.23146">
        <ele>1353.1928711</ele>
        <time>2013-09-10T12:19:49Z</time>
      </trkpt>
      <trkpt lat="44.44034" lon="6.23146">
        <ele>1354.1542969</ele>
        <time>2013-09-10T12:20:06Z</time>
      </trkpt>
      <trkpt lat="44.44034" lon="6.23146">
        <ele>1355.1154785</ele>
        <time>2013-09-10T12:20:30Z</time>
      </trkpt>
      <trkpt lat="44.44021" lon="6.23166">
        <ele>1357.0383301</ele>
        <time>2013-09-10T12:20:43Z</time>
      </trkpt>
      <trkpt lat="44.44021" lon="6.23166">
        <ele>1358.4802246</ele>
        <time>2013-09-10T12:20:56Z</time>
      </trkpt>
      <trkpt lat="44.44001" lon="6.23188">
        <ele>1361.3642578</ele>
        <time>2013-09-10T12:21:12Z</time>
      </trkpt>
      <trkpt lat="44.44001" lon="6.23188">
        <ele>1362.8061523</ele>
        <time>2013-09-10T12:21:26Z</time>
      </trkpt>
      <trkpt lat="44.44001" lon="6.23188">
        <ele>1363.767334</ele>
        <time>2013-09-10T12:21:43Z</time>
      </trkpt>
      <trkpt lat="44.44001" lon="6.23188">
        <ele>1364.7287598</ele>
        <time>2013-09-10T12:21:58Z</time>
      </trkpt>
      <trkpt lat="44.44001" lon="6.23188">
        <ele>1365.2094727</ele>
        <time>2013-09-10T12:22:12Z</time>
      </trkpt>
      <trkpt lat="44.44001" lon="6.23188">
        <ele>1365.6901855</ele>
        <time>2013-09-10T12:22:21Z</time>
      </trkpt>
      <trkpt lat="44.44001" lon="6.23188">
        <ele>1366.6513672</ele>
        <time>2013-09-10T12:22:37Z</time>
      </trkpt>
      <trkpt lat="44.43954" lon="6.23261">
        <ele>1368.5739746</ele>
        <time>2013-09-10T12:22:50Z</time>
      </trkpt>
      <trkpt lat="44.43954" lon="6.23261">
        <ele>1370.9772949</ele>
        <time>2013-09-10T12:23:05Z</time>
      </trkpt>
      <trkpt lat="44.43954" lon="6.23261">
        <ele>1373.3808594</ele>
        <time>2013-09-10T12:23:23Z</time>
      </trkpt>
      <trkpt lat="44.43954" lon="6.23261">
        <ele>1375.3032227</ele>
        <time>2013-09-10T12:23:36Z</time>
      </trkpt>
      <trkpt lat="44.43954" lon="6.23261">
        <ele>1377.2260742</ele>
        <time>2013-09-10T12:23:55Z</time>
      </trkpt>
      <trkpt lat="44.43954" lon="6.23261">
        <ele>1376.7453613</ele>
        <time>2013-09-10T12:23:59Z</time>
      </trkpt>
      <trkpt lat="44.43954" lon="6.23261">
        <ele>1377.706543</ele>
        <time>2013-09-10T12:24:18Z</time>
      </trkpt>
      <trkpt lat="44.43954" lon="6.23261">
        <ele>1377.706543</ele>
        <time>2013-09-10T12:24:20Z</time>
      </trkpt>
      <trkpt lat="44.43867" lon="6.23295">
        <ele>1377.706543</ele>
        <time>2013-09-10T12:24:39Z</time>
      </trkpt>
      <trkpt lat="44.43867" lon="6.23295">
        <ele>1377.706543</ele>
        <time>2013-09-10T12:24:45Z</time>
      </trkpt>
      <trkpt lat="44.43867" lon="6.23295">
        <ele>1378.6679688</ele>
        <time>2013-09-10T12:25:00Z</time>
      </trkpt>
      <trkpt lat="44.43867" lon="6.23295">
        <ele>1378.6679688</ele>
        <time>2013-09-10T12:25:03Z</time>
      </trkpt>
      <trkpt lat="44.43867" lon="6.23295">
        <ele>1378.6679688</ele>
        <time>2013-09-10T12:25:21Z</time>
      </trkpt>
      <trkpt lat="44.43867" lon="6.23295">
        <ele>1378.6679688</ele>
        <time>2013-09-10T12:25:39Z</time>
      </trkpt>
      <trkpt lat="44.43867" lon="6.23295">
        <ele>1378.6679688</ele>
        <time>2013-09-10T12:25:42Z</time>
      </trkpt>
      <trkpt lat="44.43875" lon="6.23312">
        <ele>1378.6679688</ele>
        <time>2013-09-10T12:25:46Z</time>
      </trkpt>
      <trkpt lat="44.4388" lon="6.233">
        <ele>1379.1484375</ele>
        <time>2013-09-10T12:25:50Z</time>
      </trkpt>
      <trkpt lat="44.43867" lon="6.23294">
        <ele>1378.1872559</ele>
        <time>2013-09-10T12:25:56Z</time>
      </trkpt>
      <trkpt lat="44.43833" lon="6.23317">
        <ele>1373.8613281</ele>
        <time>2013-09-10T12:26:09Z</time>
      </trkpt>
      <trkpt lat="44.43826" lon="6.23321">
        <ele>1373.3808594</ele>
        <time>2013-09-10T12:26:11Z</time>
      </trkpt>
      <trkpt lat="44.43811" lon="6.23327">
        <ele>1371.4577637</ele>
        <time>2013-09-10T12:26:15Z</time>
      </trkpt>
      <trkpt lat="44.43794" lon="6.23333">
        <ele>1368.5739746</ele>
        <time>2013-09-10T12:26:19Z</time>
      </trkpt>
      <trkpt lat="44.43784" lon="6.23335">
        <ele>1367.1320801</ele>
        <time>2013-09-10T12:26:22Z</time>
      </trkpt>
      <trkpt lat="44.43761" lon="6.23341">
        <ele>1363.767334</ele>
        <time>2013-09-10T12:26:28Z</time>
      </trkpt>
      <trkpt lat="44.43757" lon="6.23343">
        <ele>1363.767334</ele>
        <time>2013-09-10T12:26:29Z</time>
      </trkpt>
      <trkpt lat="44.43708" lon="6.2338">
        <ele>1363.2868652</ele>
        <time>2013-09-10T12:26:42Z</time>
      </trkpt>
      <trkpt lat="44.43666" lon="6.23414">
        <ele>1364.7287598</ele>
        <time>2013-09-10T12:26:58Z</time>
      </trkpt>
      <trkpt lat="44.43656" lon="6.23418">
        <ele>1364.7287598</ele>
        <time>2013-09-10T12:27:02Z</time>
      </trkpt>
      <trkpt lat="44.43608" lon="6.23445">
        <ele>1366.1706543</ele>
        <time>2013-09-10T12:27:23Z</time>
      </trkpt>
      <trkpt lat="44.43565" lon="6.23473">
        <ele>1362.8061523</ele>
        <time>2013-09-10T12:27:39Z</time>
      </trkpt>
      <trkpt lat="44.43538" lon="6.23488">
        <ele>1358.4802246</ele>
        <time>2013-09-10T12:27:49Z</time>
      </trkpt>
      <trkpt lat="44.43535" lon="6.2349">
        <ele>1358.4802246</ele>
        <time>2013-09-10T12:27:50Z</time>
      </trkpt>
      <trkpt lat="44.43519" lon="6.23502">
        <ele>1354.6347656</ele>
        <time>2013-09-10T12:27:56Z</time>
      </trkpt>
      <trkpt lat="44.43517" lon="6.23504">
        <ele>1354.6347656</ele>
        <time>2013-09-10T12:27:57Z</time>
      </trkpt>
      <trkpt lat="44.43506" lon="6.23511">
        <ele>1352.7121582</ele>
        <time>2013-09-10T12:28:01Z</time>
      </trkpt>
      <trkpt lat="44.43493" lon="6.2352">
        <ele>1349.3476563</ele>
        <time>2013-09-10T12:28:06Z</time>
      </trkpt>
      <trkpt lat="44.43487" lon="6.23524">
        <ele>1348.3862305</ele>
        <time>2013-09-10T12:28:08Z</time>
      </trkpt>
      <trkpt lat="44.43474" lon="6.23532">
        <ele>1345.9831543</ele>
        <time>2013-09-10T12:28:12Z</time>
      </trkpt>
      <trkpt lat="44.43452" lon="6.23546">
        <ele>1343.0991211</ele>
        <time>2013-09-10T12:28:19Z</time>
      </trkpt>
      <trkpt lat="44.43443" lon="6.23549">
        <ele>1341.6572266</ele>
        <time>2013-09-10T12:28:21Z</time>
      </trkpt>
      <trkpt lat="44.43402" lon="6.23547">
        <ele>1340.215332</ele>
        <time>2013-09-10T12:28:33Z</time>
      </trkpt>
      <trkpt lat="44.43364" lon="6.23536">
        <ele>1340.6958008</ele>
        <time>2013-09-10T12:28:47Z</time>
      </trkpt>
      <trkpt lat="44.43338" lon="6.23501">
        <ele>1337.3310547</ele>
        <time>2013-09-10T12:28:59Z</time>
      </trkpt>
      <trkpt lat="44.43335" lon="6.23495">
        <ele>1337.3310547</ele>
        <time>2013-09-10T12:29:00Z</time>
      </trkpt>
      <trkpt lat="44.43322" lon="6.2347">
        <ele>1335.8891602</ele>
        <time>2013-09-10T12:29:04Z</time>
      </trkpt>
      <trkpt lat="44.433" lon="6.23453">
        <ele>1333.005127</ele>
        <time>2013-09-10T12:29:13Z</time>
      </trkpt>
      <trkpt lat="44.43289" lon="6.2346">
        <ele>1331.5632324</ele>
        <time>2013-09-10T12:29:16Z</time>
      </trkpt>
      <trkpt lat="44.43287" lon="6.23464">
        <ele>1331.0827637</ele>
        <time>2013-09-10T12:29:17Z</time>
      </trkpt>
      <trkpt lat="44.43268" lon="6.23489">
        <ele>1327.2375488</ele>
        <time>2013-09-10T12:29:26Z</time>
      </trkpt>
      <trkpt lat="44.43252" lon="6.23494">
        <ele>1326.276123</ele>
        <time>2013-09-10T12:29:30Z</time>
      </trkpt>
      <trkpt lat="44.43235" lon="6.23497">
        <ele>1323.8725586</ele>
        <time>2013-09-10T12:29:34Z</time>
      </trkpt>
      <trkpt lat="44.43212" lon="6.23503">
        <ele>1320.5080566</ele>
        <time>2013-09-10T12:29:40Z</time>
      </trkpt>
      <trkpt lat="44.43198" lon="6.23507">
        <ele>1319.0661621</ele>
        <time>2013-09-10T12:29:44Z</time>
      </trkpt>
      <trkpt lat="44.43174" lon="6.23517">
        <ele>1315.2209473</ele>
        <time>2013-09-10T12:29:52Z</time>
      </trkpt>
      <trkpt lat="44.43164" lon="6.23521">
        <ele>1314.2595215</ele>
        <time>2013-09-10T12:29:55Z</time>
      </trkpt>
      <trkpt lat="44.43153" lon="6.23521">
        <ele>1310.8950195</ele>
        <time>2013-09-10T12:29:58Z</time>
      </trkpt>
      <trkpt lat="44.43149" lon="6.2352">
        <ele>1308.4916992</ele>
        <time>2013-09-10T12:29:59Z</time>
      </trkpt>
      <trkpt lat="44.43142" lon="6.23522">
        <ele>1308.0112305</ele>
        <time>2013-09-10T12:30:01Z</time>
      </trkpt>
      <trkpt lat="44.43126" lon="6.2353">
        <ele>1305.607666</ele>
        <time>2013-09-10T12:30:07Z</time>
      </trkpt>
      <trkpt lat="44.4311" lon="6.2354">
        <ele>1302.7236328</ele>
        <time>2013-09-10T12:30:12Z</time>
      </trkpt>
      <trkpt lat="44.43092" lon="6.23545">
        <ele>1300.8010254</ele>
        <time>2013-09-10T12:30:16Z</time>
      </trkpt>
      <trkpt lat="44.43067" lon="6.23557">
        <ele>1297.9172363</ele>
        <time>2013-09-10T12:30:23Z</time>
      </trkpt>
      <trkpt lat="44.43039" lon="6.2357">
        <ele>1294.0720215</ele>
        <time>2013-09-10T12:30:29Z</time>
      </trkpt>
      <trkpt lat="44.43034" lon="6.23572">
        <ele>1294.0720215</ele>
        <time>2013-09-10T12:30:30Z</time>
      </trkpt>
      <trkpt lat="44.43023" lon="6.23575">
        <ele>1293.1105957</ele>
        <time>2013-09-10T12:30:32Z</time>
      </trkpt>
      <trkpt lat="44.43004" lon="6.23575">
        <ele>1292.1494141</ele>
        <time>2013-09-10T12:30:35Z</time>
      </trkpt>
      <trkpt lat="44.42992" lon="6.23575">
        <ele>1291.1877441</ele>
        <time>2013-09-10T12:30:37Z</time>
      </trkpt>
      <trkpt lat="44.42978" lon="6.23573">
        <ele>1294.0720215</ele>
        <time>2013-09-10T12:30:41Z</time>
      </trkpt>
      <trkpt lat="44.42964" lon="6.23569">
        <ele>1297.4365234</ele>
        <time>2013-09-10T12:30:47Z</time>
      </trkpt>
      <trkpt lat="44.42939" lon="6.23561">
        <ele>1300.3205566</ele>
        <time>2013-09-10T12:31:03Z</time>
      </trkpt>
      <trkpt lat="44.42913" lon="6.23554">
        <ele>1302.2429199</ele>
        <time>2013-09-10T12:31:21Z</time>
      </trkpt>
      <trkpt lat="44.42884" lon="6.23548">
        <ele>1303.6850586</ele>
        <time>2013-09-10T12:31:42Z</time>
      </trkpt>
      <trkpt lat="44.42878" lon="6.23547">
        <ele>1304.1657715</ele>
        <time>2013-09-10T12:31:58Z</time>
      </trkpt>
      <trkpt lat="44.42855" lon="6.23542">
        <ele>1301.7624512</ele>
        <time>2013-09-10T12:32:16Z</time>
      </trkpt>
      <trkpt lat="44.42832" lon="6.23541">
        <ele>1298.3977051</ele>
        <time>2013-09-10T12:32:22Z</time>
      </trkpt>
      <trkpt lat="44.42824" lon="6.23541">
        <ele>1297.4365234</ele>
        <time>2013-09-10T12:32:24Z</time>
      </trkpt>
      <trkpt lat="44.42798" lon="6.23541">
        <ele>1294.5524902</ele>
        <time>2013-09-10T12:32:31Z</time>
      </trkpt>
      <trkpt lat="44.42747" lon="6.23533">
        <ele>1291.668457</ele>
        <time>2013-09-10T12:32:43Z</time>
      </trkpt>
      <trkpt lat="44.42727" lon="6.23529">
        <ele>1289.7458496</ele>
        <time>2013-09-10T12:32:47Z</time>
      </trkpt>
      <trkpt lat="44.42694" lon="6.2352">
        <ele>1288.784668</ele>
        <time>2013-09-10T12:32:55Z</time>
      </trkpt>
      <trkpt lat="44.42667" lon="6.23508">
        <ele>1291.668457</ele>
        <time>2013-09-10T12:33:01Z</time>
      </trkpt>
      <trkpt lat="44.42667" lon="6.23506">
        <ele>1291.668457</ele>
        <time>2013-09-10T12:33:02Z</time>
      </trkpt>
      <trkpt lat="44.42667" lon="6.23506">
        <ele>1291.668457</ele>
        <time>2013-09-10T12:33:24Z</time>
      </trkpt>
      <trkpt lat="44.42667" lon="6.23506">
        <ele>1291.1877441</ele>
        <time>2013-09-10T12:34:22Z</time>
      </trkpt>
      <trkpt lat="44.42672" lon="6.23474">
        <ele>1289.7458496</ele>
        <time>2013-09-10T12:34:32Z</time>
      </trkpt>
      <trkpt lat="44.42672" lon="6.23458">
        <ele>1288.784668</ele>
        <time>2013-09-10T12:34:36Z</time>
      </trkpt>
      <trkpt lat="44.42672" lon="6.23452">
        <ele>1288.784668</ele>
        <time>2013-09-10T12:34:37Z</time>
      </trkpt>
      <trkpt lat="44.42676" lon="6.23428">
        <ele>1285.4199219</ele>
        <time>2013-09-10T12:34:41Z</time>
      </trkpt>
      <trkpt lat="44.42672" lon="6.23404">
        <ele>1281.0942383</ele>
        <time>2013-09-10T12:34:44Z</time>
      </trkpt>
      <trkpt lat="44.42668" lon="6.23393">
        <ele>1281.0942383</ele>
        <time>2013-09-10T12:34:45Z</time>
      </trkpt>
      <trkpt lat="44.4266" lon="6.2338">
        <ele>1279.6520996</ele>
        <time>2013-09-10T12:34:47Z</time>
      </trkpt>
      <trkpt lat="44.42655" lon="6.23363">
        <ele>1278.2102051</ele>
        <time>2013-09-10T12:34:49Z</time>
      </trkpt>
      <trkpt lat="44.4265" lon="6.23333">
        <ele>1273.8840332</ele>
        <time>2013-09-10T12:34:52Z</time>
      </trkpt>
      <trkpt lat="44.42649" lon="6.23322">
        <ele>1271.4807129</ele>
        <time>2013-09-10T12:34:53Z</time>
      </trkpt>
      <trkpt lat="44.42647" lon="6.23291">
        <ele>1269.0776367</ele>
        <time>2013-09-10T12:34:56Z</time>
      </trkpt>
      <trkpt lat="44.42646" lon="6.23278">
        <ele>1267.1550293</ele>
        <time>2013-09-10T12:34:57Z</time>
      </trkpt>
      <trkpt lat="44.42644" lon="6.23253">
        <ele>1264.751709</ele>
        <time>2013-09-10T12:34:59Z</time>
      </trkpt>
      <trkpt lat="44.42642" lon="6.23241">
        <ele>1263.3098145</ele>
        <time>2013-09-10T12:35:00Z</time>
      </trkpt>
      <trkpt lat="44.42647" lon="6.23217">
        <ele>1261.387207</ele>
        <time>2013-09-10T12:35:03Z</time>
      </trkpt>
      <trkpt lat="44.4265" lon="6.2321">
        <ele>1259.9448242</ele>
        <time>2013-09-10T12:35:04Z</time>
      </trkpt>
      <trkpt lat="44.42666" lon="6.23177">
        <ele>1255.6191406</ele>
        <time>2013-09-10T12:35:08Z</time>
      </trkpt>
      <trkpt lat="44.42672" lon="6.23158">
        <ele>1253.6965332</ele>
        <time>2013-09-10T12:35:10Z</time>
      </trkpt>
      <trkpt lat="44.42681" lon="6.23141">
        <ele>1248.8898926</ele>
        <time>2013-09-10T12:35:12Z</time>
      </trkpt>
      <trkpt lat="44.42696" lon="6.23116">
        <ele>1246.0061035</ele>
        <time>2013-09-10T12:35:15Z</time>
      </trkpt>
      <trkpt lat="44.42704" lon="6.23099">
        <ele>1244.0834961</ele>
        <time>2013-09-10T12:35:17Z</time>
      </trkpt>
      <trkpt lat="44.42708" lon="6.23093">
        <ele>1243.1218262</ele>
        <time>2013-09-10T12:35:18Z</time>
      </trkpt>
      <trkpt lat="44.42711" lon="6.23089">
        <ele>1241.6799316</ele>
        <time>2013-09-10T12:35:20Z</time>
      </trkpt>
      <trkpt lat="44.4272" lon="6.23079">
        <ele>1238.7961426</ele>
        <time>2013-09-10T12:35:22Z</time>
      </trkpt>
      <trkpt lat="44.42727" lon="6.23062">
        <ele>1237.3540039</ele>
        <time>2013-09-10T12:35:24Z</time>
      </trkpt>
      <trkpt lat="44.42727" lon="6.23043">
        <ele>1235.4313965</ele>
        <time>2013-09-10T12:35:26Z</time>
      </trkpt>
      <trkpt lat="44.42721" lon="6.23028">
        <ele>1233.0280762</ele>
        <time>2013-09-10T12:35:29Z</time>
      </trkpt>
      <trkpt lat="44.42715" lon="6.23018">
        <ele>1232.0668945</ele>
        <time>2013-09-10T12:35:31Z</time>
      </trkpt>
      <trkpt lat="44.42698" lon="6.23">
        <ele>1229.1828613</ele>
        <time>2013-09-10T12:35:34Z</time>
      </trkpt>
      <trkpt lat="44.42686" lon="6.22985">
        <ele>1227.2602539</ele>
        <time>2013-09-10T12:35:36Z</time>
      </trkpt>
      <trkpt lat="44.42679" lon="6.22973">
        <ele>1225.3374023</ele>
        <time>2013-09-10T12:35:37Z</time>
      </trkpt>
      <trkpt lat="44.42673" lon="6.22953">
        <ele>1224.3762207</ele>
        <time>2013-09-10T12:35:39Z</time>
      </trkpt>
      <trkpt lat="44.42668" lon="6.22935">
        <ele>1222.9343262</ele>
        <time>2013-09-10T12:35:41Z</time>
      </trkpt>
      <trkpt lat="44.42664" lon="6.22916">
        <ele>1218.6083984</ele>
        <time>2013-09-10T12:35:43Z</time>
      </trkpt>
      <trkpt lat="44.42662" lon="6.22898">
        <ele>1215.7246094</ele>
        <time>2013-09-10T12:35:45Z</time>
      </trkpt>
      <trkpt lat="44.42659" lon="6.22864">
        <ele>1212.3598633</ele>
        <time>2013-09-10T12:35:48Z</time>
      </trkpt>
      <trkpt lat="44.42658" lon="6.22858">
        <ele>1210.4370117</ele>
        <time>2013-09-10T12:35:49Z</time>
      </trkpt>
      <trkpt lat="44.42652" lon="6.22848">
        <ele>1208.9951172</ele>
        <time>2013-09-10T12:35:53Z</time>
      </trkpt>
      <trkpt lat="44.42651" lon="6.22847">
        <ele>1207.0725098</ele>
        <time>2013-09-10T12:35:57Z</time>
      </trkpt>
      <trkpt lat="44.4265" lon="6.22846">
        <ele>1205.6306152</ele>
        <time>2013-09-10T12:35:58Z</time>
      </trkpt>
      <trkpt lat="44.42704" lon="6.22779">
        <ele>1203.2272949</ele>
        <time>2013-09-10T12:36:01Z</time>
      </trkpt>
      <trkpt lat="44.42649" lon="6.22795">
        <ele>1202.2658691</ele>
        <time>2013-09-10T12:36:02Z</time>
      </trkpt>
      <trkpt lat="44.4265" lon="6.22788">
        <ele>1198.9013672</ele>
        <time>2013-09-10T12:36:07Z</time>
      </trkpt>
      <trkpt lat="44.42648" lon="6.22779">
        <ele>1197.9401855</ele>
        <time>2013-09-10T12:36:09Z</time>
      </trkpt>
      <trkpt lat="44.42646" lon="6.22766">
        <ele>1196.498291</ele>
        <time>2013-09-10T12:36:13Z</time>
      </trkpt>
      <trkpt lat="44.42637" lon="6.22751">
        <ele>1193.6140137</ele>
        <time>2013-09-10T12:36:17Z</time>
      </trkpt>
      <trkpt lat="44.42627" lon="6.22741">
        <ele>1191.2106934</ele>
        <time>2013-09-10T12:36:19Z</time>
      </trkpt>
      <trkpt lat="44.42613" lon="6.22732">
        <ele>1189.7687988</ele>
        <time>2013-09-10T12:36:22Z</time>
      </trkpt>
      <trkpt lat="44.42608" lon="6.22727">
        <ele>1187.3654785</ele>
        <time>2013-09-10T12:36:23Z</time>
      </trkpt>
      <trkpt lat="44.42598" lon="6.22707">
        <ele>1184.0009766</ele>
        <time>2013-09-10T12:36:26Z</time>
      </trkpt>
      <trkpt lat="44.42594" lon="6.22702">
        <ele>1184.0009766</ele>
        <time>2013-09-10T12:36:27Z</time>
      </trkpt>
      <trkpt lat="44.42589" lon="6.22696">
        <ele>1183.0395508</ele>
        <time>2013-09-10T12:36:28Z</time>
      </trkpt>
      <trkpt lat="44.42575" lon="6.22671">
        <ele>1180.1557617</ele>
        <time>2013-09-10T12:36:32Z</time>
      </trkpt>
      <trkpt lat="44.42578" lon="6.22653">
        <ele>1178.2329102</ele>
        <time>2013-09-10T12:36:34Z</time>
      </trkpt>
      <trkpt lat="44.42575" lon="6.22631">
        <ele>1176.7910156</ele>
        <time>2013-09-10T12:36:36Z</time>
      </trkpt>
      <trkpt lat="44.42568" lon="6.22618">
        <ele>1175.348877</ele>
        <time>2013-09-10T12:36:38Z</time>
      </trkpt>
      <trkpt lat="44.42555" lon="6.22598">
        <ele>1172.4650879</ele>
        <time>2013-09-10T12:36:41Z</time>
      </trkpt>
      <trkpt lat="44.42548" lon="6.22583">
        <ele>1170.0617676</ele>
        <time>2013-09-10T12:36:43Z</time>
      </trkpt>
      <trkpt lat="44.42544" lon="6.22574">
        <ele>1168.619873</ele>
        <time>2013-09-10T12:36:44Z</time>
      </trkpt>
      <trkpt lat="44.42537" lon="6.22554">
        <ele>1164.7746582</ele>
        <time>2013-09-10T12:36:46Z</time>
      </trkpt>
      <trkpt lat="44.42533" lon="6.22549">
        <ele>1164.7746582</ele>
        <time>2013-09-10T12:36:47Z</time>
      </trkpt>
      <trkpt lat="44.42516" lon="6.22521">
        <ele>1162.3710938</ele>
        <time>2013-09-10T12:36:50Z</time>
      </trkpt>
      <trkpt lat="44.42507" lon="6.22507">
        <ele>1160.9291992</ele>
        <time>2013-09-10T12:36:52Z</time>
      </trkpt>
      <trkpt lat="44.42503" lon="6.22499">
        <ele>1159.0065918</ele>
        <time>2013-09-10T12:36:53Z</time>
      </trkpt>
      <trkpt lat="44.42493" lon="6.2247">
        <ele>1157.0839844</ele>
        <time>2013-09-10T12:36:57Z</time>
      </trkpt>
      <trkpt lat="44.42492" lon="6.22463">
        <ele>1155.6420898</ele>
        <time>2013-09-10T12:36:58Z</time>
      </trkpt>
      <trkpt lat="44.42488" lon="6.22435">
        <ele>1153.2387695</ele>
        <time>2013-09-10T12:37:02Z</time>
      </trkpt>
      <trkpt lat="44.42485" lon="6.22414">
        <ele>1150.3549805</ele>
        <time>2013-09-10T12:37:04Z</time>
      </trkpt>
      <trkpt lat="44.42487" lon="6.22401">
        <ele>1148.9128418</ele>
        <time>2013-09-10T12:37:06Z</time>
      </trkpt>
      <trkpt lat="44.42488" lon="6.22385">
        <ele>1147.4707031</ele>
        <time>2013-09-10T12:37:08Z</time>
      </trkpt>
      <trkpt lat="44.42489" lon="6.22377">
        <ele>1145.0673828</ele>
        <time>2013-09-10T12:37:09Z</time>
      </trkpt>
      <trkpt lat="44.42492" lon="6.22338">
        <ele>1143.6254883</ele>
        <time>2013-09-10T12:37:13Z</time>
      </trkpt>
      <trkpt lat="44.42496" lon="6.22323">
        <ele>1140.7414551</ele>
        <time>2013-09-10T12:37:15Z</time>
      </trkpt>
      <trkpt lat="44.42494" lon="6.22305">
        <ele>1138.8190918</ele>
        <time>2013-09-10T12:37:18Z</time>
      </trkpt>
      <trkpt lat="44.42492" lon="6.22295">
        <ele>1136.8962402</ele>
        <time>2013-09-10T12:37:20Z</time>
      </trkpt>
      <trkpt lat="44.42493" lon="6.223">
        <ele>1135.4543457</ele>
        <time>2013-09-10T12:37:22Z</time>
      </trkpt>
      <trkpt lat="44.42488" lon="6.22279">
        <ele>1134.0124512</ele>
        <time>2013-09-10T12:37:26Z</time>
      </trkpt>
      <trkpt lat="44.42493" lon="6.223">
        <ele>1132.5705566</ele>
        <time>2013-09-10T12:37:29Z</time>
      </trkpt>
      <trkpt lat="44.42493" lon="6.223">
        <ele>1130.6477051</ele>
        <time>2013-09-10T12:37:32Z</time>
      </trkpt>
      <trkpt lat="44.42493" lon="6.223">
        <ele>1129.2055664</ele>
        <time>2013-09-10T12:37:34Z</time>
      </trkpt>
      <trkpt lat="44.42493" lon="6.223">
        <ele>1126.8024902</ele>
        <time>2013-09-10T12:37:38Z</time>
      </trkpt>
      <trkpt lat="44.42493" lon="6.223">
        <ele>1123.4379883</ele>
        <time>2013-09-10T12:37:40Z</time>
      </trkpt>
      <trkpt lat="44.42493" lon="6.223">
        <ele>1123.4379883</ele>
        <time>2013-09-10T12:37:41Z</time>
      </trkpt>
      <trkpt lat="44.42493" lon="6.223">
        <ele>1120.0732422</ele>
        <time>2013-09-10T12:37:46Z</time>
      </trkpt>
      <trkpt lat="44.42493" lon="6.223">
        <ele>1119.1120605</ele>
        <time>2013-09-10T12:37:48Z</time>
      </trkpt>
      <trkpt lat="44.42493" lon="6.223">
        <ele>1116.2280273</ele>
        <time>2013-09-10T12:37:51Z</time>
      </trkpt>
      <trkpt lat="44.42493" lon="6.223">
        <ele>1116.2280273</ele>
        <time>2013-09-10T12:37:52Z</time>
      </trkpt>
      <trkpt lat="44.42493" lon="6.223">
        <ele>1113.3439941</ele>
        <time>2013-09-10T12:37:55Z</time>
      </trkpt>
      <trkpt lat="44.42365" lon="6.22219">
        <ele>1109.979248</ele>
        <time>2013-09-10T12:38:01Z</time>
      </trkpt>
      <trkpt lat="44.42363" lon="6.2221">
        <ele>1109.979248</ele>
        <time>2013-09-10T12:38:02Z</time>
      </trkpt>
      <trkpt lat="44.4236" lon="6.22198">
        <ele>1106.6147461</ele>
        <time>2013-09-10T12:38:03Z</time>
      </trkpt>
      <trkpt lat="44.42378" lon="6.22145">
        <ele>1103.2502441</ele>
        <time>2013-09-10T12:38:07Z</time>
      </trkpt>
      <trkpt lat="44.42379" lon="6.22138">
        <ele>1102.2888184</ele>
        <time>2013-09-10T12:38:09Z</time>
      </trkpt>
      <trkpt lat="44.42436" lon="6.22187">
        <ele>1100.3664551</ele>
        <time>2013-09-10T12:38:11Z</time>
      </trkpt>
      <trkpt lat="44.42361" lon="6.22108">
        <ele>1097.0014648</ele>
        <time>2013-09-10T12:38:14Z</time>
      </trkpt>
      <trkpt lat="44.42374" lon="6.22119">
        <ele>1093.15625</ele>
        <time>2013-09-10T12:38:17Z</time>
      </trkpt>
      <trkpt lat="44.42375" lon="6.22105">
        <ele>1093.15625</ele>
        <time>2013-09-10T12:38:18Z</time>
      </trkpt>
      <trkpt lat="44.42326" lon="6.22049">
        <ele>1091.2336426</ele>
        <time>2013-09-10T12:38:21Z</time>
      </trkpt>
      <trkpt lat="44.42326" lon="6.22047">
        <ele>1091.2336426</ele>
        <time>2013-09-10T12:38:22Z</time>
      </trkpt>
      <trkpt lat="44.42338" lon="6.22044">
        <ele>1085.4658203</ele>
        <time>2013-09-10T12:38:25Z</time>
      </trkpt>
      <trkpt lat="44.42365" lon="6.22046">
        <ele>1082.5817871</ele>
        <time>2013-09-10T12:38:28Z</time>
      </trkpt>
      <trkpt lat="44.42379" lon="6.22046">
        <ele>1082.5817871</ele>
        <time>2013-09-10T12:38:29Z</time>
      </trkpt>
      <trkpt lat="44.42401" lon="6.22036">
        <ele>1081.6203613</ele>
        <time>2013-09-10T12:38:32Z</time>
      </trkpt>
      <trkpt lat="44.42403" lon="6.22029">
        <ele>1080.6591797</ele>
        <time>2013-09-10T12:38:34Z</time>
      </trkpt>
      <trkpt lat="44.4242" lon="6.21987">
        <ele>1078.7365723</ele>
        <time>2013-09-10T12:38:36Z</time>
      </trkpt>
      <trkpt lat="44.4242" lon="6.21987">
        <ele>1074.4106445</ele>
        <time>2013-09-10T12:38:39Z</time>
      </trkpt>
      <trkpt lat="44.4242" lon="6.21987">
        <ele>1071.0461426</ele>
        <time>2013-09-10T12:38:40Z</time>
      </trkpt>
      <trkpt lat="44.4242" lon="6.21987">
        <ele>1071.0461426</ele>
        <time>2013-09-10T12:38:41Z</time>
      </trkpt>
      <trkpt lat="44.4242" lon="6.21987">
        <ele>1071.0461426</ele>
        <time>2013-09-10T12:38:42Z</time>
      </trkpt>
      <trkpt lat="44.42528" lon="6.22056">
        <ele>1064.7973633</ele>
        <time>2013-09-10T12:38:45Z</time>
      </trkpt>
      <trkpt lat="44.4253" lon="6.22054">
        <ele>1064.7973633</ele>
        <time>2013-09-10T12:38:46Z</time>
      </trkpt>
      <trkpt lat="44.42505" lon="6.21906">
        <ele>1063.8359375</ele>
        <time>2013-09-10T12:38:50Z</time>
      </trkpt>
      <trkpt lat="44.42505" lon="6.21899">
        <ele>1061.9135742</ele>
        <time>2013-09-10T12:38:51Z</time>
      </trkpt>
      <trkpt lat="44.42531" lon="6.21867">
        <ele>1059.9907227</ele>
        <time>2013-09-10T12:38:58Z</time>
      </trkpt>
      <trkpt lat="44.42626" lon="6.21873">
        <ele>1059.5102539</ele>
        <time>2013-09-10T12:39:01Z</time>
      </trkpt>
      <trkpt lat="44.42629" lon="6.21886">
        <ele>1055.6650391</ele>
        <time>2013-09-10T12:39:05Z</time>
      </trkpt>
      <trkpt lat="44.42623" lon="6.21941">
        <ele>1055.6650391</ele>
        <time>2013-09-10T12:39:06Z</time>
      </trkpt>
      <trkpt lat="44.42622" lon="6.21944">
        <ele>1053.7424316</ele>
        <time>2013-09-10T12:39:08Z</time>
      </trkpt>
      <trkpt lat="44.42622" lon="6.21944">
        <ele>1051.3388672</ele>
        <time>2013-09-10T12:39:11Z</time>
      </trkpt>
      <trkpt lat="44.4262" lon="6.21964">
        <ele>1048.9355469</ele>
        <time>2013-09-10T12:39:14Z</time>
      </trkpt>
      <trkpt lat="44.42616" lon="6.21997">
        <ele>1046.0517578</ele>
        <time>2013-09-10T12:39:18Z</time>
      </trkpt>
      <trkpt lat="44.42616" lon="6.22001">
        <ele>1045.5710449</ele>
        <time>2013-09-10T12:39:19Z</time>
      </trkpt>
      <trkpt lat="44.42616" lon="6.22001">
        <ele>1045.5710449</ele>
        <time>2013-09-10T12:39:21Z</time>
      </trkpt>
      <trkpt lat="44.42618" lon="6.2198">
        <ele>1044.1291504</ele>
        <time>2013-09-10T12:39:25Z</time>
      </trkpt>
      <trkpt lat="44.4262" lon="6.21972">
        <ele>1043.1677246</ele>
        <time>2013-09-10T12:39:27Z</time>
      </trkpt>
      <trkpt lat="44.4262" lon="6.21967">
        <ele>1041.2451172</ele>
        <time>2013-09-10T12:39:29Z</time>
      </trkpt>
      <trkpt lat="44.42619" lon="6.21976">
        <ele>1038.842041</ele>
        <time>2013-09-10T12:39:32Z</time>
      </trkpt>
      <trkpt lat="44.42651" lon="6.21944">
        <ele>1037.3999023</ele>
        <time>2013-09-10T12:39:34Z</time>
      </trkpt>
      <trkpt lat="44.42681" lon="6.21947">
        <ele>1032.5932617</ele>
        <time>2013-09-10T12:39:38Z</time>
      </trkpt>
      <trkpt lat="44.42683" lon="6.21944">
        <ele>1032.5932617</ele>
        <time>2013-09-10T12:39:39Z</time>
      </trkpt>
      <trkpt lat="44.42685" lon="6.21943">
        <ele>1031.1513672</ele>
        <time>2013-09-10T12:39:40Z</time>
      </trkpt>
      <trkpt lat="44.42698" lon="6.21944">
        <ele>1029.2285156</ele>
        <time>2013-09-10T12:39:43Z</time>
      </trkpt>
      <trkpt lat="44.42718" lon="6.21935">
        <ele>1027.3061523</ele>
        <time>2013-09-10T12:39:46Z</time>
      </trkpt>
      <trkpt lat="44.42733" lon="6.21935">
        <ele>1025.8640137</ele>
        <time>2013-09-10T12:39:48Z</time>
      </trkpt>
      <trkpt lat="44.42739" lon="6.21937">
        <ele>1025.3833008</ele>
        <time>2013-09-10T12:39:49Z</time>
      </trkpt>
      <trkpt lat="44.42772" lon="6.21936">
        <ele>1023.4609375</ele>
        <time>2013-09-10T12:39:52Z</time>
      </trkpt>
      <trkpt lat="44.4278" lon="6.21928">
        <ele>1021.0576172</ele>
        <time>2013-09-10T12:39:54Z</time>
      </trkpt>
      <trkpt lat="44.42796" lon="6.21914">
        <ele>1019.1347656</ele>
        <time>2013-09-10T12:39:57Z</time>
      </trkpt>
      <trkpt lat="44.42807" lon="6.21907">
        <ele>1018.6540527</ele>
        <time>2013-09-10T12:40:06Z</time>
      </trkpt>
      <trkpt lat="44.42825" lon="6.21872">
        <ele>1015.7702637</ele>
        <time>2013-09-10T12:42:29Z</time>
      </trkpt>
      <trkpt lat="44.42825" lon="6.21866">
        <ele>1015.7702637</ele>
        <time>2013-09-10T12:42:30Z</time>
      </trkpt>
      <trkpt lat="44.42826" lon="6.2184">
        <ele>1013.3669434</ele>
        <time>2013-09-10T12:42:34Z</time>
      </trkpt>
      <trkpt lat="44.42815" lon="6.21819">
        <ele>1011.9250488</ele>
        <time>2013-09-10T12:42:36Z</time>
      </trkpt>
      <trkpt lat="44.42804" lon="6.21808">
        <ele>1008.079834</ele>
        <time>2013-09-10T12:42:38Z</time>
      </trkpt>
      <trkpt lat="44.42787" lon="6.21789">
        <ele>1006.1569824</ele>
        <time>2013-09-10T12:42:41Z</time>
      </trkpt>
      <trkpt lat="44.42778" lon="6.21776">
        <ele>1004.7150879</ele>
        <time>2013-09-10T12:42:43Z</time>
      </trkpt>
      <trkpt lat="44.42771" lon="6.21763">
        <ele>1001.8310547</ele>
        <time>2013-09-10T12:42:45Z</time>
      </trkpt>
      <trkpt lat="44.4277" lon="6.21751">
        <ele>1000.8696289</ele>
        <time>2013-09-10T12:42:47Z</time>
      </trkpt>
      <trkpt lat="44.42777" lon="6.21717">
        <ele>998.4663086</ele>
        <time>2013-09-10T12:42:52Z</time>
      </trkpt>
      <trkpt lat="44.42779" lon="6.21709">
        <ele>996.5439453</ele>
        <time>2013-09-10T12:42:53Z</time>
      </trkpt>
      <trkpt lat="44.42782" lon="6.21696">
        <ele>995.1018066</ele>
        <time>2013-09-10T12:42:55Z</time>
      </trkpt>
      <trkpt lat="44.42786" lon="6.21679">
        <ele>993.1791992</ele>
        <time>2013-09-10T12:42:57Z</time>
      </trkpt>
      <trkpt lat="44.42787" lon="6.21655">
        <ele>988.8535156</ele>
        <time>2013-09-10T12:43:00Z</time>
      </trkpt>
      <trkpt lat="44.42775" lon="6.21614">
        <ele>987.4111328</ele>
        <time>2013-09-10T12:43:06Z</time>
      </trkpt>
      <trkpt lat="44.42765" lon="6.21591">
        <ele>985.0080566</ele>
        <time>2013-09-10T12:43:09Z</time>
      </trkpt>
      <trkpt lat="44.42758" lon="6.2158">
        <ele>983.565918</ele>
        <time>2013-09-10T12:43:11Z</time>
      </trkpt>
      <trkpt lat="44.42744" lon="6.21558">
        <ele>978.7595215</ele>
        <time>2013-09-10T12:43:15Z</time>
      </trkpt>
      <trkpt lat="44.42741" lon="6.21554">
        <ele>978.7595215</ele>
        <time>2013-09-10T12:43:16Z</time>
      </trkpt>
      <trkpt lat="44.4273" lon="6.21537">
        <ele>977.317627</ele>
        <time>2013-09-10T12:43:19Z</time>
      </trkpt>
      <trkpt lat="44.42722" lon="6.21507">
        <ele>974.9143066</ele>
        <time>2013-09-10T12:43:23Z</time>
      </trkpt>
      <trkpt lat="44.42719" lon="6.21498">
        <ele>972.0302734</ele>
        <time>2013-09-10T12:43:24Z</time>
      </trkpt>
      <trkpt lat="44.42714" lon="6.21489">
        <ele>972.0302734</ele>
        <time>2013-09-10T12:43:25Z</time>
      </trkpt>
      <trkpt lat="44.42711" lon="6.21481">
        <ele>970.1074219</ele>
        <time>2013-09-10T12:43:26Z</time>
      </trkpt>
      <trkpt lat="44.42695" lon="6.21457">
        <ele>968.6655273</ele>
        <time>2013-09-10T12:43:30Z</time>
      </trkpt>
      <trkpt lat="44.42689" lon="6.21443">
        <ele>967.7041016</ele>
        <time>2013-09-10T12:43:32Z</time>
      </trkpt>
      <trkpt lat="44.42689" lon="6.21435">
        <ele>965.7817383</ele>
        <time>2013-09-10T12:43:33Z</time>
      </trkpt>
      <trkpt lat="44.42692" lon="6.21393">
        <ele>961.4558105</ele>
        <time>2013-09-10T12:43:38Z</time>
      </trkpt>
      <trkpt lat="44.42693" lon="6.21383">
        <ele>961.4558105</ele>
        <time>2013-09-10T12:43:39Z</time>
      </trkpt>
      <trkpt lat="44.42695" lon="6.21368">
        <ele>960.0136719</ele>
        <time>2013-09-10T12:43:41Z</time>
      </trkpt>
      <trkpt lat="44.42692" lon="6.21341">
        <ele>958.5717773</ele>
        <time>2013-09-10T12:43:44Z</time>
      </trkpt>
      <trkpt lat="44.42687" lon="6.2132">
        <ele>957.1298828</ele>
        <time>2013-09-10T12:43:46Z</time>
      </trkpt>
      <trkpt lat="44.42687" lon="6.21301">
        <ele>955.6877441</ele>
        <time>2013-09-10T12:43:48Z</time>
      </trkpt>
      <trkpt lat="44.42687" lon="6.21293">
        <ele>954.2458496</ele>
        <time>2013-09-10T12:43:49Z</time>
      </trkpt>
      <trkpt lat="44.42676" lon="6.21255">
        <ele>952.322998</ele>
        <time>2013-09-10T12:43:53Z</time>
      </trkpt>
      <trkpt lat="44.42672" lon="6.21246">
        <ele>950.8811035</ele>
        <time>2013-09-10T12:43:54Z</time>
      </trkpt>
      <trkpt lat="44.42658" lon="6.21216">
        <ele>948.9584961</ele>
        <time>2013-09-10T12:43:58Z</time>
      </trkpt>
      <trkpt lat="44.42649" lon="6.21205">
        <ele>947.5166016</ele>
        <time>2013-09-10T12:44:00Z</time>
      </trkpt>
      <trkpt lat="44.42634" lon="6.21185">
        <ele>947.0358887</ele>
        <time>2013-09-10T12:44:03Z</time>
      </trkpt>
      <trkpt lat="44.42617" lon="6.21169">
        <ele>942.7102051</ele>
        <time>2013-09-10T12:44:06Z</time>
      </trkpt>
      <trkpt lat="44.42611" lon="6.21164">
        <ele>942.7102051</ele>
        <time>2013-09-10T12:44:07Z</time>
      </trkpt>
      <trkpt lat="44.42599" lon="6.21156">
        <ele>941.7487793</ele>
        <time>2013-09-10T12:44:09Z</time>
      </trkpt>
      <trkpt lat="44.42591" lon="6.21144">
        <ele>940.3068848</ele>
        <time>2013-09-10T12:44:11Z</time>
      </trkpt>
      <trkpt lat="44.42592" lon="6.21121">
        <ele>937.9033203</ele>
        <time>2013-09-10T12:44:14Z</time>
      </trkpt>
      <trkpt lat="44.42595" lon="6.21101">
        <ele>936.4614258</ele>
        <time>2013-09-10T12:44:16Z</time>
      </trkpt>
      <trkpt lat="44.42596" lon="6.21089">
        <ele>934.5388184</ele>
        <time>2013-09-10T12:44:17Z</time>
      </trkpt>
      <trkpt lat="44.42596" lon="6.21046">
        <ele>932.6162109</ele>
        <time>2013-09-10T12:44:21Z</time>
      </trkpt>
      <trkpt lat="44.42617" lon="6.21023">
        <ele>930.2128906</ele>
        <time>2013-09-10T12:44:28Z</time>
      </trkpt>
      <trkpt lat="44.42633" lon="6.21019">
        <ele>928.7709961</ele>
        <time>2013-09-10T12:44:31Z</time>
      </trkpt>
      <trkpt lat="44.42652" lon="6.2101">
        <ele>926.8483887</ele>
        <time>2013-09-10T12:44:34Z</time>
      </trkpt>
      <trkpt lat="44.42669" lon="6.20996">
        <ele>923.0029297</ele>
        <time>2013-09-10T12:44:36Z</time>
      </trkpt>
      <trkpt lat="44.42678" lon="6.20988">
        <ele>923.0029297</ele>
        <time>2013-09-10T12:44:37Z</time>
      </trkpt>
      <trkpt lat="44.42696" lon="6.20969">
        <ele>921.0803223</ele>
        <time>2013-09-10T12:44:39Z</time>
      </trkpt>
      <trkpt lat="44.42735" lon="6.20924">
        <ele>919.1577148</ele>
        <time>2013-09-10T12:44:44Z</time>
      </trkpt>
      <trkpt lat="44.42761" lon="6.20876">
        <ele>918.1962891</ele>
        <time>2013-09-10T12:44:50Z</time>
      </trkpt>
      <trkpt lat="44.4277" lon="6.2085">
        <ele>916.2736816</ele>
        <time>2013-09-10T12:44:53Z</time>
      </trkpt>
      <trkpt lat="44.4277" lon="6.20819">
        <ele>914.3510742</ele>
        <time>2013-09-10T12:44:56Z</time>
      </trkpt>
      <trkpt lat="44.42753" lon="6.20746">
        <ele>908.1027832</ele>
        <time>2013-09-10T12:45:02Z</time>
      </trkpt>
      <trkpt lat="44.42744" lon="6.20701">
        <ele>908.583252</ele>
        <time>2013-09-10T12:45:06Z</time>
      </trkpt>
      <trkpt lat="44.42751" lon="6.20647">
        <ele>908.583252</ele>
        <time>2013-09-10T12:45:12Z</time>
      </trkpt>
      <trkpt lat="44.42744" lon="6.20614">
        <ele>908.583252</ele>
        <time>2013-09-10T12:45:16Z</time>
      </trkpt>
      <trkpt lat="44.42739" lon="6.20584">
        <ele>909.0639648</ele>
        <time>2013-09-10T12:45:20Z</time>
      </trkpt>
      <trkpt lat="44.42731" lon="6.20547">
        <ele>910.5058594</ele>
        <time>2013-09-10T12:45:27Z</time>
      </trkpt>
      <trkpt lat="44.42723" lon="6.20495">
        <ele>912.4284668</ele>
        <time>2013-09-10T12:45:39Z</time>
      </trkpt>
      <trkpt lat="44.4273" lon="6.20464">
        <ele>913.3898926</ele>
        <time>2013-09-10T12:45:53Z</time>
      </trkpt>
      <trkpt lat="44.42743" lon="6.20445">
        <ele>912.4284668</ele>
        <time>2013-09-10T12:46:00Z</time>
      </trkpt>
      <trkpt lat="44.42754" lon="6.20433">
        <ele>910.9865723</ele>
        <time>2013-09-10T12:46:03Z</time>
      </trkpt>
      <trkpt lat="44.42761" lon="6.20424">
        <ele>910.0251465</ele>
        <time>2013-09-10T12:46:05Z</time>
      </trkpt>
      <trkpt lat="44.42781" lon="6.20394">
        <ele>910.0251465</ele>
        <time>2013-09-10T12:46:11Z</time>
      </trkpt>
      <trkpt lat="44.42793" lon="6.20378">
        <ele>910.9865723</ele>
        <time>2013-09-10T12:46:15Z</time>
      </trkpt>
      <trkpt lat="44.42802" lon="6.20365">
        <ele>911.4672852</ele>
        <time>2013-09-10T12:46:21Z</time>
      </trkpt>
      <trkpt lat="44.42806" lon="6.20359">
        <ele>910.5058594</ele>
        <time>2013-09-10T12:46:23Z</time>
      </trkpt>
      <trkpt lat="44.42836" lon="6.20323">
        <ele>909.0639648</ele>
        <time>2013-09-10T12:46:35Z</time>
      </trkpt>
      <trkpt lat="44.42848" lon="6.20312">
        <ele>908.583252</ele>
        <time>2013-09-10T12:46:38Z</time>
      </trkpt>
      <trkpt lat="44.42872" lon="6.20276">
        <ele>906.1796875</ele>
        <time>2013-09-10T12:46:48Z</time>
      </trkpt>
      <trkpt lat="44.42875" lon="6.20267">
        <ele>906.1796875</ele>
        <time>2013-09-10T12:46:49Z</time>
      </trkpt>
      <trkpt lat="44.42895" lon="6.202">
        <ele>905.2185059</ele>
        <time>2013-09-10T12:46:58Z</time>
      </trkpt>
      <trkpt lat="44.429" lon="6.20181">
        <ele>904.737793</ele>
        <time>2013-09-10T12:47:01Z</time>
      </trkpt>
      <trkpt lat="44.42887" lon="6.20094">
        <ele>900.8925781</ele>
        <time>2013-09-10T12:47:12Z</time>
      </trkpt>
      <trkpt lat="44.42883" lon="6.20075">
        <ele>898.9699707</ele>
        <time>2013-09-10T12:47:14Z</time>
      </trkpt>
      <trkpt lat="44.42877" lon="6.20044">
        <ele>899.4506836</ele>
        <time>2013-09-10T12:47:17Z</time>
      </trkpt>
      <trkpt lat="44.42879" lon="6.19988">
        <ele>896.5668945</ele>
        <time>2013-09-10T12:47:23Z</time>
      </trkpt>
      <trkpt lat="44.4287" lon="6.19953">
        <ele>895.1247559</ele>
        <time>2013-09-10T12:47:26Z</time>
      </trkpt>
      <trkpt lat="44.42897" lon="6.19919">
        <ele>893.6828613</ele>
        <time>2013-09-10T12:47:28Z</time>
      </trkpt>
      <trkpt lat="44.42842" lon="6.19863">
        <ele>891.2792969</ele>
        <time>2013-09-10T12:47:32Z</time>
      </trkpt>
      <trkpt lat="44.42841" lon="6.19863">
        <ele>889.3566895</ele>
        <time>2013-09-10T12:47:34Z</time>
      </trkpt>
      <trkpt lat="44.42748" lon="6.19895">
        <ele>887.434082</ele>
        <time>2013-09-10T12:47:42Z</time>
      </trkpt>
      <trkpt lat="44.42699" lon="6.19859">
        <ele>886.9533691</ele>
        <time>2013-09-10T12:47:50Z</time>
      </trkpt>
      <trkpt lat="44.42681" lon="6.19853">
        <ele>886.9533691</ele>
        <time>2013-09-10T12:47:54Z</time>
      </trkpt>
      <trkpt lat="44.4269" lon="6.19857">
        <ele>886.4729004</ele>
        <time>2013-09-10T12:48:00Z</time>
      </trkpt>
      <trkpt lat="44.42706" lon="6.19863">
        <ele>884.0695801</ele>
        <time>2013-09-10T12:48:03Z</time>
      </trkpt>
      <trkpt lat="44.42717" lon="6.19871">
        <ele>882.1469727</ele>
        <time>2013-09-10T12:48:05Z</time>
      </trkpt>
      <trkpt lat="44.4274" lon="6.19863">
        <ele>880.2243652</ele>
        <time>2013-09-10T12:48:07Z</time>
      </trkpt>
      <trkpt lat="44.42767" lon="6.19867">
        <ele>878.3017578</ele>
        <time>2013-09-10T12:48:10Z</time>
      </trkpt>
      <trkpt lat="44.42839" lon="6.19865">
        <ele>877.3405762</ele>
        <time>2013-09-10T12:48:19Z</time>
      </trkpt>
      <trkpt lat="44.42841" lon="6.19863">
        <ele>877.3405762</ele>
        <time>2013-09-10T12:48:25Z</time>
      </trkpt>
      <trkpt lat="44.42822" lon="6.19867">
        <ele>876.8598633</ele>
        <time>2013-09-10T12:48:32Z</time>
      </trkpt>
      <trkpt lat="44.42822" lon="6.19867">
        <ele>876.3791504</ele>
        <time>2013-09-10T12:48:40Z</time>
      </trkpt>
      <trkpt lat="44.42822" lon="6.19867">
        <ele>875.8981934</ele>
        <time>2013-09-10T12:48:52Z</time>
      </trkpt>
      <trkpt lat="44.42822" lon="6.19867">
        <ele>875.8981934</ele>
        <time>2013-09-10T12:48:55Z</time>
      </trkpt>
      <trkpt lat="44.42815" lon="6.19867">
        <ele>875.8981934</ele>
        <time>2013-09-10T12:49:05Z</time>
      </trkpt>
      <trkpt lat="44.42815" lon="6.19867">
        <ele>876.3791504</ele>
        <time>2013-09-10T12:49:17Z</time>
      </trkpt>
      <trkpt lat="44.42815" lon="6.19867">
        <ele>875.8981934</ele>
        <time>2013-09-10T12:49:36Z</time>
      </trkpt>
      <trkpt lat="44.42815" lon="6.19867">
        <ele>875.4174805</ele>
        <time>2013-09-10T12:49:55Z</time>
      </trkpt>
      <trkpt lat="44.42815" lon="6.19867">
        <ele>875.8981934</ele>
        <time>2013-09-10T12:50:32Z</time>
      </trkpt>
      <trkpt lat="44.42815" lon="6.19867">
        <ele>876.3791504</ele>
        <time>2013-09-10T12:51:21Z</time>
      </trkpt>
      <trkpt lat="44.42815" lon="6.19867">
        <ele>875.4174805</ele>
        <time>2013-09-10T12:51:36Z</time>
      </trkpt>
      <trkpt lat="44.42815" lon="6.19867">
        <ele>875.8981934</ele>
        <time>2013-09-10T12:51:57Z</time>
      </trkpt>
    </trkseg>
  </trk>
</gpx>